<?xml version="1.0" encoding="UTF-8" standalone="no" ?>
<gpx xmlns="http://www.topografix.com/GPX/1/1" xmlns:xsi="http://www.w3.org/2001/XMLSchema-instance" xsi:schemaLocation="http://www.topografix.com/GPX/1/1 http://www.topografix.com/GPX/1/1/gpx.xsd" version="1.1" creator="VisuGPX - https://www.visugpx.com">
  <metadata>
    <name>Col d'Anglas - 2441 m</name>
    <desc><![CDATA[randonnée à skis au départ de Gourette.]]></desc>
  </metadata>
  <trk>
    <name><![CDATA[2018-01-08 15:19:21]]></name>
    <trkseg>
      <trkpt lat="42.95994" lon="-0.33348">
        <ele>1313.43</ele>
        <time>2018-01-08T09:15:04Z</time>
      </trkpt>
      <trkpt lat="42.95994" lon="-0.33347">
        <ele>1313.43</ele>
        <time>2018-01-08T09:15:05Z</time>
      </trkpt>
      <trkpt lat="42.95994" lon="-0.33347">
        <ele>1317.96</ele>
        <time>2018-01-08T09:15:08Z</time>
      </trkpt>
      <trkpt lat="42.95994" lon="-0.33347">
        <ele>1321.58</ele>
        <time>2018-01-08T09:15:09Z</time>
      </trkpt>
      <trkpt lat="42.95994" lon="-0.33347">
        <ele>1326.87</ele>
        <time>2018-01-08T09:15:11Z</time>
      </trkpt>
      <trkpt lat="42.95994" lon="-0.33346">
        <ele>1330.27</ele>
        <time>2018-01-08T09:15:13Z</time>
      </trkpt>
      <trkpt lat="42.95994" lon="-0.33346">
        <ele>1333.39</ele>
        <time>2018-01-08T09:15:16Z</time>
      </trkpt>
      <trkpt lat="42.95995" lon="-0.33347">
        <ele>1336.36</ele>
        <time>2018-01-08T09:15:38Z</time>
      </trkpt>
      <trkpt lat="42.95994" lon="-0.33345">
        <ele>1336.22</ele>
        <time>2018-01-08T09:16:00Z</time>
      </trkpt>
      <trkpt lat="42.9599" lon="-0.33347">
        <ele>1336.82</ele>
        <time>2018-01-08T09:16:46Z</time>
      </trkpt>
      <trkpt lat="42.95992" lon="-0.33349">
        <ele>1336.58</ele>
        <time>2018-01-08T09:17:51Z</time>
      </trkpt>
      <trkpt lat="42.95991" lon="-0.33349">
        <ele>1335.76</ele>
        <time>2018-01-08T09:19:26Z</time>
      </trkpt>
      <trkpt lat="42.95994" lon="-0.33348">
        <ele>1337.55</ele>
        <time>2018-01-08T09:19:41Z</time>
      </trkpt>
      <trkpt lat="42.95993" lon="-0.33341">
        <ele>1337.58</ele>
        <time>2018-01-08T09:19:59Z</time>
      </trkpt>
      <trkpt lat="42.95991" lon="-0.33339">
        <ele>1337.36</ele>
        <time>2018-01-08T09:20:14Z</time>
      </trkpt>
      <trkpt lat="42.95991" lon="-0.33335">
        <ele>1337.31</ele>
        <time>2018-01-08T09:20:17Z</time>
      </trkpt>
      <trkpt lat="42.95989" lon="-0.3333">
        <ele>1337.27</ele>
        <time>2018-01-08T09:20:21Z</time>
      </trkpt>
      <trkpt lat="42.95979" lon="-0.33314">
        <ele>1337.84</ele>
        <time>2018-01-08T09:20:34Z</time>
      </trkpt>
      <trkpt lat="42.95975" lon="-0.33312">
        <ele>1338.17</ele>
        <time>2018-01-08T09:20:38Z</time>
      </trkpt>
      <trkpt lat="42.95963" lon="-0.33307">
        <ele>1340.05</ele>
        <time>2018-01-08T09:20:53Z</time>
      </trkpt>
      <trkpt lat="42.9596" lon="-0.33308">
        <ele>1340.84</ele>
        <time>2018-01-08T09:21:01Z</time>
      </trkpt>
      <trkpt lat="42.95957" lon="-0.33312">
        <ele>1340.73</ele>
        <time>2018-01-08T09:21:05Z</time>
      </trkpt>
      <trkpt lat="42.95938" lon="-0.33307">
        <ele>1342.57</ele>
        <time>2018-01-08T09:21:19Z</time>
      </trkpt>
      <trkpt lat="42.95923" lon="-0.33299">
        <ele>1343.18</ele>
        <time>2018-01-08T09:21:34Z</time>
      </trkpt>
      <trkpt lat="42.9591" lon="-0.33297">
        <ele>1343.55</ele>
        <time>2018-01-08T09:21:46Z</time>
      </trkpt>
      <trkpt lat="42.95901" lon="-0.33299">
        <ele>1345.28</ele>
        <time>2018-01-08T09:22:03Z</time>
      </trkpt>
      <trkpt lat="42.95891" lon="-0.3329">
        <ele>1345.43</ele>
        <time>2018-01-08T09:22:21Z</time>
      </trkpt>
      <trkpt lat="42.95876" lon="-0.3329">
        <ele>1345.59</ele>
        <time>2018-01-08T09:22:34Z</time>
      </trkpt>
      <trkpt lat="42.95873" lon="-0.33289">
        <ele>1345.61</ele>
        <time>2018-01-08T09:22:35Z</time>
      </trkpt>
      <trkpt lat="42.9586" lon="-0.33292">
        <ele>1345.66</ele>
        <time>2018-01-08T09:22:41Z</time>
      </trkpt>
      <trkpt lat="42.95835" lon="-0.33279">
        <ele>1346.19</ele>
        <time>2018-01-08T09:22:58Z</time>
      </trkpt>
      <trkpt lat="42.95825" lon="-0.3327">
        <ele>1346.6</ele>
        <time>2018-01-08T09:23:09Z</time>
      </trkpt>
      <trkpt lat="42.95818" lon="-0.33262">
        <ele>1346.89</ele>
        <time>2018-01-08T09:23:17Z</time>
      </trkpt>
      <trkpt lat="42.9582" lon="-0.33259">
        <ele>1346.78</ele>
        <time>2018-01-08T09:23:22Z</time>
      </trkpt>
      <trkpt lat="42.95807" lon="-0.33255">
        <ele>1346.61</ele>
        <time>2018-01-08T09:23:31Z</time>
      </trkpt>
      <trkpt lat="42.95775" lon="-0.33259">
        <ele>1346.44</ele>
        <time>2018-01-08T09:23:47Z</time>
      </trkpt>
      <trkpt lat="42.95757" lon="-0.33273">
        <ele>1346.56</ele>
        <time>2018-01-08T09:24:02Z</time>
      </trkpt>
      <trkpt lat="42.9574" lon="-0.33295">
        <ele>1347.31</ele>
        <time>2018-01-08T09:24:18Z</time>
      </trkpt>
      <trkpt lat="42.95738" lon="-0.33293">
        <ele>1349.15</ele>
        <time>2018-01-08T09:24:31Z</time>
      </trkpt>
      <trkpt lat="42.95737" lon="-0.33293">
        <ele>1349.49</ele>
        <time>2018-01-08T09:24:43Z</time>
      </trkpt>
      <trkpt lat="42.95738" lon="-0.33291">
        <ele>1349.82</ele>
        <time>2018-01-08T09:25:00Z</time>
      </trkpt>
      <trkpt lat="42.95738" lon="-0.33292">
        <ele>1349.54</ele>
        <time>2018-01-08T09:25:18Z</time>
      </trkpt>
      <trkpt lat="42.95735" lon="-0.33291">
        <ele>1349.21</ele>
        <time>2018-01-08T09:25:46Z</time>
      </trkpt>
      <trkpt lat="42.95736" lon="-0.3329">
        <ele>1350.3</ele>
        <time>2018-01-08T09:26:10Z</time>
      </trkpt>
      <trkpt lat="42.95738" lon="-0.3329">
        <ele>1350.38</ele>
        <time>2018-01-08T09:26:34Z</time>
      </trkpt>
      <trkpt lat="42.95731" lon="-0.33288">
        <ele>1350.76</ele>
        <time>2018-01-08T09:26:49Z</time>
      </trkpt>
      <trkpt lat="42.95719" lon="-0.33281">
        <ele>1353.4</ele>
        <time>2018-01-08T09:27:06Z</time>
      </trkpt>
      <trkpt lat="42.95711" lon="-0.33266">
        <ele>1356.41</ele>
        <time>2018-01-08T09:27:23Z</time>
      </trkpt>
      <trkpt lat="42.95708" lon="-0.33255">
        <ele>1357.91</ele>
        <time>2018-01-08T09:27:33Z</time>
      </trkpt>
      <trkpt lat="42.95693" lon="-0.33244">
        <ele>1359.34</ele>
        <time>2018-01-08T09:27:50Z</time>
      </trkpt>
      <trkpt lat="42.95685" lon="-0.3323">
        <ele>1359.23</ele>
        <time>2018-01-08T09:28:03Z</time>
      </trkpt>
      <trkpt lat="42.95688" lon="-0.332">
        <ele>1359.37</ele>
        <time>2018-01-08T09:28:25Z</time>
      </trkpt>
      <trkpt lat="42.9569" lon="-0.33174">
        <ele>1360.14</ele>
        <time>2018-01-08T09:28:44Z</time>
      </trkpt>
      <trkpt lat="42.95686" lon="-0.33154">
        <ele>1360.62</ele>
        <time>2018-01-08T09:29:01Z</time>
      </trkpt>
      <trkpt lat="42.95685" lon="-0.33145">
        <ele>1360.96</ele>
        <time>2018-01-08T09:29:07Z</time>
      </trkpt>
      <trkpt lat="42.95685" lon="-0.33141">
        <ele>1361.03</ele>
        <time>2018-01-08T09:29:10Z</time>
      </trkpt>
      <trkpt lat="42.95668" lon="-0.33136">
        <ele>1360.6</ele>
        <time>2018-01-08T09:29:25Z</time>
      </trkpt>
      <trkpt lat="42.95657" lon="-0.33137">
        <ele>1360.52</ele>
        <time>2018-01-08T09:29:37Z</time>
      </trkpt>
      <trkpt lat="42.95642" lon="-0.33147">
        <ele>1361.16</ele>
        <time>2018-01-08T09:29:55Z</time>
      </trkpt>
      <trkpt lat="42.95633" lon="-0.33146">
        <ele>1364.16</ele>
        <time>2018-01-08T09:30:09Z</time>
      </trkpt>
      <trkpt lat="42.95624" lon="-0.3314">
        <ele>1366.9</ele>
        <time>2018-01-08T09:30:24Z</time>
      </trkpt>
      <trkpt lat="42.95615" lon="-0.33132">
        <ele>1369.6</ele>
        <time>2018-01-08T09:30:41Z</time>
      </trkpt>
      <trkpt lat="42.95609" lon="-0.33125">
        <ele>1372.36</ele>
        <time>2018-01-08T09:30:57Z</time>
      </trkpt>
      <trkpt lat="42.95604" lon="-0.3313">
        <ele>1373.37</ele>
        <time>2018-01-08T09:31:08Z</time>
      </trkpt>
      <trkpt lat="42.95595" lon="-0.33142">
        <ele>1376.44</ele>
        <time>2018-01-08T09:31:27Z</time>
      </trkpt>
      <trkpt lat="42.95592" lon="-0.33134">
        <ele>1377.56</ele>
        <time>2018-01-08T09:31:39Z</time>
      </trkpt>
      <trkpt lat="42.95588" lon="-0.33124">
        <ele>1379.45</ele>
        <time>2018-01-08T09:31:54Z</time>
      </trkpt>
      <trkpt lat="42.95583" lon="-0.33116">
        <ele>1382.23</ele>
        <time>2018-01-08T09:32:09Z</time>
      </trkpt>
      <trkpt lat="42.95577" lon="-0.33127">
        <ele>1384.66</ele>
        <time>2018-01-08T09:32:25Z</time>
      </trkpt>
      <trkpt lat="42.95572" lon="-0.33136">
        <ele>1386.97</ele>
        <time>2018-01-08T09:32:41Z</time>
      </trkpt>
      <trkpt lat="42.95564" lon="-0.33131">
        <ele>1389.19</ele>
        <time>2018-01-08T09:32:57Z</time>
      </trkpt>
      <trkpt lat="42.95555" lon="-0.33129">
        <ele>1392.07</ele>
        <time>2018-01-08T09:33:14Z</time>
      </trkpt>
      <trkpt lat="42.95548" lon="-0.33127">
        <ele>1394.45</ele>
        <time>2018-01-08T09:33:29Z</time>
      </trkpt>
      <trkpt lat="42.95541" lon="-0.33125">
        <ele>1396.29</ele>
        <time>2018-01-08T09:33:43Z</time>
      </trkpt>
      <trkpt lat="42.95535" lon="-0.3311">
        <ele>1397.2</ele>
        <time>2018-01-08T09:34:00Z</time>
      </trkpt>
      <trkpt lat="42.95534" lon="-0.33096">
        <ele>1399.83</ele>
        <time>2018-01-08T09:34:17Z</time>
      </trkpt>
      <trkpt lat="42.95534" lon="-0.33089">
        <ele>1402.86</ele>
        <time>2018-01-08T09:34:27Z</time>
      </trkpt>
      <trkpt lat="42.95534" lon="-0.33076">
        <ele>1405.96</ele>
        <time>2018-01-08T09:34:44Z</time>
      </trkpt>
      <trkpt lat="42.95531" lon="-0.33064">
        <ele>1407.84</ele>
        <time>2018-01-08T09:35:00Z</time>
      </trkpt>
      <trkpt lat="42.95523" lon="-0.33064">
        <ele>1410.02</ele>
        <time>2018-01-08T09:35:13Z</time>
      </trkpt>
      <trkpt lat="42.95513" lon="-0.33059">
        <ele>1411.95</ele>
        <time>2018-01-08T09:35:29Z</time>
      </trkpt>
      <trkpt lat="42.95506" lon="-0.3305">
        <ele>1414.25</ele>
        <time>2018-01-08T09:35:43Z</time>
      </trkpt>
      <trkpt lat="42.95499" lon="-0.3305">
        <ele>1415.89</ele>
        <time>2018-01-08T09:35:53Z</time>
      </trkpt>
      <trkpt lat="42.95494" lon="-0.3305">
        <ele>1416.32</ele>
        <time>2018-01-08T09:36:00Z</time>
      </trkpt>
      <trkpt lat="42.95481" lon="-0.33048">
        <ele>1418.12</ele>
        <time>2018-01-08T09:36:18Z</time>
      </trkpt>
      <trkpt lat="42.95471" lon="-0.33045">
        <ele>1421.1</ele>
        <time>2018-01-08T09:36:34Z</time>
      </trkpt>
      <trkpt lat="42.9546" lon="-0.33045">
        <ele>1424.08</ele>
        <time>2018-01-08T09:36:52Z</time>
      </trkpt>
      <trkpt lat="42.95452" lon="-0.33042">
        <ele>1427.06</ele>
        <time>2018-01-08T09:37:07Z</time>
      </trkpt>
      <trkpt lat="42.95449" lon="-0.33042">
        <ele>1427.81</ele>
        <time>2018-01-08T09:37:12Z</time>
      </trkpt>
      <trkpt lat="42.95434" lon="-0.33042">
        <ele>1429.53</ele>
        <time>2018-01-08T09:37:30Z</time>
      </trkpt>
      <trkpt lat="42.95425" lon="-0.33039">
        <ele>1430.87</ele>
        <time>2018-01-08T09:37:42Z</time>
      </trkpt>
      <trkpt lat="42.95418" lon="-0.33039">
        <ele>1431.69</ele>
        <time>2018-01-08T09:37:51Z</time>
      </trkpt>
      <trkpt lat="42.95407" lon="-0.33037">
        <ele>1434.43</ele>
        <time>2018-01-08T09:38:06Z</time>
      </trkpt>
      <trkpt lat="42.95399" lon="-0.33037">
        <ele>1436.54</ele>
        <time>2018-01-08T09:38:22Z</time>
      </trkpt>
      <trkpt lat="42.9539" lon="-0.33045">
        <ele>1439.31</ele>
        <time>2018-01-08T09:38:40Z</time>
      </trkpt>
      <trkpt lat="42.95388" lon="-0.33034">
        <ele>1440.74</ele>
        <time>2018-01-08T09:38:52Z</time>
      </trkpt>
      <trkpt lat="42.95387" lon="-0.33021">
        <ele>1442.91</ele>
        <time>2018-01-08T09:39:09Z</time>
      </trkpt>
      <trkpt lat="42.9538" lon="-0.3303">
        <ele>1445.96</ele>
        <time>2018-01-08T09:39:23Z</time>
      </trkpt>
      <trkpt lat="42.95377" lon="-0.33035">
        <ele>1447.75</ele>
        <time>2018-01-08T09:39:35Z</time>
      </trkpt>
      <trkpt lat="42.95374" lon="-0.33021">
        <ele>1450.23</ele>
        <time>2018-01-08T09:39:52Z</time>
      </trkpt>
      <trkpt lat="42.95372" lon="-0.3301">
        <ele>1452.03</ele>
        <time>2018-01-08T09:40:07Z</time>
      </trkpt>
      <trkpt lat="42.95366" lon="-0.33018">
        <ele>1453.94</ele>
        <time>2018-01-08T09:40:21Z</time>
      </trkpt>
      <trkpt lat="42.95362" lon="-0.33017">
        <ele>1455.66</ele>
        <time>2018-01-08T09:40:35Z</time>
      </trkpt>
      <trkpt lat="42.9536" lon="-0.33004">
        <ele>1457.46</ele>
        <time>2018-01-08T09:40:52Z</time>
      </trkpt>
      <trkpt lat="42.95358" lon="-0.33009">
        <ele>1458.73</ele>
        <time>2018-01-08T09:40:58Z</time>
      </trkpt>
      <trkpt lat="42.9535" lon="-0.33015">
        <ele>1461.29</ele>
        <time>2018-01-08T09:41:15Z</time>
      </trkpt>
      <trkpt lat="42.9535" lon="-0.32999">
        <ele>1463.51</ele>
        <time>2018-01-08T09:41:33Z</time>
      </trkpt>
      <trkpt lat="42.9535" lon="-0.32984">
        <ele>1465.85</ele>
        <time>2018-01-08T09:41:51Z</time>
      </trkpt>
      <trkpt lat="42.95345" lon="-0.32986">
        <ele>1467.11</ele>
        <time>2018-01-08T09:42:02Z</time>
      </trkpt>
      <trkpt lat="42.95338" lon="-0.32997">
        <ele>1469.09</ele>
        <time>2018-01-08T09:42:21Z</time>
      </trkpt>
      <trkpt lat="42.95336" lon="-0.32988">
        <ele>1470.44</ele>
        <time>2018-01-08T09:42:33Z</time>
      </trkpt>
      <trkpt lat="42.95338" lon="-0.32973">
        <ele>1472.39</ele>
        <time>2018-01-08T09:42:50Z</time>
      </trkpt>
      <trkpt lat="42.95332" lon="-0.3297">
        <ele>1473.94</ele>
        <time>2018-01-08T09:43:04Z</time>
      </trkpt>
      <trkpt lat="42.95329" lon="-0.32961">
        <ele>1476.1</ele>
        <time>2018-01-08T09:43:16Z</time>
      </trkpt>
      <trkpt lat="42.95326" lon="-0.32953">
        <ele>1478.49</ele>
        <time>2018-01-08T09:43:31Z</time>
      </trkpt>
      <trkpt lat="42.9532" lon="-0.3295">
        <ele>1480.55</ele>
        <time>2018-01-08T09:43:45Z</time>
      </trkpt>
      <trkpt lat="42.95313" lon="-0.32948">
        <ele>1483.68</ele>
        <time>2018-01-08T09:43:58Z</time>
      </trkpt>
      <trkpt lat="42.95306" lon="-0.32947">
        <ele>1486.17</ele>
        <time>2018-01-08T09:44:11Z</time>
      </trkpt>
      <trkpt lat="42.95305" lon="-0.32949">
        <ele>1488.39</ele>
        <time>2018-01-08T09:44:27Z</time>
      </trkpt>
      <trkpt lat="42.95303" lon="-0.3295">
        <ele>1488.43</ele>
        <time>2018-01-08T09:44:46Z</time>
      </trkpt>
      <trkpt lat="42.95295" lon="-0.32952">
        <ele>1491.55</ele>
        <time>2018-01-08T09:45:01Z</time>
      </trkpt>
      <trkpt lat="42.95289" lon="-0.32949">
        <ele>1493.24</ele>
        <time>2018-01-08T09:45:15Z</time>
      </trkpt>
      <trkpt lat="42.95287" lon="-0.32934">
        <ele>1496.34</ele>
        <time>2018-01-08T09:45:34Z</time>
      </trkpt>
      <trkpt lat="42.9528" lon="-0.32926">
        <ele>1498.88</ele>
        <time>2018-01-08T09:45:51Z</time>
      </trkpt>
      <trkpt lat="42.95271" lon="-0.32921">
        <ele>1502.08</ele>
        <time>2018-01-08T09:46:08Z</time>
      </trkpt>
      <trkpt lat="42.95265" lon="-0.32913">
        <ele>1505.05</ele>
        <time>2018-01-08T09:46:21Z</time>
      </trkpt>
      <trkpt lat="42.95262" lon="-0.32902">
        <ele>1508.1</ele>
        <time>2018-01-08T09:46:39Z</time>
      </trkpt>
      <trkpt lat="42.95257" lon="-0.32895">
        <ele>1511.18</ele>
        <time>2018-01-08T09:46:52Z</time>
      </trkpt>
      <trkpt lat="42.95247" lon="-0.32886">
        <ele>1513.29</ele>
        <time>2018-01-08T09:47:08Z</time>
      </trkpt>
      <trkpt lat="42.95243" lon="-0.32884">
        <ele>1515.36</ele>
        <time>2018-01-08T09:47:23Z</time>
      </trkpt>
      <trkpt lat="42.95244" lon="-0.32884">
        <ele>1515.64</ele>
        <time>2018-01-08T09:47:42Z</time>
      </trkpt>
      <trkpt lat="42.95237" lon="-0.3288">
        <ele>1516.66</ele>
        <time>2018-01-08T09:48:03Z</time>
      </trkpt>
      <trkpt lat="42.95229" lon="-0.32871">
        <ele>1518.54</ele>
        <time>2018-01-08T09:48:20Z</time>
      </trkpt>
      <trkpt lat="42.95221" lon="-0.32861">
        <ele>1521.5</ele>
        <time>2018-01-08T09:48:36Z</time>
      </trkpt>
      <trkpt lat="42.95213" lon="-0.32849">
        <ele>1524</ele>
        <time>2018-01-08T09:48:53Z</time>
      </trkpt>
      <trkpt lat="42.95204" lon="-0.32842">
        <ele>1527.12</ele>
        <time>2018-01-08T09:49:07Z</time>
      </trkpt>
      <trkpt lat="42.95196" lon="-0.32834">
        <ele>1529.02</ele>
        <time>2018-01-08T09:49:23Z</time>
      </trkpt>
      <trkpt lat="42.95187" lon="-0.32828">
        <ele>1531.46</ele>
        <time>2018-01-08T09:49:39Z</time>
      </trkpt>
      <trkpt lat="42.95175" lon="-0.32822">
        <ele>1534.54</ele>
        <time>2018-01-08T09:49:57Z</time>
      </trkpt>
      <trkpt lat="42.95168" lon="-0.32815">
        <ele>1537.28</ele>
        <time>2018-01-08T09:50:12Z</time>
      </trkpt>
      <trkpt lat="42.95161" lon="-0.32809">
        <ele>1539.19</ele>
        <time>2018-01-08T09:50:24Z</time>
      </trkpt>
      <trkpt lat="42.95151" lon="-0.3281">
        <ele>1542.29</ele>
        <time>2018-01-08T09:50:39Z</time>
      </trkpt>
      <trkpt lat="42.95143" lon="-0.32812">
        <ele>1544.93</ele>
        <time>2018-01-08T09:50:57Z</time>
      </trkpt>
      <trkpt lat="42.95133" lon="-0.32807">
        <ele>1547.34</ele>
        <time>2018-01-08T09:51:14Z</time>
      </trkpt>
      <trkpt lat="42.95127" lon="-0.32801">
        <ele>1549.77</ele>
        <time>2018-01-08T09:51:30Z</time>
      </trkpt>
      <trkpt lat="42.95121" lon="-0.32794">
        <ele>1552.82</ele>
        <time>2018-01-08T09:51:45Z</time>
      </trkpt>
      <trkpt lat="42.95114" lon="-0.32788">
        <ele>1555.78</ele>
        <time>2018-01-08T09:52:03Z</time>
      </trkpt>
      <trkpt lat="42.95106" lon="-0.32782">
        <ele>1556.98</ele>
        <time>2018-01-08T09:52:18Z</time>
      </trkpt>
      <trkpt lat="42.95098" lon="-0.32769">
        <ele>1559.42</ele>
        <time>2018-01-08T09:52:36Z</time>
      </trkpt>
      <trkpt lat="42.95095" lon="-0.32766">
        <ele>1559.64</ele>
        <time>2018-01-08T09:52:50Z</time>
      </trkpt>
      <trkpt lat="42.95096" lon="-0.32766">
        <ele>1559.58</ele>
        <time>2018-01-08T09:53:14Z</time>
      </trkpt>
      <trkpt lat="42.95098" lon="-0.32764">
        <ele>1560.19</ele>
        <time>2018-01-08T09:53:43Z</time>
      </trkpt>
      <trkpt lat="42.95097" lon="-0.32764">
        <ele>1560.62</ele>
        <time>2018-01-08T09:54:13Z</time>
      </trkpt>
      <trkpt lat="42.95098" lon="-0.32764">
        <ele>1560.78</ele>
        <time>2018-01-08T09:54:33Z</time>
      </trkpt>
      <trkpt lat="42.95095" lon="-0.3275">
        <ele>1559.6</ele>
        <time>2018-01-08T09:54:48Z</time>
      </trkpt>
      <trkpt lat="42.95094" lon="-0.32744">
        <ele>1559.17</ele>
        <time>2018-01-08T09:54:54Z</time>
      </trkpt>
      <trkpt lat="42.95093" lon="-0.32732">
        <ele>1557.82</ele>
        <time>2018-01-08T09:55:11Z</time>
      </trkpt>
      <trkpt lat="42.95091" lon="-0.3271">
        <ele>1555.88</ele>
        <time>2018-01-08T09:55:28Z</time>
      </trkpt>
      <trkpt lat="42.95091" lon="-0.32691">
        <ele>1554.82</ele>
        <time>2018-01-08T09:55:45Z</time>
      </trkpt>
      <trkpt lat="42.9509" lon="-0.32673">
        <ele>1552.58</ele>
        <time>2018-01-08T09:55:58Z</time>
      </trkpt>
      <trkpt lat="42.95088" lon="-0.32663">
        <ele>1550.03</ele>
        <time>2018-01-08T09:56:18Z</time>
      </trkpt>
      <trkpt lat="42.95089" lon="-0.32661">
        <ele>1549.65</ele>
        <time>2018-01-08T09:56:21Z</time>
      </trkpt>
      <trkpt lat="42.95084" lon="-0.32644">
        <ele>1550.37</ele>
        <time>2018-01-08T09:56:38Z</time>
      </trkpt>
      <trkpt lat="42.95078" lon="-0.32637">
        <ele>1552.11</ele>
        <time>2018-01-08T09:56:50Z</time>
      </trkpt>
      <trkpt lat="42.95071" lon="-0.32623">
        <ele>1554.09</ele>
        <time>2018-01-08T09:57:06Z</time>
      </trkpt>
      <trkpt lat="42.95066" lon="-0.32612">
        <ele>1556.46</ele>
        <time>2018-01-08T09:57:20Z</time>
      </trkpt>
      <trkpt lat="42.95059" lon="-0.326">
        <ele>1559.15</ele>
        <time>2018-01-08T09:57:36Z</time>
      </trkpt>
      <trkpt lat="42.95052" lon="-0.32587">
        <ele>1562.25</ele>
        <time>2018-01-08T09:57:52Z</time>
      </trkpt>
      <trkpt lat="42.95047" lon="-0.32574">
        <ele>1564.58</ele>
        <time>2018-01-08T09:58:09Z</time>
      </trkpt>
      <trkpt lat="42.95041" lon="-0.32562">
        <ele>1566.77</ele>
        <time>2018-01-08T09:58:25Z</time>
      </trkpt>
      <trkpt lat="42.95038" lon="-0.32551">
        <ele>1569.32</ele>
        <time>2018-01-08T09:58:38Z</time>
      </trkpt>
      <trkpt lat="42.95033" lon="-0.32538">
        <ele>1571.74</ele>
        <time>2018-01-08T09:58:54Z</time>
      </trkpt>
      <trkpt lat="42.95033" lon="-0.32527">
        <ele>1574.9</ele>
        <time>2018-01-08T09:59:10Z</time>
      </trkpt>
      <trkpt lat="42.95033" lon="-0.32513">
        <ele>1577.21</ele>
        <time>2018-01-08T09:59:26Z</time>
      </trkpt>
      <trkpt lat="42.9503" lon="-0.32497">
        <ele>1579.66</ele>
        <time>2018-01-08T09:59:46Z</time>
      </trkpt>
      <trkpt lat="42.9503" lon="-0.32484">
        <ele>1582.17</ele>
        <time>2018-01-08T10:00:00Z</time>
      </trkpt>
      <trkpt lat="42.95029" lon="-0.32468">
        <ele>1584.71</ele>
        <time>2018-01-08T10:00:17Z</time>
      </trkpt>
      <trkpt lat="42.95024" lon="-0.32456">
        <ele>1586.85</ele>
        <time>2018-01-08T10:00:34Z</time>
      </trkpt>
      <trkpt lat="42.95016" lon="-0.32448">
        <ele>1589.95</ele>
        <time>2018-01-08T10:00:51Z</time>
      </trkpt>
      <trkpt lat="42.95005" lon="-0.32442">
        <ele>1592.73</ele>
        <time>2018-01-08T10:01:10Z</time>
      </trkpt>
      <trkpt lat="42.94994" lon="-0.32437">
        <ele>1594.99</ele>
        <time>2018-01-08T10:01:29Z</time>
      </trkpt>
      <trkpt lat="42.94984" lon="-0.32433">
        <ele>1596.81</ele>
        <time>2018-01-08T10:01:45Z</time>
      </trkpt>
      <trkpt lat="42.94976" lon="-0.32429">
        <ele>1599.9</ele>
        <time>2018-01-08T10:02:01Z</time>
      </trkpt>
      <trkpt lat="42.94965" lon="-0.32425">
        <ele>1602.91</ele>
        <time>2018-01-08T10:02:19Z</time>
      </trkpt>
      <trkpt lat="42.94956" lon="-0.3242">
        <ele>1605.28</ele>
        <time>2018-01-08T10:02:33Z</time>
      </trkpt>
      <trkpt lat="42.94946" lon="-0.32417">
        <ele>1607.47</ele>
        <time>2018-01-08T10:02:51Z</time>
      </trkpt>
      <trkpt lat="42.94938" lon="-0.32415">
        <ele>1610.25</ele>
        <time>2018-01-08T10:03:06Z</time>
      </trkpt>
      <trkpt lat="42.94931" lon="-0.3241">
        <ele>1613.37</ele>
        <time>2018-01-08T10:03:20Z</time>
      </trkpt>
      <trkpt lat="42.94924" lon="-0.32407">
        <ele>1615.83</ele>
        <time>2018-01-08T10:03:34Z</time>
      </trkpt>
      <trkpt lat="42.94914" lon="-0.32401">
        <ele>1617.99</ele>
        <time>2018-01-08T10:03:50Z</time>
      </trkpt>
      <trkpt lat="42.94909" lon="-0.32398">
        <ele>1619.15</ele>
        <time>2018-01-08T10:04:02Z</time>
      </trkpt>
      <trkpt lat="42.94903" lon="-0.32396">
        <ele>1621.36</ele>
        <time>2018-01-08T10:04:18Z</time>
      </trkpt>
      <trkpt lat="42.94894" lon="-0.32394">
        <ele>1622.34</ele>
        <time>2018-01-08T10:04:32Z</time>
      </trkpt>
      <trkpt lat="42.94881" lon="-0.3239">
        <ele>1624.46</ele>
        <time>2018-01-08T10:04:51Z</time>
      </trkpt>
      <trkpt lat="42.94869" lon="-0.32388">
        <ele>1627.03</ele>
        <time>2018-01-08T10:05:09Z</time>
      </trkpt>
      <trkpt lat="42.94859" lon="-0.32386">
        <ele>1630.13</ele>
        <time>2018-01-08T10:05:25Z</time>
      </trkpt>
      <trkpt lat="42.94852" lon="-0.3238">
        <ele>1633.24</ele>
        <time>2018-01-08T10:05:39Z</time>
      </trkpt>
      <trkpt lat="42.94848" lon="-0.32374">
        <ele>1635.26</ele>
        <time>2018-01-08T10:05:53Z</time>
      </trkpt>
      <trkpt lat="42.94845" lon="-0.32371">
        <ele>1635.64</ele>
        <time>2018-01-08T10:06:19Z</time>
      </trkpt>
      <trkpt lat="42.94831" lon="-0.32356">
        <ele>1638.1</ele>
        <time>2018-01-08T10:06:41Z</time>
      </trkpt>
      <trkpt lat="42.94828" lon="-0.32357">
        <ele>1638</ele>
        <time>2018-01-08T10:06:57Z</time>
      </trkpt>
      <trkpt lat="42.94828" lon="-0.32358">
        <ele>1637</ele>
        <time>2018-01-08T10:07:34Z</time>
      </trkpt>
      <trkpt lat="42.94827" lon="-0.3236">
        <ele>1638.22</ele>
        <time>2018-01-08T10:08:19Z</time>
      </trkpt>
      <trkpt lat="42.94828" lon="-0.32359">
        <ele>1638.31</ele>
        <time>2018-01-08T10:08:45Z</time>
      </trkpt>
      <trkpt lat="42.94821" lon="-0.32357">
        <ele>1638.64</ele>
        <time>2018-01-08T10:09:00Z</time>
      </trkpt>
      <trkpt lat="42.94821" lon="-0.32358">
        <ele>1638.95</ele>
        <time>2018-01-08T10:09:27Z</time>
      </trkpt>
      <trkpt lat="42.9481" lon="-0.32351">
        <ele>1640.6</ele>
        <time>2018-01-08T10:09:44Z</time>
      </trkpt>
      <trkpt lat="42.948" lon="-0.32344">
        <ele>1643.05</ele>
        <time>2018-01-08T10:10:00Z</time>
      </trkpt>
      <trkpt lat="42.94788" lon="-0.32341">
        <ele>1644.94</ele>
        <time>2018-01-08T10:10:16Z</time>
      </trkpt>
      <trkpt lat="42.94775" lon="-0.32339">
        <ele>1647.35</ele>
        <time>2018-01-08T10:10:36Z</time>
      </trkpt>
      <trkpt lat="42.94764" lon="-0.32334">
        <ele>1649.68</ele>
        <time>2018-01-08T10:10:54Z</time>
      </trkpt>
      <trkpt lat="42.94754" lon="-0.32326">
        <ele>1652.73</ele>
        <time>2018-01-08T10:11:10Z</time>
      </trkpt>
      <trkpt lat="42.94751" lon="-0.32325">
        <ele>1653.19</ele>
        <time>2018-01-08T10:11:14Z</time>
      </trkpt>
      <trkpt lat="42.94737" lon="-0.3232">
        <ele>1655.4</ele>
        <time>2018-01-08T10:11:32Z</time>
      </trkpt>
      <trkpt lat="42.94725" lon="-0.32326">
        <ele>1656.64</ele>
        <time>2018-01-08T10:11:49Z</time>
      </trkpt>
      <trkpt lat="42.94723" lon="-0.32326">
        <ele>1657.26</ele>
        <time>2018-01-08T10:11:53Z</time>
      </trkpt>
      <trkpt lat="42.94709" lon="-0.32329">
        <ele>1660.29</ele>
        <time>2018-01-08T10:12:11Z</time>
      </trkpt>
      <trkpt lat="42.94698" lon="-0.32326">
        <ele>1663.31</ele>
        <time>2018-01-08T10:12:27Z</time>
      </trkpt>
      <trkpt lat="42.94685" lon="-0.32319">
        <ele>1666.31</ele>
        <time>2018-01-08T10:12:45Z</time>
      </trkpt>
      <trkpt lat="42.9468" lon="-0.32315">
        <ele>1666.19</ele>
        <time>2018-01-08T10:12:53Z</time>
      </trkpt>
      <trkpt lat="42.94668" lon="-0.32303">
        <ele>1666.14</ele>
        <time>2018-01-08T10:13:09Z</time>
      </trkpt>
      <trkpt lat="42.94653" lon="-0.32298">
        <ele>1666.22</ele>
        <time>2018-01-08T10:13:26Z</time>
      </trkpt>
      <trkpt lat="42.94634" lon="-0.32298">
        <ele>1664.99</ele>
        <time>2018-01-08T10:13:46Z</time>
      </trkpt>
      <trkpt lat="42.94615" lon="-0.32299">
        <ele>1663.85</ele>
        <time>2018-01-08T10:14:03Z</time>
      </trkpt>
      <trkpt lat="42.94594" lon="-0.32303">
        <ele>1661.96</ele>
        <time>2018-01-08T10:14:16Z</time>
      </trkpt>
      <trkpt lat="42.94579" lon="-0.32295">
        <ele>1658.99</ele>
        <time>2018-01-08T10:14:31Z</time>
      </trkpt>
      <trkpt lat="42.94568" lon="-0.32281">
        <ele>1659.25</ele>
        <time>2018-01-08T10:14:46Z</time>
      </trkpt>
      <trkpt lat="42.94567" lon="-0.32259">
        <ele>1661.18</ele>
        <time>2018-01-08T10:15:04Z</time>
      </trkpt>
      <trkpt lat="42.94568" lon="-0.32255">
        <ele>1662.12</ele>
        <time>2018-01-08T10:15:08Z</time>
      </trkpt>
      <trkpt lat="42.94567" lon="-0.32239">
        <ele>1663.95</ele>
        <time>2018-01-08T10:15:24Z</time>
      </trkpt>
      <trkpt lat="42.94564" lon="-0.32237">
        <ele>1664.22</ele>
        <time>2018-01-08T10:15:28Z</time>
      </trkpt>
      <trkpt lat="42.94554" lon="-0.32229">
        <ele>1665.5</ele>
        <time>2018-01-08T10:15:43Z</time>
      </trkpt>
      <trkpt lat="42.94545" lon="-0.32224">
        <ele>1667.53</ele>
        <time>2018-01-08T10:15:57Z</time>
      </trkpt>
      <trkpt lat="42.94534" lon="-0.32229">
        <ele>1667.65</ele>
        <time>2018-01-08T10:16:11Z</time>
      </trkpt>
      <trkpt lat="42.94533" lon="-0.32229">
        <ele>1667.73</ele>
        <time>2018-01-08T10:16:12Z</time>
      </trkpt>
      <trkpt lat="42.94516" lon="-0.32225">
        <ele>1666.56</ele>
        <time>2018-01-08T10:16:28Z</time>
      </trkpt>
      <trkpt lat="42.94496" lon="-0.3223">
        <ele>1666.42</ele>
        <time>2018-01-08T10:16:49Z</time>
      </trkpt>
      <trkpt lat="42.94476" lon="-0.32231">
        <ele>1665.92</ele>
        <time>2018-01-08T10:17:09Z</time>
      </trkpt>
      <trkpt lat="42.94457" lon="-0.32232">
        <ele>1664.36</ele>
        <time>2018-01-08T10:17:29Z</time>
      </trkpt>
      <trkpt lat="42.94457" lon="-0.32232">
        <ele>1664.39</ele>
        <time>2018-01-08T10:17:30Z</time>
      </trkpt>
      <trkpt lat="42.94446" lon="-0.32236">
        <ele>1664.52</ele>
        <time>2018-01-08T10:17:40Z</time>
      </trkpt>
      <trkpt lat="42.9443" lon="-0.32241">
        <ele>1662.88</ele>
        <time>2018-01-08T10:17:56Z</time>
      </trkpt>
      <trkpt lat="42.94417" lon="-0.32243">
        <ele>1665.07</ele>
        <time>2018-01-08T10:18:13Z</time>
      </trkpt>
      <trkpt lat="42.94402" lon="-0.32247">
        <ele>1666.58</ele>
        <time>2018-01-08T10:18:30Z</time>
      </trkpt>
      <trkpt lat="42.94387" lon="-0.32247">
        <ele>1667.78</ele>
        <time>2018-01-08T10:18:48Z</time>
      </trkpt>
      <trkpt lat="42.94369" lon="-0.32247">
        <ele>1666.64</ele>
        <time>2018-01-08T10:19:06Z</time>
      </trkpt>
      <trkpt lat="42.94357" lon="-0.32243">
        <ele>1667.6</ele>
        <time>2018-01-08T10:19:21Z</time>
      </trkpt>
      <trkpt lat="42.94349" lon="-0.3224">
        <ele>1668.2</ele>
        <time>2018-01-08T10:19:30Z</time>
      </trkpt>
      <trkpt lat="42.94342" lon="-0.3223">
        <ele>1669.26</ele>
        <time>2018-01-08T10:19:41Z</time>
      </trkpt>
      <trkpt lat="42.9433" lon="-0.3222">
        <ele>1670.86</ele>
        <time>2018-01-08T10:19:56Z</time>
      </trkpt>
      <trkpt lat="42.94318" lon="-0.32217">
        <ele>1671.87</ele>
        <time>2018-01-08T10:20:12Z</time>
      </trkpt>
      <trkpt lat="42.94298" lon="-0.32215">
        <ele>1670.91</ele>
        <time>2018-01-08T10:20:33Z</time>
      </trkpt>
      <trkpt lat="42.94285" lon="-0.32212">
        <ele>1671.78</ele>
        <time>2018-01-08T10:20:50Z</time>
      </trkpt>
      <trkpt lat="42.94272" lon="-0.32207">
        <ele>1673.33</ele>
        <time>2018-01-08T10:21:06Z</time>
      </trkpt>
      <trkpt lat="42.94263" lon="-0.32206">
        <ele>1674.02</ele>
        <time>2018-01-08T10:21:17Z</time>
      </trkpt>
      <trkpt lat="42.94264" lon="-0.32197">
        <ele>1674.28</ele>
        <time>2018-01-08T10:21:47Z</time>
      </trkpt>
      <trkpt lat="42.94262" lon="-0.32198">
        <ele>1674.42</ele>
        <time>2018-01-08T10:22:11Z</time>
      </trkpt>
      <trkpt lat="42.94265" lon="-0.32201">
        <ele>1674.05</ele>
        <time>2018-01-08T10:22:55Z</time>
      </trkpt>
      <trkpt lat="42.94266" lon="-0.32201">
        <ele>1673.66</ele>
        <time>2018-01-08T10:23:32Z</time>
      </trkpt>
      <trkpt lat="42.94265" lon="-0.32201">
        <ele>1673.77</ele>
        <time>2018-01-08T10:24:10Z</time>
      </trkpt>
      <trkpt lat="42.94262" lon="-0.322">
        <ele>1673.13</ele>
        <time>2018-01-08T10:24:43Z</time>
      </trkpt>
      <trkpt lat="42.94264" lon="-0.32202">
        <ele>1672.69</ele>
        <time>2018-01-08T10:25:15Z</time>
      </trkpt>
      <trkpt lat="42.94264" lon="-0.32202">
        <ele>1673.03</ele>
        <time>2018-01-08T10:25:40Z</time>
      </trkpt>
      <trkpt lat="42.94263" lon="-0.32205">
        <ele>1673.22</ele>
        <time>2018-01-08T10:25:48Z</time>
      </trkpt>
      <trkpt lat="42.94263" lon="-0.3221">
        <ele>1673.06</ele>
        <time>2018-01-08T10:25:52Z</time>
      </trkpt>
      <trkpt lat="42.94259" lon="-0.32216">
        <ele>1673.45</ele>
        <time>2018-01-08T10:26:07Z</time>
      </trkpt>
      <trkpt lat="42.94256" lon="-0.32217">
        <ele>1672.95</ele>
        <time>2018-01-08T10:26:30Z</time>
      </trkpt>
      <trkpt lat="42.94257" lon="-0.32218">
        <ele>1672.5</ele>
        <time>2018-01-08T10:27:11Z</time>
      </trkpt>
      <trkpt lat="42.94257" lon="-0.32218">
        <ele>1672.53</ele>
        <time>2018-01-08T10:27:30Z</time>
      </trkpt>
      <trkpt lat="42.94258" lon="-0.32218">
        <ele>1672.4</ele>
        <time>2018-01-08T10:28:17Z</time>
      </trkpt>
      <trkpt lat="42.94248" lon="-0.3222">
        <ele>1673.62</ele>
        <time>2018-01-08T10:28:33Z</time>
      </trkpt>
      <trkpt lat="42.9424" lon="-0.32222">
        <ele>1674.01</ele>
        <time>2018-01-08T10:28:49Z</time>
      </trkpt>
      <trkpt lat="42.94231" lon="-0.32222">
        <ele>1675.34</ele>
        <time>2018-01-08T10:29:14Z</time>
      </trkpt>
      <trkpt lat="42.94222" lon="-0.32219">
        <ele>1677.74</ele>
        <time>2018-01-08T10:29:33Z</time>
      </trkpt>
      <trkpt lat="42.94211" lon="-0.32216">
        <ele>1679.55</ele>
        <time>2018-01-08T10:29:52Z</time>
      </trkpt>
      <trkpt lat="42.94195" lon="-0.3221">
        <ele>1681.68</ele>
        <time>2018-01-08T10:30:12Z</time>
      </trkpt>
      <trkpt lat="42.94185" lon="-0.32207">
        <ele>1683.65</ele>
        <time>2018-01-08T10:30:30Z</time>
      </trkpt>
      <trkpt lat="42.94175" lon="-0.32203">
        <ele>1685.51</ele>
        <time>2018-01-08T10:30:48Z</time>
      </trkpt>
      <trkpt lat="42.9416" lon="-0.32204">
        <ele>1687.91</ele>
        <time>2018-01-08T10:31:08Z</time>
      </trkpt>
      <trkpt lat="42.9416" lon="-0.32206">
        <ele>1688.03</ele>
        <time>2018-01-08T10:31:37Z</time>
      </trkpt>
      <trkpt lat="42.94152" lon="-0.32205">
        <ele>1688.69</ele>
        <time>2018-01-08T10:31:50Z</time>
      </trkpt>
      <trkpt lat="42.94139" lon="-0.32206">
        <ele>1690.49</ele>
        <time>2018-01-08T10:32:06Z</time>
      </trkpt>
      <trkpt lat="42.94129" lon="-0.32205">
        <ele>1693.08</ele>
        <time>2018-01-08T10:32:22Z</time>
      </trkpt>
      <trkpt lat="42.94129" lon="-0.32206">
        <ele>1693.01</ele>
        <time>2018-01-08T10:32:26Z</time>
      </trkpt>
      <trkpt lat="42.9412" lon="-0.32201">
        <ele>1693.39</ele>
        <time>2018-01-08T10:32:35Z</time>
      </trkpt>
      <trkpt lat="42.94107" lon="-0.32194">
        <ele>1696.51</ele>
        <time>2018-01-08T10:32:47Z</time>
      </trkpt>
      <trkpt lat="42.94092" lon="-0.32185">
        <ele>1699.61</ele>
        <time>2018-01-08T10:33:02Z</time>
      </trkpt>
      <trkpt lat="42.94077" lon="-0.3218">
        <ele>1701.46</ele>
        <time>2018-01-08T10:33:18Z</time>
      </trkpt>
      <trkpt lat="42.94072" lon="-0.32177">
        <ele>1702.98</ele>
        <time>2018-01-08T10:33:26Z</time>
      </trkpt>
      <trkpt lat="42.94065" lon="-0.32173">
        <ele>1705.37</ele>
        <time>2018-01-08T10:33:44Z</time>
      </trkpt>
      <trkpt lat="42.94057" lon="-0.32163">
        <ele>1707.12</ele>
        <time>2018-01-08T10:34:00Z</time>
      </trkpt>
      <trkpt lat="42.94055" lon="-0.3216">
        <ele>1709.01</ele>
        <time>2018-01-08T10:34:20Z</time>
      </trkpt>
      <trkpt lat="42.9405" lon="-0.32153">
        <ele>1709.83</ele>
        <time>2018-01-08T10:34:36Z</time>
      </trkpt>
      <trkpt lat="42.94039" lon="-0.32147">
        <ele>1712.27</ele>
        <time>2018-01-08T10:34:55Z</time>
      </trkpt>
      <trkpt lat="42.94036" lon="-0.32144">
        <ele>1713.95</ele>
        <time>2018-01-08T10:35:15Z</time>
      </trkpt>
      <trkpt lat="42.94027" lon="-0.3214">
        <ele>1715.64</ele>
        <time>2018-01-08T10:35:35Z</time>
      </trkpt>
      <trkpt lat="42.94017" lon="-0.32134">
        <ele>1717.38</ele>
        <time>2018-01-08T10:35:51Z</time>
      </trkpt>
      <trkpt lat="42.94004" lon="-0.32128">
        <ele>1719.15</ele>
        <time>2018-01-08T10:36:10Z</time>
      </trkpt>
      <trkpt lat="42.93998" lon="-0.32126">
        <ele>1720.04</ele>
        <time>2018-01-08T10:36:26Z</time>
      </trkpt>
      <trkpt lat="42.93994" lon="-0.32126">
        <ele>1721.36</ele>
        <time>2018-01-08T10:36:42Z</time>
      </trkpt>
      <trkpt lat="42.93994" lon="-0.32126">
        <ele>1721.1</ele>
        <time>2018-01-08T10:37:14Z</time>
      </trkpt>
      <trkpt lat="42.93984" lon="-0.32119">
        <ele>1721.86</ele>
        <time>2018-01-08T10:37:31Z</time>
      </trkpt>
      <trkpt lat="42.93974" lon="-0.32113">
        <ele>1724.49</ele>
        <time>2018-01-08T10:37:51Z</time>
      </trkpt>
      <trkpt lat="42.93965" lon="-0.32103">
        <ele>1727.02</ele>
        <time>2018-01-08T10:38:07Z</time>
      </trkpt>
      <trkpt lat="42.93958" lon="-0.32097">
        <ele>1730.14</ele>
        <time>2018-01-08T10:38:26Z</time>
      </trkpt>
      <trkpt lat="42.93949" lon="-0.3209">
        <ele>1731.93</ele>
        <time>2018-01-08T10:38:43Z</time>
      </trkpt>
      <trkpt lat="42.93942" lon="-0.32083">
        <ele>1734.99</ele>
        <time>2018-01-08T10:38:59Z</time>
      </trkpt>
      <trkpt lat="42.9394" lon="-0.32088">
        <ele>1736.77</ele>
        <time>2018-01-08T10:39:14Z</time>
      </trkpt>
      <trkpt lat="42.93938" lon="-0.32092">
        <ele>1738.71</ele>
        <time>2018-01-08T10:39:29Z</time>
      </trkpt>
      <trkpt lat="42.93931" lon="-0.32086">
        <ele>1741.04</ele>
        <time>2018-01-08T10:39:45Z</time>
      </trkpt>
      <trkpt lat="42.93925" lon="-0.32084">
        <ele>1743.29</ele>
        <time>2018-01-08T10:40:02Z</time>
      </trkpt>
      <trkpt lat="42.93921" lon="-0.32089">
        <ele>1745.05</ele>
        <time>2018-01-08T10:40:16Z</time>
      </trkpt>
      <trkpt lat="42.93917" lon="-0.32082">
        <ele>1746.63</ele>
        <time>2018-01-08T10:40:30Z</time>
      </trkpt>
      <trkpt lat="42.93907" lon="-0.32074">
        <ele>1749.39</ele>
        <time>2018-01-08T10:40:46Z</time>
      </trkpt>
      <trkpt lat="42.93903" lon="-0.32066">
        <ele>1752.4</ele>
        <time>2018-01-08T10:41:03Z</time>
      </trkpt>
      <trkpt lat="42.93897" lon="-0.32056">
        <ele>1755.42</ele>
        <time>2018-01-08T10:41:19Z</time>
      </trkpt>
      <trkpt lat="42.93889" lon="-0.32047">
        <ele>1757.97</ele>
        <time>2018-01-08T10:41:39Z</time>
      </trkpt>
      <trkpt lat="42.93881" lon="-0.32043">
        <ele>1761.03</ele>
        <time>2018-01-08T10:41:55Z</time>
      </trkpt>
      <trkpt lat="42.93871" lon="-0.32041">
        <ele>1764.14</ele>
        <time>2018-01-08T10:42:12Z</time>
      </trkpt>
      <trkpt lat="42.93867" lon="-0.32045">
        <ele>1766.63</ele>
        <time>2018-01-08T10:42:29Z</time>
      </trkpt>
      <trkpt lat="42.93867" lon="-0.32055">
        <ele>1769.86</ele>
        <time>2018-01-08T10:42:44Z</time>
      </trkpt>
      <trkpt lat="42.93863" lon="-0.32063">
        <ele>1772.63</ele>
        <time>2018-01-08T10:43:02Z</time>
      </trkpt>
      <trkpt lat="42.93854" lon="-0.32056">
        <ele>1774.94</ele>
        <time>2018-01-08T10:43:20Z</time>
      </trkpt>
      <trkpt lat="42.93849" lon="-0.32045">
        <ele>1778.01</ele>
        <time>2018-01-08T10:43:36Z</time>
      </trkpt>
      <trkpt lat="42.93843" lon="-0.32039">
        <ele>1781.21</ele>
        <time>2018-01-08T10:43:51Z</time>
      </trkpt>
      <trkpt lat="42.93836" lon="-0.3203">
        <ele>1784.42</ele>
        <time>2018-01-08T10:44:08Z</time>
      </trkpt>
      <trkpt lat="42.93833" lon="-0.32027">
        <ele>1786.9</ele>
        <time>2018-01-08T10:44:24Z</time>
      </trkpt>
      <trkpt lat="42.93833" lon="-0.32027">
        <ele>1787.1</ele>
        <time>2018-01-08T10:44:50Z</time>
      </trkpt>
      <trkpt lat="42.93832" lon="-0.32026">
        <ele>1786.84</ele>
        <time>2018-01-08T10:45:25Z</time>
      </trkpt>
      <trkpt lat="42.93829" lon="-0.32016">
        <ele>1788.33</ele>
        <time>2018-01-08T10:45:39Z</time>
      </trkpt>
      <trkpt lat="42.9382" lon="-0.32004">
        <ele>1790.32</ele>
        <time>2018-01-08T10:45:56Z</time>
      </trkpt>
      <trkpt lat="42.93817" lon="-0.31994">
        <ele>1793.43</ele>
        <time>2018-01-08T10:46:13Z</time>
      </trkpt>
      <trkpt lat="42.93816" lon="-0.31992">
        <ele>1794.98</ele>
        <time>2018-01-08T10:46:31Z</time>
      </trkpt>
      <trkpt lat="42.93816" lon="-0.31992">
        <ele>1794.81</ele>
        <time>2018-01-08T10:47:00Z</time>
      </trkpt>
      <trkpt lat="42.93816" lon="-0.31993">
        <ele>1794.6</ele>
        <time>2018-01-08T10:47:34Z</time>
      </trkpt>
      <trkpt lat="42.93811" lon="-0.31989">
        <ele>1795.85</ele>
        <time>2018-01-08T10:47:51Z</time>
      </trkpt>
      <trkpt lat="42.93804" lon="-0.31984">
        <ele>1798.83</ele>
        <time>2018-01-08T10:48:09Z</time>
      </trkpt>
      <trkpt lat="42.93801" lon="-0.31981">
        <ele>1800.59</ele>
        <time>2018-01-08T10:48:26Z</time>
      </trkpt>
      <trkpt lat="42.93798" lon="-0.31979">
        <ele>1801.68</ele>
        <time>2018-01-08T10:48:52Z</time>
      </trkpt>
      <trkpt lat="42.93792" lon="-0.3198">
        <ele>1802.69</ele>
        <time>2018-01-08T10:49:05Z</time>
      </trkpt>
      <trkpt lat="42.93788" lon="-0.31983">
        <ele>1805.06</ele>
        <time>2018-01-08T10:49:22Z</time>
      </trkpt>
      <trkpt lat="42.93786" lon="-0.31983">
        <ele>1805.3</ele>
        <time>2018-01-08T10:49:45Z</time>
      </trkpt>
      <trkpt lat="42.93781" lon="-0.31984">
        <ele>1807.05</ele>
        <time>2018-01-08T10:50:02Z</time>
      </trkpt>
      <trkpt lat="42.93773" lon="-0.31986">
        <ele>1807.99</ele>
        <time>2018-01-08T10:50:20Z</time>
      </trkpt>
      <trkpt lat="42.93765" lon="-0.31987">
        <ele>1811.04</ele>
        <time>2018-01-08T10:50:37Z</time>
      </trkpt>
      <trkpt lat="42.93757" lon="-0.31987">
        <ele>1813.24</ele>
        <time>2018-01-08T10:50:55Z</time>
      </trkpt>
      <trkpt lat="42.93749" lon="-0.31993">
        <ele>1814.78</ele>
        <time>2018-01-08T10:51:11Z</time>
      </trkpt>
      <trkpt lat="42.93746" lon="-0.31994">
        <ele>1815.4</ele>
        <time>2018-01-08T10:51:27Z</time>
      </trkpt>
      <trkpt lat="42.93747" lon="-0.31998">
        <ele>1816.46</ele>
        <time>2018-01-08T10:51:40Z</time>
      </trkpt>
      <trkpt lat="42.93755" lon="-0.32001">
        <ele>1819.47</ele>
        <time>2018-01-08T10:51:56Z</time>
      </trkpt>
      <trkpt lat="42.93761" lon="-0.32003">
        <ele>1820.67</ele>
        <time>2018-01-08T10:52:11Z</time>
      </trkpt>
      <trkpt lat="42.93755" lon="-0.32008">
        <ele>1821.93</ele>
        <time>2018-01-08T10:52:23Z</time>
      </trkpt>
      <trkpt lat="42.9375" lon="-0.32011">
        <ele>1825.08</ele>
        <time>2018-01-08T10:52:39Z</time>
      </trkpt>
      <trkpt lat="42.9375" lon="-0.32012">
        <ele>1826.35</ele>
        <time>2018-01-08T10:53:01Z</time>
      </trkpt>
      <trkpt lat="42.93748" lon="-0.32013">
        <ele>1827.42</ele>
        <time>2018-01-08T10:53:14Z</time>
      </trkpt>
      <trkpt lat="42.93746" lon="-0.32014">
        <ele>1827.72</ele>
        <time>2018-01-08T10:53:29Z</time>
      </trkpt>
      <trkpt lat="42.93743" lon="-0.32021">
        <ele>1829.51</ele>
        <time>2018-01-08T10:53:42Z</time>
      </trkpt>
      <trkpt lat="42.93745" lon="-0.32023">
        <ele>1831.3</ele>
        <time>2018-01-08T10:53:54Z</time>
      </trkpt>
      <trkpt lat="42.93749" lon="-0.32023">
        <ele>1833.35</ele>
        <time>2018-01-08T10:54:09Z</time>
      </trkpt>
      <trkpt lat="42.93752" lon="-0.32027">
        <ele>1834.43</ele>
        <time>2018-01-08T10:54:22Z</time>
      </trkpt>
      <trkpt lat="42.9375" lon="-0.32029">
        <ele>1834.63</ele>
        <time>2018-01-08T10:54:36Z</time>
      </trkpt>
      <trkpt lat="42.93745" lon="-0.32035">
        <ele>1836.43</ele>
        <time>2018-01-08T10:54:56Z</time>
      </trkpt>
      <trkpt lat="42.93734" lon="-0.32044">
        <ele>1838.94</ele>
        <time>2018-01-08T10:55:14Z</time>
      </trkpt>
      <trkpt lat="42.93727" lon="-0.32049">
        <ele>1841.75</ele>
        <time>2018-01-08T10:55:32Z</time>
      </trkpt>
      <trkpt lat="42.93722" lon="-0.32059">
        <ele>1844.83</ele>
        <time>2018-01-08T10:55:49Z</time>
      </trkpt>
      <trkpt lat="42.93729" lon="-0.32064">
        <ele>1847.78</ele>
        <time>2018-01-08T10:56:05Z</time>
      </trkpt>
      <trkpt lat="42.93735" lon="-0.32064">
        <ele>1849.73</ele>
        <time>2018-01-08T10:56:18Z</time>
      </trkpt>
      <trkpt lat="42.9374" lon="-0.32064">
        <ele>1851.64</ele>
        <time>2018-01-08T10:56:32Z</time>
      </trkpt>
      <trkpt lat="42.93744" lon="-0.3207">
        <ele>1854.15</ele>
        <time>2018-01-08T10:56:48Z</time>
      </trkpt>
      <trkpt lat="42.93741" lon="-0.32075">
        <ele>1854.91</ele>
        <time>2018-01-08T10:57:00Z</time>
      </trkpt>
      <trkpt lat="42.93736" lon="-0.32081">
        <ele>1858.03</ele>
        <time>2018-01-08T10:57:12Z</time>
      </trkpt>
      <trkpt lat="42.93733" lon="-0.32086">
        <ele>1860.23</ele>
        <time>2018-01-08T10:57:27Z</time>
      </trkpt>
      <trkpt lat="42.93736" lon="-0.32085">
        <ele>1861.22</ele>
        <time>2018-01-08T10:57:40Z</time>
      </trkpt>
      <trkpt lat="42.9374" lon="-0.32084">
        <ele>1862.84</ele>
        <time>2018-01-08T10:57:56Z</time>
      </trkpt>
      <trkpt lat="42.93744" lon="-0.32085">
        <ele>1863.73</ele>
        <time>2018-01-08T10:58:16Z</time>
      </trkpt>
      <trkpt lat="42.93745" lon="-0.32086">
        <ele>1864.27</ele>
        <time>2018-01-08T10:58:30Z</time>
      </trkpt>
      <trkpt lat="42.93744" lon="-0.32086">
        <ele>1863.94</ele>
        <time>2018-01-08T10:59:03Z</time>
      </trkpt>
      <trkpt lat="42.93743" lon="-0.32086">
        <ele>1864.13</ele>
        <time>2018-01-08T10:59:32Z</time>
      </trkpt>
      <trkpt lat="42.93743" lon="-0.32085">
        <ele>1864.33</ele>
        <time>2018-01-08T11:00:00Z</time>
      </trkpt>
      <trkpt lat="42.93742" lon="-0.32086">
        <ele>1864.56</ele>
        <time>2018-01-08T11:00:30Z</time>
      </trkpt>
      <trkpt lat="42.93742" lon="-0.32087">
        <ele>1864.86</ele>
        <time>2018-01-08T11:00:54Z</time>
      </trkpt>
      <trkpt lat="42.93743" lon="-0.32089">
        <ele>1865.1</ele>
        <time>2018-01-08T11:01:10Z</time>
      </trkpt>
      <trkpt lat="42.93743" lon="-0.3209">
        <ele>1865.69</ele>
        <time>2018-01-08T11:01:41Z</time>
      </trkpt>
      <trkpt lat="42.93739" lon="-0.32096">
        <ele>1866.41</ele>
        <time>2018-01-08T11:01:54Z</time>
      </trkpt>
      <trkpt lat="42.93744" lon="-0.3211">
        <ele>1869.51</ele>
        <time>2018-01-08T11:02:13Z</time>
      </trkpt>
      <trkpt lat="42.93745" lon="-0.32114">
        <ele>1871.03</ele>
        <time>2018-01-08T11:02:33Z</time>
      </trkpt>
      <trkpt lat="42.93743" lon="-0.32116">
        <ele>1871.77</ele>
        <time>2018-01-08T11:02:50Z</time>
      </trkpt>
      <trkpt lat="42.93731" lon="-0.3212">
        <ele>1874.8</ele>
        <time>2018-01-08T11:03:10Z</time>
      </trkpt>
      <trkpt lat="42.93724" lon="-0.32125">
        <ele>1877.92</ele>
        <time>2018-01-08T11:03:26Z</time>
      </trkpt>
      <trkpt lat="42.93726" lon="-0.32131">
        <ele>1879.77</ele>
        <time>2018-01-08T11:03:44Z</time>
      </trkpt>
      <trkpt lat="42.93732" lon="-0.32139">
        <ele>1882.92</ele>
        <time>2018-01-08T11:03:58Z</time>
      </trkpt>
      <trkpt lat="42.93732" lon="-0.32141">
        <ele>1884.95</ele>
        <time>2018-01-08T11:04:14Z</time>
      </trkpt>
      <trkpt lat="42.93727" lon="-0.32147">
        <ele>1887.47</ele>
        <time>2018-01-08T11:04:30Z</time>
      </trkpt>
      <trkpt lat="42.93732" lon="-0.32148">
        <ele>1888.42</ele>
        <time>2018-01-08T11:04:44Z</time>
      </trkpt>
      <trkpt lat="42.9374" lon="-0.32159">
        <ele>1891.47</ele>
        <time>2018-01-08T11:05:03Z</time>
      </trkpt>
      <trkpt lat="42.93745" lon="-0.32169">
        <ele>1894.51</ele>
        <time>2018-01-08T11:05:19Z</time>
      </trkpt>
      <trkpt lat="42.93745" lon="-0.32179">
        <ele>1897.01</ele>
        <time>2018-01-08T11:05:39Z</time>
      </trkpt>
      <trkpt lat="42.93739" lon="-0.32175">
        <ele>1898.69</ele>
        <time>2018-01-08T11:05:53Z</time>
      </trkpt>
      <trkpt lat="42.93731" lon="-0.32177">
        <ele>1900.71</ele>
        <time>2018-01-08T11:06:09Z</time>
      </trkpt>
      <trkpt lat="42.93721" lon="-0.3218">
        <ele>1903.34</ele>
        <time>2018-01-08T11:06:28Z</time>
      </trkpt>
      <trkpt lat="42.93719" lon="-0.32182">
        <ele>1903.98</ele>
        <time>2018-01-08T11:06:33Z</time>
      </trkpt>
      <trkpt lat="42.93714" lon="-0.32187">
        <ele>1905.91</ele>
        <time>2018-01-08T11:06:48Z</time>
      </trkpt>
      <trkpt lat="42.93713" lon="-0.32187">
        <ele>1905.94</ele>
        <time>2018-01-08T11:06:49Z</time>
      </trkpt>
      <trkpt lat="42.93705" lon="-0.32189">
        <ele>1906.35</ele>
        <time>2018-01-08T11:06:59Z</time>
      </trkpt>
      <trkpt lat="42.93689" lon="-0.3219">
        <ele>1906.26</ele>
        <time>2018-01-08T11:07:19Z</time>
      </trkpt>
      <trkpt lat="42.93687" lon="-0.32193">
        <ele>1906.09</ele>
        <time>2018-01-08T11:07:37Z</time>
      </trkpt>
      <trkpt lat="42.93688" lon="-0.32194">
        <ele>1906.61</ele>
        <time>2018-01-08T11:08:24Z</time>
      </trkpt>
      <trkpt lat="42.93688" lon="-0.32193">
        <ele>1907.01</ele>
        <time>2018-01-08T11:09:11Z</time>
      </trkpt>
      <trkpt lat="42.93687" lon="-0.32195">
        <ele>1906.66</ele>
        <time>2018-01-08T11:09:33Z</time>
      </trkpt>
      <trkpt lat="42.93685" lon="-0.32198">
        <ele>1906.93</ele>
        <time>2018-01-08T11:10:04Z</time>
      </trkpt>
      <trkpt lat="42.93683" lon="-0.32209">
        <ele>1909.8</ele>
        <time>2018-01-08T11:10:21Z</time>
      </trkpt>
      <trkpt lat="42.93678" lon="-0.32218">
        <ele>1913.08</ele>
        <time>2018-01-08T11:10:38Z</time>
      </trkpt>
      <trkpt lat="42.93671" lon="-0.32225">
        <ele>1916.27</ele>
        <time>2018-01-08T11:10:57Z</time>
      </trkpt>
      <trkpt lat="42.93667" lon="-0.32232">
        <ele>1919.29</ele>
        <time>2018-01-08T11:11:11Z</time>
      </trkpt>
      <trkpt lat="42.93659" lon="-0.32235">
        <ele>1922.43</ele>
        <time>2018-01-08T11:11:31Z</time>
      </trkpt>
      <trkpt lat="42.93653" lon="-0.32241">
        <ele>1923.97</ele>
        <time>2018-01-08T11:11:46Z</time>
      </trkpt>
      <trkpt lat="42.93646" lon="-0.32248">
        <ele>1926.98</ele>
        <time>2018-01-08T11:12:04Z</time>
      </trkpt>
      <trkpt lat="42.93641" lon="-0.32258">
        <ele>1930.21</ele>
        <time>2018-01-08T11:12:21Z</time>
      </trkpt>
      <trkpt lat="42.93645" lon="-0.32268">
        <ele>1933.24</ele>
        <time>2018-01-08T11:12:38Z</time>
      </trkpt>
      <trkpt lat="42.93645" lon="-0.32268">
        <ele>1935.01</ele>
        <time>2018-01-08T11:12:57Z</time>
      </trkpt>
      <trkpt lat="42.93645" lon="-0.32269">
        <ele>1934.95</ele>
        <time>2018-01-08T11:13:16Z</time>
      </trkpt>
      <trkpt lat="42.93644" lon="-0.32268">
        <ele>1934.33</ele>
        <time>2018-01-08T11:13:55Z</time>
      </trkpt>
      <trkpt lat="42.93644" lon="-0.32268">
        <ele>1934.91</ele>
        <time>2018-01-08T11:14:44Z</time>
      </trkpt>
      <trkpt lat="42.93644" lon="-0.32267">
        <ele>1934.64</ele>
        <time>2018-01-08T11:15:13Z</time>
      </trkpt>
      <trkpt lat="42.93645" lon="-0.32267">
        <ele>1935.05</ele>
        <time>2018-01-08T11:15:50Z</time>
      </trkpt>
      <trkpt lat="42.93644" lon="-0.32267">
        <ele>1935.02</ele>
        <time>2018-01-08T11:16:27Z</time>
      </trkpt>
      <trkpt lat="42.93647" lon="-0.32277">
        <ele>1936.32</ele>
        <time>2018-01-08T11:16:49Z</time>
      </trkpt>
      <trkpt lat="42.93642" lon="-0.32284">
        <ele>1939.13</ele>
        <time>2018-01-08T11:17:04Z</time>
      </trkpt>
      <trkpt lat="42.93641" lon="-0.32287">
        <ele>1941.08</ele>
        <time>2018-01-08T11:17:23Z</time>
      </trkpt>
      <trkpt lat="42.93636" lon="-0.32295">
        <ele>1943.01</ele>
        <time>2018-01-08T11:17:40Z</time>
      </trkpt>
      <trkpt lat="42.93631" lon="-0.32303">
        <ele>1944.52</ele>
        <time>2018-01-08T11:17:57Z</time>
      </trkpt>
      <trkpt lat="42.93629" lon="-0.32308">
        <ele>1946.2</ele>
        <time>2018-01-08T11:18:12Z</time>
      </trkpt>
      <trkpt lat="42.93625" lon="-0.3231">
        <ele>1948.78</ele>
        <time>2018-01-08T11:18:29Z</time>
      </trkpt>
      <trkpt lat="42.93621" lon="-0.32315">
        <ele>1950.84</ele>
        <time>2018-01-08T11:18:44Z</time>
      </trkpt>
      <trkpt lat="42.93616" lon="-0.32318">
        <ele>1951.92</ele>
        <time>2018-01-08T11:19:00Z</time>
      </trkpt>
      <trkpt lat="42.93615" lon="-0.32319">
        <ele>1952.51</ele>
        <time>2018-01-08T11:19:33Z</time>
      </trkpt>
      <trkpt lat="42.93616" lon="-0.3232">
        <ele>1953.09</ele>
        <time>2018-01-08T11:19:51Z</time>
      </trkpt>
      <trkpt lat="42.93608" lon="-0.32327">
        <ele>1955.22</ele>
        <time>2018-01-08T11:20:14Z</time>
      </trkpt>
      <trkpt lat="42.93605" lon="-0.32328">
        <ele>1957</ele>
        <time>2018-01-08T11:20:36Z</time>
      </trkpt>
      <trkpt lat="42.936" lon="-0.32328">
        <ele>1958.24</ele>
        <time>2018-01-08T11:20:59Z</time>
      </trkpt>
      <trkpt lat="42.93597" lon="-0.32328">
        <ele>1959.89</ele>
        <time>2018-01-08T11:21:17Z</time>
      </trkpt>
      <trkpt lat="42.9359" lon="-0.32329">
        <ele>1961.02</ele>
        <time>2018-01-08T11:21:44Z</time>
      </trkpt>
      <trkpt lat="42.93582" lon="-0.32331">
        <ele>1964.09</ele>
        <time>2018-01-08T11:22:01Z</time>
      </trkpt>
      <trkpt lat="42.93579" lon="-0.3233">
        <ele>1966.29</ele>
        <time>2018-01-08T11:22:23Z</time>
      </trkpt>
      <trkpt lat="42.9357" lon="-0.3233">
        <ele>1968.69</ele>
        <time>2018-01-08T11:22:41Z</time>
      </trkpt>
      <trkpt lat="42.9356" lon="-0.3233">
        <ele>1970.42</ele>
        <time>2018-01-08T11:23:01Z</time>
      </trkpt>
      <trkpt lat="42.93553" lon="-0.32329">
        <ele>1972.26</ele>
        <time>2018-01-08T11:23:16Z</time>
      </trkpt>
      <trkpt lat="42.93544" lon="-0.32327">
        <ele>1975.31</ele>
        <time>2018-01-08T11:23:35Z</time>
      </trkpt>
      <trkpt lat="42.93539" lon="-0.32327">
        <ele>1976.96</ele>
        <time>2018-01-08T11:23:49Z</time>
      </trkpt>
      <trkpt lat="42.93534" lon="-0.32326">
        <ele>1979.37</ele>
        <time>2018-01-08T11:24:08Z</time>
      </trkpt>
      <trkpt lat="42.93528" lon="-0.32326">
        <ele>1980.4</ele>
        <time>2018-01-08T11:24:33Z</time>
      </trkpt>
      <trkpt lat="42.93521" lon="-0.32326">
        <ele>1983.44</ele>
        <time>2018-01-08T11:24:49Z</time>
      </trkpt>
      <trkpt lat="42.93516" lon="-0.32327">
        <ele>1985.7</ele>
        <time>2018-01-08T11:25:04Z</time>
      </trkpt>
      <trkpt lat="42.93509" lon="-0.32328">
        <ele>1988.08</ele>
        <time>2018-01-08T11:25:20Z</time>
      </trkpt>
      <trkpt lat="42.93506" lon="-0.32331">
        <ele>1990.49</ele>
        <time>2018-01-08T11:25:38Z</time>
      </trkpt>
      <trkpt lat="42.93504" lon="-0.32331">
        <ele>1990.85</ele>
        <time>2018-01-08T11:26:00Z</time>
      </trkpt>
      <trkpt lat="42.93501" lon="-0.32333">
        <ele>1991.93</ele>
        <time>2018-01-08T11:26:35Z</time>
      </trkpt>
      <trkpt lat="42.93494" lon="-0.32335">
        <ele>1993.57</ele>
        <time>2018-01-08T11:26:50Z</time>
      </trkpt>
      <trkpt lat="42.93487" lon="-0.32336">
        <ele>1993.94</ele>
        <time>2018-01-08T11:27:07Z</time>
      </trkpt>
      <trkpt lat="42.9348" lon="-0.32339">
        <ele>1995.07</ele>
        <time>2018-01-08T11:27:23Z</time>
      </trkpt>
      <trkpt lat="42.93473" lon="-0.32341">
        <ele>1996.7</ele>
        <time>2018-01-08T11:27:37Z</time>
      </trkpt>
      <trkpt lat="42.93465" lon="-0.32345">
        <ele>1998.18</ele>
        <time>2018-01-08T11:27:55Z</time>
      </trkpt>
      <trkpt lat="42.93459" lon="-0.32347">
        <ele>2000.89</ele>
        <time>2018-01-08T11:28:11Z</time>
      </trkpt>
      <trkpt lat="42.93452" lon="-0.3235">
        <ele>2003</ele>
        <time>2018-01-08T11:28:33Z</time>
      </trkpt>
      <trkpt lat="42.9345" lon="-0.32351">
        <ele>2004.77</ele>
        <time>2018-01-08T11:28:59Z</time>
      </trkpt>
      <trkpt lat="42.93446" lon="-0.32353">
        <ele>2005.73</ele>
        <time>2018-01-08T11:29:15Z</time>
      </trkpt>
      <trkpt lat="42.9344" lon="-0.32356">
        <ele>2006.59</ele>
        <time>2018-01-08T11:29:42Z</time>
      </trkpt>
      <trkpt lat="42.93436" lon="-0.3236">
        <ele>2007.72</ele>
        <time>2018-01-08T11:30:13Z</time>
      </trkpt>
      <trkpt lat="42.93436" lon="-0.32359">
        <ele>2008.65</ele>
        <time>2018-01-08T11:30:38Z</time>
      </trkpt>
      <trkpt lat="42.93431" lon="-0.32359">
        <ele>2009.59</ele>
        <time>2018-01-08T11:31:19Z</time>
      </trkpt>
      <trkpt lat="42.93433" lon="-0.32362">
        <ele>2011.66</ele>
        <time>2018-01-08T11:31:32Z</time>
      </trkpt>
      <trkpt lat="42.93428" lon="-0.32363">
        <ele>2012.05</ele>
        <time>2018-01-08T11:31:48Z</time>
      </trkpt>
      <trkpt lat="42.93426" lon="-0.32364">
        <ele>2013.77</ele>
        <time>2018-01-08T11:32:06Z</time>
      </trkpt>
      <trkpt lat="42.93425" lon="-0.32364">
        <ele>2014.56</ele>
        <time>2018-01-08T11:32:24Z</time>
      </trkpt>
      <trkpt lat="42.93429" lon="-0.3237">
        <ele>2015.77</ele>
        <time>2018-01-08T11:32:48Z</time>
      </trkpt>
      <trkpt lat="42.93425" lon="-0.32369">
        <ele>2016.41</ele>
        <time>2018-01-08T11:33:03Z</time>
      </trkpt>
      <trkpt lat="42.93417" lon="-0.3237">
        <ele>2019.45</ele>
        <time>2018-01-08T11:33:17Z</time>
      </trkpt>
      <trkpt lat="42.93408" lon="-0.3237">
        <ele>2022.59</ele>
        <time>2018-01-08T11:33:33Z</time>
      </trkpt>
      <trkpt lat="42.934" lon="-0.3237">
        <ele>2025.09</ele>
        <time>2018-01-08T11:33:50Z</time>
      </trkpt>
      <trkpt lat="42.93393" lon="-0.32371">
        <ele>2026.74</ele>
        <time>2018-01-08T11:34:06Z</time>
      </trkpt>
      <trkpt lat="42.93393" lon="-0.32371">
        <ele>2027.25</ele>
        <time>2018-01-08T11:34:31Z</time>
      </trkpt>
      <trkpt lat="42.93392" lon="-0.32371">
        <ele>2028.09</ele>
        <time>2018-01-08T11:34:45Z</time>
      </trkpt>
      <trkpt lat="42.93391" lon="-0.32376">
        <ele>2029.08</ele>
        <time>2018-01-08T11:35:08Z</time>
      </trkpt>
      <trkpt lat="42.93389" lon="-0.3239">
        <ele>2031.48</ele>
        <time>2018-01-08T11:35:26Z</time>
      </trkpt>
      <trkpt lat="42.93391" lon="-0.32402">
        <ele>2033.53</ele>
        <time>2018-01-08T11:35:44Z</time>
      </trkpt>
      <trkpt lat="42.93392" lon="-0.32409">
        <ele>2035.86</ele>
        <time>2018-01-08T11:36:01Z</time>
      </trkpt>
      <trkpt lat="42.93393" lon="-0.32412">
        <ele>2036.71</ele>
        <time>2018-01-08T11:36:14Z</time>
      </trkpt>
      <trkpt lat="42.93385" lon="-0.32412">
        <ele>2038.37</ele>
        <time>2018-01-08T11:36:32Z</time>
      </trkpt>
      <trkpt lat="42.93378" lon="-0.32413">
        <ele>2041.37</ele>
        <time>2018-01-08T11:36:45Z</time>
      </trkpt>
      <trkpt lat="42.9337" lon="-0.32416">
        <ele>2043.75</ele>
        <time>2018-01-08T11:37:06Z</time>
      </trkpt>
      <trkpt lat="42.93372" lon="-0.32421">
        <ele>2045</ele>
        <time>2018-01-08T11:37:19Z</time>
      </trkpt>
      <trkpt lat="42.93375" lon="-0.32429">
        <ele>2046.48</ele>
        <time>2018-01-08T11:37:36Z</time>
      </trkpt>
      <trkpt lat="42.93377" lon="-0.32433">
        <ele>2048.63</ele>
        <time>2018-01-08T11:37:53Z</time>
      </trkpt>
      <trkpt lat="42.93368" lon="-0.32439">
        <ele>2050.25</ele>
        <time>2018-01-08T11:38:10Z</time>
      </trkpt>
      <trkpt lat="42.9336" lon="-0.32444">
        <ele>2052.67</ele>
        <time>2018-01-08T11:38:29Z</time>
      </trkpt>
      <trkpt lat="42.93355" lon="-0.32445">
        <ele>2054.48</ele>
        <time>2018-01-08T11:38:48Z</time>
      </trkpt>
      <trkpt lat="42.93355" lon="-0.32449">
        <ele>2055.43</ele>
        <time>2018-01-08T11:39:00Z</time>
      </trkpt>
      <trkpt lat="42.93359" lon="-0.32457">
        <ele>2057.15</ele>
        <time>2018-01-08T11:39:15Z</time>
      </trkpt>
      <trkpt lat="42.93363" lon="-0.32461">
        <ele>2059.95</ele>
        <time>2018-01-08T11:39:38Z</time>
      </trkpt>
      <trkpt lat="42.93367" lon="-0.32464">
        <ele>2061.56</ele>
        <time>2018-01-08T11:39:55Z</time>
      </trkpt>
      <trkpt lat="42.93365" lon="-0.32469">
        <ele>2062.56</ele>
        <time>2018-01-08T11:40:12Z</time>
      </trkpt>
      <trkpt lat="42.93356" lon="-0.32477">
        <ele>2065.24</ele>
        <time>2018-01-08T11:40:32Z</time>
      </trkpt>
      <trkpt lat="42.93356" lon="-0.32476">
        <ele>2065.33</ele>
        <time>2018-01-08T11:40:59Z</time>
      </trkpt>
      <trkpt lat="42.93354" lon="-0.32484">
        <ele>2066.63</ele>
        <time>2018-01-08T11:41:20Z</time>
      </trkpt>
      <trkpt lat="42.93354" lon="-0.32485">
        <ele>2067.65</ele>
        <time>2018-01-08T11:41:33Z</time>
      </trkpt>
      <trkpt lat="42.93352" lon="-0.3249">
        <ele>2068.08</ele>
        <time>2018-01-08T11:41:43Z</time>
      </trkpt>
      <trkpt lat="42.93352" lon="-0.32489">
        <ele>2068.55</ele>
        <time>2018-01-08T11:42:10Z</time>
      </trkpt>
      <trkpt lat="42.93352" lon="-0.3249">
        <ele>2068.07</ele>
        <time>2018-01-08T11:42:36Z</time>
      </trkpt>
      <trkpt lat="42.93353" lon="-0.32488">
        <ele>2068.44</ele>
        <time>2018-01-08T11:43:05Z</time>
      </trkpt>
      <trkpt lat="42.93353" lon="-0.32487">
        <ele>2067.83</ele>
        <time>2018-01-08T11:43:21Z</time>
      </trkpt>
      <trkpt lat="42.93352" lon="-0.32487">
        <ele>2067.42</ele>
        <time>2018-01-08T11:43:37Z</time>
      </trkpt>
      <trkpt lat="42.93352" lon="-0.32487">
        <ele>2067.62</ele>
        <time>2018-01-08T11:44:00Z</time>
      </trkpt>
      <trkpt lat="42.93352" lon="-0.32487">
        <ele>2067.58</ele>
        <time>2018-01-08T11:44:30Z</time>
      </trkpt>
      <trkpt lat="42.93353" lon="-0.32487">
        <ele>2068.2</ele>
        <time>2018-01-08T11:44:57Z</time>
      </trkpt>
      <trkpt lat="42.93352" lon="-0.32486">
        <ele>2068.18</ele>
        <time>2018-01-08T11:45:20Z</time>
      </trkpt>
      <trkpt lat="42.93351" lon="-0.32488">
        <ele>2067.85</ele>
        <time>2018-01-08T11:45:43Z</time>
      </trkpt>
      <trkpt lat="42.93352" lon="-0.32493">
        <ele>2069.36</ele>
        <time>2018-01-08T11:46:00Z</time>
      </trkpt>
      <trkpt lat="42.93353" lon="-0.32506">
        <ele>2071.02</ele>
        <time>2018-01-08T11:46:17Z</time>
      </trkpt>
      <trkpt lat="42.93353" lon="-0.32517">
        <ele>2074.18</ele>
        <time>2018-01-08T11:46:36Z</time>
      </trkpt>
      <trkpt lat="42.93352" lon="-0.32531">
        <ele>2077.14</ele>
        <time>2018-01-08T11:46:55Z</time>
      </trkpt>
      <trkpt lat="42.9335" lon="-0.32542">
        <ele>2079.97</ele>
        <time>2018-01-08T11:47:14Z</time>
      </trkpt>
      <trkpt lat="42.93348" lon="-0.32555">
        <ele>2082.66</ele>
        <time>2018-01-08T11:47:31Z</time>
      </trkpt>
      <trkpt lat="42.93346" lon="-0.32567">
        <ele>2084.77</ele>
        <time>2018-01-08T11:47:49Z</time>
      </trkpt>
      <trkpt lat="42.93345" lon="-0.32572">
        <ele>2085.56</ele>
        <time>2018-01-08T11:48:12Z</time>
      </trkpt>
      <trkpt lat="42.93343" lon="-0.32578">
        <ele>2086.16</ele>
        <time>2018-01-08T11:48:35Z</time>
      </trkpt>
      <trkpt lat="42.9334" lon="-0.32585">
        <ele>2086.64</ele>
        <time>2018-01-08T11:49:03Z</time>
      </trkpt>
      <trkpt lat="42.93336" lon="-0.32597">
        <ele>2088.41</ele>
        <time>2018-01-08T11:49:20Z</time>
      </trkpt>
      <trkpt lat="42.93334" lon="-0.32605">
        <ele>2090.26</ele>
        <time>2018-01-08T11:49:37Z</time>
      </trkpt>
      <trkpt lat="42.93333" lon="-0.32614">
        <ele>2092.16</ele>
        <time>2018-01-08T11:49:51Z</time>
      </trkpt>
      <trkpt lat="42.93329" lon="-0.32627">
        <ele>2094.85</ele>
        <time>2018-01-08T11:50:08Z</time>
      </trkpt>
      <trkpt lat="42.93325" lon="-0.32636">
        <ele>2097.95</ele>
        <time>2018-01-08T11:50:22Z</time>
      </trkpt>
      <trkpt lat="42.9332" lon="-0.32648">
        <ele>2100.74</ele>
        <time>2018-01-08T11:50:39Z</time>
      </trkpt>
      <trkpt lat="42.93314" lon="-0.32658">
        <ele>2103.14</ele>
        <time>2018-01-08T11:50:53Z</time>
      </trkpt>
      <trkpt lat="42.93307" lon="-0.3267">
        <ele>2106.14</ele>
        <time>2018-01-08T11:51:10Z</time>
      </trkpt>
      <trkpt lat="42.933" lon="-0.32679">
        <ele>2109.1</ele>
        <time>2018-01-08T11:51:28Z</time>
      </trkpt>
      <trkpt lat="42.93298" lon="-0.32681">
        <ele>2109.87</ele>
        <time>2018-01-08T11:51:43Z</time>
      </trkpt>
      <trkpt lat="42.93298" lon="-0.32682">
        <ele>2110.72</ele>
        <time>2018-01-08T11:52:08Z</time>
      </trkpt>
      <trkpt lat="42.93298" lon="-0.32681">
        <ele>2110.74</ele>
        <time>2018-01-08T11:52:47Z</time>
      </trkpt>
      <trkpt lat="42.933" lon="-0.32685">
        <ele>2111.15</ele>
        <time>2018-01-08T11:53:09Z</time>
      </trkpt>
      <trkpt lat="42.93302" lon="-0.32685">
        <ele>2110.89</ele>
        <time>2018-01-08T11:53:43Z</time>
      </trkpt>
      <trkpt lat="42.93303" lon="-0.32686">
        <ele>2111.08</ele>
        <time>2018-01-08T11:54:10Z</time>
      </trkpt>
      <trkpt lat="42.93302" lon="-0.32688">
        <ele>2111.14</ele>
        <time>2018-01-08T11:54:44Z</time>
      </trkpt>
      <trkpt lat="42.933" lon="-0.32689">
        <ele>2111.29</ele>
        <time>2018-01-08T11:55:08Z</time>
      </trkpt>
      <trkpt lat="42.93294" lon="-0.32698">
        <ele>2112.63</ele>
        <time>2018-01-08T11:55:24Z</time>
      </trkpt>
      <trkpt lat="42.93287" lon="-0.32708">
        <ele>2115.65</ele>
        <time>2018-01-08T11:55:42Z</time>
      </trkpt>
      <trkpt lat="42.9328" lon="-0.32718">
        <ele>2118.7</ele>
        <time>2018-01-08T11:55:59Z</time>
      </trkpt>
      <trkpt lat="42.93277" lon="-0.32724">
        <ele>2119.86</ele>
        <time>2018-01-08T11:56:14Z</time>
      </trkpt>
      <trkpt lat="42.93273" lon="-0.3273">
        <ele>2121.24</ele>
        <time>2018-01-08T11:56:28Z</time>
      </trkpt>
      <trkpt lat="42.93268" lon="-0.32736">
        <ele>2123.39</ele>
        <time>2018-01-08T11:56:42Z</time>
      </trkpt>
      <trkpt lat="42.93267" lon="-0.32739">
        <ele>2124.19</ele>
        <time>2018-01-08T11:57:00Z</time>
      </trkpt>
      <trkpt lat="42.93262" lon="-0.32744">
        <ele>2124.97</ele>
        <time>2018-01-08T11:57:14Z</time>
      </trkpt>
      <trkpt lat="42.93256" lon="-0.32753">
        <ele>2127.32</ele>
        <time>2018-01-08T11:57:29Z</time>
      </trkpt>
      <trkpt lat="42.93245" lon="-0.32763">
        <ele>2129.46</ele>
        <time>2018-01-08T11:57:47Z</time>
      </trkpt>
      <trkpt lat="42.93239" lon="-0.32767">
        <ele>2130.78</ele>
        <time>2018-01-08T11:58:00Z</time>
      </trkpt>
      <trkpt lat="42.93232" lon="-0.32775">
        <ele>2132.57</ele>
        <time>2018-01-08T11:58:15Z</time>
      </trkpt>
      <trkpt lat="42.93225" lon="-0.32783">
        <ele>2134.87</ele>
        <time>2018-01-08T11:58:32Z</time>
      </trkpt>
      <trkpt lat="42.93224" lon="-0.32784">
        <ele>2136.72</ele>
        <time>2018-01-08T11:58:48Z</time>
      </trkpt>
      <trkpt lat="42.93216" lon="-0.32795">
        <ele>2139.59</ele>
        <time>2018-01-08T11:59:07Z</time>
      </trkpt>
      <trkpt lat="42.93209" lon="-0.32805">
        <ele>2141.19</ele>
        <time>2018-01-08T11:59:24Z</time>
      </trkpt>
      <trkpt lat="42.93205" lon="-0.32809">
        <ele>2142.5</ele>
        <time>2018-01-08T11:59:39Z</time>
      </trkpt>
      <trkpt lat="42.93199" lon="-0.32816">
        <ele>2143.35</ele>
        <time>2018-01-08T11:59:53Z</time>
      </trkpt>
      <trkpt lat="42.9319" lon="-0.32828">
        <ele>2145.85</ele>
        <time>2018-01-08T12:00:12Z</time>
      </trkpt>
      <trkpt lat="42.93183" lon="-0.32835">
        <ele>2148.18</ele>
        <time>2018-01-08T12:00:31Z</time>
      </trkpt>
      <trkpt lat="42.93172" lon="-0.32844">
        <ele>2151.24</ele>
        <time>2018-01-08T12:00:50Z</time>
      </trkpt>
      <trkpt lat="42.93163" lon="-0.32854">
        <ele>2153.73</ele>
        <time>2018-01-08T12:01:08Z</time>
      </trkpt>
      <trkpt lat="42.93156" lon="-0.3286">
        <ele>2156.17</ele>
        <time>2018-01-08T12:01:28Z</time>
      </trkpt>
      <trkpt lat="42.93146" lon="-0.3287">
        <ele>2158.11</ele>
        <time>2018-01-08T12:01:46Z</time>
      </trkpt>
      <trkpt lat="42.93137" lon="-0.32878">
        <ele>2160.56</ele>
        <time>2018-01-08T12:02:05Z</time>
      </trkpt>
      <trkpt lat="42.93128" lon="-0.32887">
        <ele>2163.02</ele>
        <time>2018-01-08T12:02:23Z</time>
      </trkpt>
      <trkpt lat="42.93122" lon="-0.32891">
        <ele>2165.72</ele>
        <time>2018-01-08T12:02:40Z</time>
      </trkpt>
      <trkpt lat="42.93116" lon="-0.32895">
        <ele>2168.63</ele>
        <time>2018-01-08T12:02:57Z</time>
      </trkpt>
      <trkpt lat="42.93113" lon="-0.32897">
        <ele>2170.49</ele>
        <time>2018-01-08T12:03:14Z</time>
      </trkpt>
      <trkpt lat="42.93113" lon="-0.32896">
        <ele>2171.4</ele>
        <time>2018-01-08T12:03:44Z</time>
      </trkpt>
      <trkpt lat="42.93113" lon="-0.32897">
        <ele>2171.19</ele>
        <time>2018-01-08T12:04:08Z</time>
      </trkpt>
      <trkpt lat="42.93115" lon="-0.32895">
        <ele>2171</ele>
        <time>2018-01-08T12:04:51Z</time>
      </trkpt>
      <trkpt lat="42.93116" lon="-0.32895">
        <ele>2170.48</ele>
        <time>2018-01-08T12:05:15Z</time>
      </trkpt>
      <trkpt lat="42.93115" lon="-0.32897">
        <ele>2171.2</ele>
        <time>2018-01-08T12:06:16Z</time>
      </trkpt>
      <trkpt lat="42.93104" lon="-0.32907">
        <ele>2171.9</ele>
        <time>2018-01-08T12:06:34Z</time>
      </trkpt>
      <trkpt lat="42.93096" lon="-0.32915">
        <ele>2173.38</ele>
        <time>2018-01-08T12:06:51Z</time>
      </trkpt>
      <trkpt lat="42.93086" lon="-0.32924">
        <ele>2175.09</ele>
        <time>2018-01-08T12:07:09Z</time>
      </trkpt>
      <trkpt lat="42.93082" lon="-0.32926">
        <ele>2176.59</ele>
        <time>2018-01-08T12:07:26Z</time>
      </trkpt>
      <trkpt lat="42.93074" lon="-0.3293">
        <ele>2179.61</ele>
        <time>2018-01-08T12:07:41Z</time>
      </trkpt>
      <trkpt lat="42.93068" lon="-0.32933">
        <ele>2181.77</ele>
        <time>2018-01-08T12:07:57Z</time>
      </trkpt>
      <trkpt lat="42.93061" lon="-0.32937">
        <ele>2184.16</ele>
        <time>2018-01-08T12:08:14Z</time>
      </trkpt>
      <trkpt lat="42.93059" lon="-0.32939">
        <ele>2184.6</ele>
        <time>2018-01-08T12:08:30Z</time>
      </trkpt>
      <trkpt lat="42.93052" lon="-0.32942">
        <ele>2184.77</ele>
        <time>2018-01-08T12:08:47Z</time>
      </trkpt>
      <trkpt lat="42.93043" lon="-0.32954">
        <ele>2186.81</ele>
        <time>2018-01-08T12:09:05Z</time>
      </trkpt>
      <trkpt lat="42.93043" lon="-0.32957">
        <ele>2189.04</ele>
        <time>2018-01-08T12:09:20Z</time>
      </trkpt>
      <trkpt lat="42.93045" lon="-0.32958">
        <ele>2189.21</ele>
        <time>2018-01-08T12:09:25Z</time>
      </trkpt>
      <trkpt lat="42.93058" lon="-0.32961">
        <ele>2190.25</ele>
        <time>2018-01-08T12:09:45Z</time>
      </trkpt>
      <trkpt lat="42.93066" lon="-0.32961">
        <ele>2192.31</ele>
        <time>2018-01-08T12:10:00Z</time>
      </trkpt>
      <trkpt lat="42.93071" lon="-0.32963">
        <ele>2193.85</ele>
        <time>2018-01-08T12:10:23Z</time>
      </trkpt>
      <trkpt lat="42.93077" lon="-0.32965">
        <ele>2196.25</ele>
        <time>2018-01-08T12:10:40Z</time>
      </trkpt>
      <trkpt lat="42.93079" lon="-0.32967">
        <ele>2196.45</ele>
        <time>2018-01-08T12:11:09Z</time>
      </trkpt>
      <trkpt lat="42.93075" lon="-0.32969">
        <ele>2197.39</ele>
        <time>2018-01-08T12:11:25Z</time>
      </trkpt>
      <trkpt lat="42.93076" lon="-0.32968">
        <ele>2197.62</ele>
        <time>2018-01-08T12:12:03Z</time>
      </trkpt>
      <trkpt lat="42.93071" lon="-0.32975">
        <ele>2199.12</ele>
        <time>2018-01-08T12:12:33Z</time>
      </trkpt>
      <trkpt lat="42.93069" lon="-0.3298">
        <ele>2200.66</ele>
        <time>2018-01-08T12:12:47Z</time>
      </trkpt>
      <trkpt lat="42.93075" lon="-0.32988">
        <ele>2203.39</ele>
        <time>2018-01-08T12:13:06Z</time>
      </trkpt>
      <trkpt lat="42.93079" lon="-0.32993">
        <ele>2205.99</ele>
        <time>2018-01-08T12:13:21Z</time>
      </trkpt>
      <trkpt lat="42.93073" lon="-0.32998">
        <ele>2207.97</ele>
        <time>2018-01-08T12:13:39Z</time>
      </trkpt>
      <trkpt lat="42.93069" lon="-0.33006">
        <ele>2211.04</ele>
        <time>2018-01-08T12:13:55Z</time>
      </trkpt>
      <trkpt lat="42.93065" lon="-0.33017">
        <ele>2214.03</ele>
        <time>2018-01-08T12:14:13Z</time>
      </trkpt>
      <trkpt lat="42.93063" lon="-0.33019">
        <ele>2215.31</ele>
        <time>2018-01-08T12:14:31Z</time>
      </trkpt>
      <trkpt lat="42.9306" lon="-0.33023">
        <ele>2215.23</ele>
        <time>2018-01-08T12:15:13Z</time>
      </trkpt>
      <trkpt lat="42.93056" lon="-0.33035">
        <ele>2216.56</ele>
        <time>2018-01-08T12:15:38Z</time>
      </trkpt>
      <trkpt lat="42.93053" lon="-0.33043">
        <ele>2218.26</ele>
        <time>2018-01-08T12:15:55Z</time>
      </trkpt>
      <trkpt lat="42.9305" lon="-0.3305">
        <ele>2219.09</ele>
        <time>2018-01-08T12:16:09Z</time>
      </trkpt>
      <trkpt lat="42.93045" lon="-0.33064">
        <ele>2221.33</ele>
        <time>2018-01-08T12:16:28Z</time>
      </trkpt>
      <trkpt lat="42.93042" lon="-0.33075">
        <ele>2223.2</ele>
        <time>2018-01-08T12:16:44Z</time>
      </trkpt>
      <trkpt lat="42.93038" lon="-0.33081">
        <ele>2225.77</ele>
        <time>2018-01-08T12:17:01Z</time>
      </trkpt>
      <trkpt lat="42.93037" lon="-0.33088">
        <ele>2226.31</ele>
        <time>2018-01-08T12:17:17Z</time>
      </trkpt>
      <trkpt lat="42.93031" lon="-0.331">
        <ele>2228.17</ele>
        <time>2018-01-08T12:17:35Z</time>
      </trkpt>
      <trkpt lat="42.93026" lon="-0.33108">
        <ele>2230.55</ele>
        <time>2018-01-08T12:17:51Z</time>
      </trkpt>
      <trkpt lat="42.93022" lon="-0.33116">
        <ele>2232.11</ele>
        <time>2018-01-08T12:18:12Z</time>
      </trkpt>
      <trkpt lat="42.93019" lon="-0.33125">
        <ele>2233.92</ele>
        <time>2018-01-08T12:18:33Z</time>
      </trkpt>
      <trkpt lat="42.93017" lon="-0.33133">
        <ele>2235.35</ele>
        <time>2018-01-08T12:18:45Z</time>
      </trkpt>
      <trkpt lat="42.93014" lon="-0.33142">
        <ele>2237.35</ele>
        <time>2018-01-08T12:19:05Z</time>
      </trkpt>
      <trkpt lat="42.93011" lon="-0.33154">
        <ele>2239.45</ele>
        <time>2018-01-08T12:19:24Z</time>
      </trkpt>
      <trkpt lat="42.93009" lon="-0.33161">
        <ele>2241.59</ele>
        <time>2018-01-08T12:19:40Z</time>
      </trkpt>
      <trkpt lat="42.93006" lon="-0.33169">
        <ele>2243.47</ele>
        <time>2018-01-08T12:20:00Z</time>
      </trkpt>
      <trkpt lat="42.93003" lon="-0.3318">
        <ele>2244.39</ele>
        <time>2018-01-08T12:20:18Z</time>
      </trkpt>
      <trkpt lat="42.93" lon="-0.33188">
        <ele>2246.55</ele>
        <time>2018-01-08T12:20:38Z</time>
      </trkpt>
      <trkpt lat="42.92996" lon="-0.33194">
        <ele>2248.87</ele>
        <time>2018-01-08T12:20:55Z</time>
      </trkpt>
      <trkpt lat="42.92993" lon="-0.33201">
        <ele>2251</ele>
        <time>2018-01-08T12:21:12Z</time>
      </trkpt>
      <trkpt lat="42.9299" lon="-0.33206">
        <ele>2253.03</ele>
        <time>2018-01-08T12:21:30Z</time>
      </trkpt>
      <trkpt lat="42.92988" lon="-0.33213">
        <ele>2254.98</ele>
        <time>2018-01-08T12:21:51Z</time>
      </trkpt>
      <trkpt lat="42.92984" lon="-0.3322">
        <ele>2256.46</ele>
        <time>2018-01-08T12:22:09Z</time>
      </trkpt>
      <trkpt lat="42.92979" lon="-0.33228">
        <ele>2259.09</ele>
        <time>2018-01-08T12:22:27Z</time>
      </trkpt>
      <trkpt lat="42.92974" lon="-0.33236">
        <ele>2260.95</ele>
        <time>2018-01-08T12:22:46Z</time>
      </trkpt>
      <trkpt lat="42.92971" lon="-0.33242">
        <ele>2263.11</ele>
        <time>2018-01-08T12:23:03Z</time>
      </trkpt>
      <trkpt lat="42.92965" lon="-0.3325">
        <ele>2264.78</ele>
        <time>2018-01-08T12:23:18Z</time>
      </trkpt>
      <trkpt lat="42.9296" lon="-0.33256">
        <ele>2267.11</ele>
        <time>2018-01-08T12:23:38Z</time>
      </trkpt>
      <trkpt lat="42.92956" lon="-0.33265">
        <ele>2270.08</ele>
        <time>2018-01-08T12:23:55Z</time>
      </trkpt>
      <trkpt lat="42.92953" lon="-0.33271">
        <ele>2272.32</ele>
        <time>2018-01-08T12:24:12Z</time>
      </trkpt>
      <trkpt lat="42.92952" lon="-0.33274">
        <ele>2273.06</ele>
        <time>2018-01-08T12:24:37Z</time>
      </trkpt>
      <trkpt lat="42.92951" lon="-0.33279">
        <ele>2274.4</ele>
        <time>2018-01-08T12:24:54Z</time>
      </trkpt>
      <trkpt lat="42.9295" lon="-0.33288">
        <ele>2276.27</ele>
        <time>2018-01-08T12:25:12Z</time>
      </trkpt>
      <trkpt lat="42.92947" lon="-0.33301">
        <ele>2279.33</ele>
        <time>2018-01-08T12:25:31Z</time>
      </trkpt>
      <trkpt lat="42.92945" lon="-0.33309">
        <ele>2282.15</ele>
        <time>2018-01-08T12:25:46Z</time>
      </trkpt>
      <trkpt lat="42.92944" lon="-0.33311">
        <ele>2283.48</ele>
        <time>2018-01-08T12:26:01Z</time>
      </trkpt>
      <trkpt lat="42.92943" lon="-0.33318">
        <ele>2284.39</ele>
        <time>2018-01-08T12:26:20Z</time>
      </trkpt>
      <trkpt lat="42.92941" lon="-0.33321">
        <ele>2285.97</ele>
        <time>2018-01-08T12:26:33Z</time>
      </trkpt>
      <trkpt lat="42.92933" lon="-0.33323">
        <ele>2287.55</ele>
        <time>2018-01-08T12:26:48Z</time>
      </trkpt>
      <trkpt lat="42.92934" lon="-0.33325">
        <ele>2289.7</ele>
        <time>2018-01-08T12:27:03Z</time>
      </trkpt>
      <trkpt lat="42.92931" lon="-0.33328">
        <ele>2291.97</ele>
        <time>2018-01-08T12:27:21Z</time>
      </trkpt>
      <trkpt lat="42.92925" lon="-0.33338">
        <ele>2293.09</ele>
        <time>2018-01-08T12:27:40Z</time>
      </trkpt>
      <trkpt lat="42.92928" lon="-0.33342">
        <ele>2295.05</ele>
        <time>2018-01-08T12:27:57Z</time>
      </trkpt>
      <trkpt lat="42.92931" lon="-0.33349">
        <ele>2298.01</ele>
        <time>2018-01-08T12:28:16Z</time>
      </trkpt>
      <trkpt lat="42.9293" lon="-0.33359">
        <ele>2299.27</ele>
        <time>2018-01-08T12:28:36Z</time>
      </trkpt>
      <trkpt lat="42.92934" lon="-0.33362">
        <ele>2301.04</ele>
        <time>2018-01-08T12:28:50Z</time>
      </trkpt>
      <trkpt lat="42.9294" lon="-0.33361">
        <ele>2302.44</ele>
        <time>2018-01-08T12:29:10Z</time>
      </trkpt>
      <trkpt lat="42.92946" lon="-0.33364">
        <ele>2304.13</ele>
        <time>2018-01-08T12:29:25Z</time>
      </trkpt>
      <trkpt lat="42.92951" lon="-0.33368">
        <ele>2306.92</ele>
        <time>2018-01-08T12:29:45Z</time>
      </trkpt>
      <trkpt lat="42.92953" lon="-0.33369">
        <ele>2308.23</ele>
        <time>2018-01-08T12:30:00Z</time>
      </trkpt>
      <trkpt lat="42.92946" lon="-0.33378">
        <ele>2309.17</ele>
        <time>2018-01-08T12:30:18Z</time>
      </trkpt>
      <trkpt lat="42.9294" lon="-0.33385">
        <ele>2310.44</ele>
        <time>2018-01-08T12:30:44Z</time>
      </trkpt>
      <trkpt lat="42.92935" lon="-0.33392">
        <ele>2312.63</ele>
        <time>2018-01-08T12:30:59Z</time>
      </trkpt>
      <trkpt lat="42.92932" lon="-0.33398">
        <ele>2313.24</ele>
        <time>2018-01-08T12:31:04Z</time>
      </trkpt>
      <trkpt lat="42.92922" lon="-0.33415">
        <ele>2315.88</ele>
        <time>2018-01-08T12:31:22Z</time>
      </trkpt>
      <trkpt lat="42.92921" lon="-0.33411">
        <ele>2318.21</ele>
        <time>2018-01-08T12:31:39Z</time>
      </trkpt>
      <trkpt lat="42.92919" lon="-0.33412">
        <ele>2320.9</ele>
        <time>2018-01-08T12:32:05Z</time>
      </trkpt>
      <trkpt lat="42.92927" lon="-0.33412">
        <ele>2322.28</ele>
        <time>2018-01-08T12:32:26Z</time>
      </trkpt>
      <trkpt lat="42.92935" lon="-0.33415">
        <ele>2325.17</ele>
        <time>2018-01-08T12:32:43Z</time>
      </trkpt>
      <trkpt lat="42.9294" lon="-0.33418">
        <ele>2326.43</ele>
        <time>2018-01-08T12:33:09Z</time>
      </trkpt>
      <trkpt lat="42.92941" lon="-0.33419">
        <ele>2327.97</ele>
        <time>2018-01-08T12:33:29Z</time>
      </trkpt>
      <trkpt lat="42.92944" lon="-0.33419">
        <ele>2329.15</ele>
        <time>2018-01-08T12:33:50Z</time>
      </trkpt>
      <trkpt lat="42.92936" lon="-0.33432">
        <ele>2331.48</ele>
        <time>2018-01-08T12:34:08Z</time>
      </trkpt>
      <trkpt lat="42.92928" lon="-0.33442">
        <ele>2332.89</ele>
        <time>2018-01-08T12:34:30Z</time>
      </trkpt>
      <trkpt lat="42.92921" lon="-0.33447">
        <ele>2335.13</ele>
        <time>2018-01-08T12:34:49Z</time>
      </trkpt>
      <trkpt lat="42.92917" lon="-0.33446">
        <ele>2336.58</ele>
        <time>2018-01-08T12:35:04Z</time>
      </trkpt>
      <trkpt lat="42.92913" lon="-0.33443">
        <ele>2338.56</ele>
        <time>2018-01-08T12:35:19Z</time>
      </trkpt>
      <trkpt lat="42.92907" lon="-0.33443">
        <ele>2340.27</ele>
        <time>2018-01-08T12:35:40Z</time>
      </trkpt>
      <trkpt lat="42.92899" lon="-0.33446">
        <ele>2342.91</ele>
        <time>2018-01-08T12:36:09Z</time>
      </trkpt>
      <trkpt lat="42.92895" lon="-0.33453">
        <ele>2344.53</ele>
        <time>2018-01-08T12:36:29Z</time>
      </trkpt>
      <trkpt lat="42.92893" lon="-0.3345">
        <ele>2345.38</ele>
        <time>2018-01-08T12:36:46Z</time>
      </trkpt>
      <trkpt lat="42.929" lon="-0.3345">
        <ele>2346.51</ele>
        <time>2018-01-08T12:37:01Z</time>
      </trkpt>
      <trkpt lat="42.92905" lon="-0.33454">
        <ele>2348.26</ele>
        <time>2018-01-08T12:37:19Z</time>
      </trkpt>
      <trkpt lat="42.92906" lon="-0.33458">
        <ele>2349.17</ele>
        <time>2018-01-08T12:37:36Z</time>
      </trkpt>
      <trkpt lat="42.92898" lon="-0.33459">
        <ele>2350.66</ele>
        <time>2018-01-08T12:37:55Z</time>
      </trkpt>
      <trkpt lat="42.92893" lon="-0.3346">
        <ele>2353.71</ele>
        <time>2018-01-08T12:38:16Z</time>
      </trkpt>
      <trkpt lat="42.92893" lon="-0.33459">
        <ele>2353.67</ele>
        <time>2018-01-08T12:38:52Z</time>
      </trkpt>
      <trkpt lat="42.92889" lon="-0.33463">
        <ele>2354.41</ele>
        <time>2018-01-08T12:39:32Z</time>
      </trkpt>
      <trkpt lat="42.92895" lon="-0.33468">
        <ele>2355</ele>
        <time>2018-01-08T12:39:49Z</time>
      </trkpt>
      <trkpt lat="42.929" lon="-0.33472">
        <ele>2357.85</ele>
        <time>2018-01-08T12:40:09Z</time>
      </trkpt>
      <trkpt lat="42.92905" lon="-0.33472">
        <ele>2359.2</ele>
        <time>2018-01-08T12:40:25Z</time>
      </trkpt>
      <trkpt lat="42.92906" lon="-0.33473">
        <ele>2359.78</ele>
        <time>2018-01-08T12:40:41Z</time>
      </trkpt>
      <trkpt lat="42.92898" lon="-0.33478">
        <ele>2360.97</ele>
        <time>2018-01-08T12:41:00Z</time>
      </trkpt>
      <trkpt lat="42.92891" lon="-0.33483">
        <ele>2363.08</ele>
        <time>2018-01-08T12:41:19Z</time>
      </trkpt>
      <trkpt lat="42.92889" lon="-0.3348">
        <ele>2364.52</ele>
        <time>2018-01-08T12:41:42Z</time>
      </trkpt>
      <trkpt lat="42.92889" lon="-0.33482">
        <ele>2366.4</ele>
        <time>2018-01-08T12:42:03Z</time>
      </trkpt>
      <trkpt lat="42.92893" lon="-0.33487">
        <ele>2368.14</ele>
        <time>2018-01-08T12:42:19Z</time>
      </trkpt>
      <trkpt lat="42.92895" lon="-0.3349">
        <ele>2368.24</ele>
        <time>2018-01-08T12:42:37Z</time>
      </trkpt>
      <trkpt lat="42.92895" lon="-0.33493">
        <ele>2369.57</ele>
        <time>2018-01-08T12:42:51Z</time>
      </trkpt>
      <trkpt lat="42.92894" lon="-0.33493">
        <ele>2369.65</ele>
        <time>2018-01-08T12:42:52Z</time>
      </trkpt>
      <trkpt lat="42.92888" lon="-0.33495">
        <ele>2371.46</ele>
        <time>2018-01-08T12:43:09Z</time>
      </trkpt>
      <trkpt lat="42.92886" lon="-0.33496">
        <ele>2373.3</ele>
        <time>2018-01-08T12:43:29Z</time>
      </trkpt>
      <trkpt lat="42.92882" lon="-0.33498">
        <ele>2373.84</ele>
        <time>2018-01-08T12:43:47Z</time>
      </trkpt>
      <trkpt lat="42.92889" lon="-0.33499">
        <ele>2375.24</ele>
        <time>2018-01-08T12:44:05Z</time>
      </trkpt>
      <trkpt lat="42.92893" lon="-0.335">
        <ele>2376.76</ele>
        <time>2018-01-08T12:44:25Z</time>
      </trkpt>
      <trkpt lat="42.92891" lon="-0.33503">
        <ele>2377.74</ele>
        <time>2018-01-08T12:44:44Z</time>
      </trkpt>
      <trkpt lat="42.92881" lon="-0.33506">
        <ele>2379.56</ele>
        <time>2018-01-08T12:45:03Z</time>
      </trkpt>
      <trkpt lat="42.92878" lon="-0.33508">
        <ele>2380.59</ele>
        <time>2018-01-08T12:45:20Z</time>
      </trkpt>
      <trkpt lat="42.92876" lon="-0.33508">
        <ele>2381.05</ele>
        <time>2018-01-08T12:45:47Z</time>
      </trkpt>
      <trkpt lat="42.92872" lon="-0.33508">
        <ele>2381.22</ele>
        <time>2018-01-08T12:46:11Z</time>
      </trkpt>
      <trkpt lat="42.92869" lon="-0.33507">
        <ele>2382.51</ele>
        <time>2018-01-08T12:46:32Z</time>
      </trkpt>
      <trkpt lat="42.92867" lon="-0.33506">
        <ele>2383.96</ele>
        <time>2018-01-08T12:47:14Z</time>
      </trkpt>
      <trkpt lat="42.92868" lon="-0.33512">
        <ele>2384.34</ele>
        <time>2018-01-08T12:47:29Z</time>
      </trkpt>
      <trkpt lat="42.92871" lon="-0.33516">
        <ele>2385.51</ele>
        <time>2018-01-08T12:47:45Z</time>
      </trkpt>
      <trkpt lat="42.92872" lon="-0.33517">
        <ele>2385.87</ele>
        <time>2018-01-08T12:48:03Z</time>
      </trkpt>
      <trkpt lat="42.92873" lon="-0.33517">
        <ele>2386.54</ele>
        <time>2018-01-08T12:48:26Z</time>
      </trkpt>
      <trkpt lat="42.92874" lon="-0.33519">
        <ele>2387.32</ele>
        <time>2018-01-08T12:48:55Z</time>
      </trkpt>
      <trkpt lat="42.92875" lon="-0.33519">
        <ele>2386.82</ele>
        <time>2018-01-08T12:49:13Z</time>
      </trkpt>
      <trkpt lat="42.92875" lon="-0.3352">
        <ele>2386.91</ele>
        <time>2018-01-08T12:49:37Z</time>
      </trkpt>
      <trkpt lat="42.92874" lon="-0.3352">
        <ele>2387.48</ele>
        <time>2018-01-08T12:49:59Z</time>
      </trkpt>
      <trkpt lat="42.92875" lon="-0.33522">
        <ele>2387.16</ele>
        <time>2018-01-08T12:50:21Z</time>
      </trkpt>
      <trkpt lat="42.92873" lon="-0.33523">
        <ele>2387.45</ele>
        <time>2018-01-08T12:51:08Z</time>
      </trkpt>
      <trkpt lat="42.92868" lon="-0.33529">
        <ele>2386.81</ele>
        <time>2018-01-08T12:51:56Z</time>
      </trkpt>
      <trkpt lat="42.92869" lon="-0.33526">
        <ele>2387.65</ele>
        <time>2018-01-08T12:52:17Z</time>
      </trkpt>
      <trkpt lat="42.92871" lon="-0.33525">
        <ele>2386.8</ele>
        <time>2018-01-08T12:52:45Z</time>
      </trkpt>
      <trkpt lat="42.92874" lon="-0.33523">
        <ele>2387.13</ele>
        <time>2018-01-08T12:53:16Z</time>
      </trkpt>
      <trkpt lat="42.92875" lon="-0.33524">
        <ele>2387.36</ele>
        <time>2018-01-08T12:53:36Z</time>
      </trkpt>
      <trkpt lat="42.92877" lon="-0.33523">
        <ele>2386.98</ele>
        <time>2018-01-08T12:53:59Z</time>
      </trkpt>
      <trkpt lat="42.92878" lon="-0.33528">
        <ele>2389.25</ele>
        <time>2018-01-08T12:54:20Z</time>
      </trkpt>
      <trkpt lat="42.92879" lon="-0.33533">
        <ele>2390.05</ele>
        <time>2018-01-08T12:54:41Z</time>
      </trkpt>
      <trkpt lat="42.9288" lon="-0.33533">
        <ele>2390.89</ele>
        <time>2018-01-08T12:55:07Z</time>
      </trkpt>
      <trkpt lat="42.9288" lon="-0.33535">
        <ele>2391.26</ele>
        <time>2018-01-08T12:55:28Z</time>
      </trkpt>
      <trkpt lat="42.92882" lon="-0.3353">
        <ele>2391.78</ele>
        <time>2018-01-08T12:55:53Z</time>
      </trkpt>
      <trkpt lat="42.92882" lon="-0.33527">
        <ele>2392.32</ele>
        <time>2018-01-08T12:56:17Z</time>
      </trkpt>
      <trkpt lat="42.92883" lon="-0.33527">
        <ele>2392.23</ele>
        <time>2018-01-08T12:56:39Z</time>
      </trkpt>
      <trkpt lat="42.92885" lon="-0.33528">
        <ele>2392.61</ele>
        <time>2018-01-08T12:57:00Z</time>
      </trkpt>
      <trkpt lat="42.92884" lon="-0.33533">
        <ele>2394.12</ele>
        <time>2018-01-08T12:57:29Z</time>
      </trkpt>
      <trkpt lat="42.92886" lon="-0.33533">
        <ele>2395.07</ele>
        <time>2018-01-08T12:57:47Z</time>
      </trkpt>
      <trkpt lat="42.92887" lon="-0.33538">
        <ele>2395.56</ele>
        <time>2018-01-08T12:58:10Z</time>
      </trkpt>
      <trkpt lat="42.92889" lon="-0.33537">
        <ele>2396.49</ele>
        <time>2018-01-08T12:58:32Z</time>
      </trkpt>
      <trkpt lat="42.9289" lon="-0.33535">
        <ele>2396.92</ele>
        <time>2018-01-08T12:58:56Z</time>
      </trkpt>
      <trkpt lat="42.92892" lon="-0.33538">
        <ele>2398.29</ele>
        <time>2018-01-08T12:59:21Z</time>
      </trkpt>
      <trkpt lat="42.92893" lon="-0.33537">
        <ele>2397.81</ele>
        <time>2018-01-08T12:59:41Z</time>
      </trkpt>
      <trkpt lat="42.92894" lon="-0.33535">
        <ele>2398.58</ele>
        <time>2018-01-08T13:00:07Z</time>
      </trkpt>
      <trkpt lat="42.92895" lon="-0.33538">
        <ele>2398.95</ele>
        <time>2018-01-08T13:00:32Z</time>
      </trkpt>
      <trkpt lat="42.92897" lon="-0.33536">
        <ele>2400.54</ele>
        <time>2018-01-08T13:01:05Z</time>
      </trkpt>
      <trkpt lat="42.92898" lon="-0.33539">
        <ele>2401.88</ele>
        <time>2018-01-08T13:01:20Z</time>
      </trkpt>
      <trkpt lat="42.92897" lon="-0.33542">
        <ele>2403.38</ele>
        <time>2018-01-08T13:01:37Z</time>
      </trkpt>
      <trkpt lat="42.92896" lon="-0.33541">
        <ele>2404.27</ele>
        <time>2018-01-08T13:01:56Z</time>
      </trkpt>
      <trkpt lat="42.92895" lon="-0.33546">
        <ele>2404.91</ele>
        <time>2018-01-08T13:02:11Z</time>
      </trkpt>
      <trkpt lat="42.92896" lon="-0.33547">
        <ele>2406.45</ele>
        <time>2018-01-08T13:02:33Z</time>
      </trkpt>
      <trkpt lat="42.92897" lon="-0.3355">
        <ele>2407.73</ele>
        <time>2018-01-08T13:02:50Z</time>
      </trkpt>
      <trkpt lat="42.929" lon="-0.3355">
        <ele>2409.44</ele>
        <time>2018-01-08T13:03:06Z</time>
      </trkpt>
      <trkpt lat="42.92901" lon="-0.33551">
        <ele>2410.37</ele>
        <time>2018-01-08T13:03:28Z</time>
      </trkpt>
      <trkpt lat="42.929" lon="-0.33553">
        <ele>2411.32</ele>
        <time>2018-01-08T13:03:50Z</time>
      </trkpt>
      <trkpt lat="42.92898" lon="-0.33555">
        <ele>2412.65</ele>
        <time>2018-01-08T13:04:08Z</time>
      </trkpt>
      <trkpt lat="42.92899" lon="-0.33557">
        <ele>2412.79</ele>
        <time>2018-01-08T13:04:29Z</time>
      </trkpt>
      <trkpt lat="42.92899" lon="-0.33558">
        <ele>2414.68</ele>
        <time>2018-01-08T13:04:46Z</time>
      </trkpt>
      <trkpt lat="42.92898" lon="-0.33561">
        <ele>2415.14</ele>
        <time>2018-01-08T13:05:03Z</time>
      </trkpt>
      <trkpt lat="42.92899" lon="-0.33564">
        <ele>2415.69</ele>
        <time>2018-01-08T13:05:27Z</time>
      </trkpt>
      <trkpt lat="42.92897" lon="-0.33566">
        <ele>2415.33</ele>
        <time>2018-01-08T13:05:51Z</time>
      </trkpt>
      <trkpt lat="42.92899" lon="-0.33563">
        <ele>2416.82</ele>
        <time>2018-01-08T13:06:10Z</time>
      </trkpt>
      <trkpt lat="42.929" lon="-0.33563">
        <ele>2418.63</ele>
        <time>2018-01-08T13:06:34Z</time>
      </trkpt>
      <trkpt lat="42.929" lon="-0.33565">
        <ele>2418.69</ele>
        <time>2018-01-08T13:06:52Z</time>
      </trkpt>
      <trkpt lat="42.92899" lon="-0.33569">
        <ele>2419.61</ele>
        <time>2018-01-08T13:07:13Z</time>
      </trkpt>
      <trkpt lat="42.92898" lon="-0.33571">
        <ele>2420.21</ele>
        <time>2018-01-08T13:07:32Z</time>
      </trkpt>
      <trkpt lat="42.92897" lon="-0.33572">
        <ele>2421.11</ele>
        <time>2018-01-08T13:07:52Z</time>
      </trkpt>
      <trkpt lat="42.92897" lon="-0.33572">
        <ele>2421.17</ele>
        <time>2018-01-08T13:08:12Z</time>
      </trkpt>
      <trkpt lat="42.92893" lon="-0.33571">
        <ele>2421.96</ele>
        <time>2018-01-08T13:08:31Z</time>
      </trkpt>
      <trkpt lat="42.92894" lon="-0.3357">
        <ele>2423</ele>
        <time>2018-01-08T13:08:48Z</time>
      </trkpt>
      <trkpt lat="42.92895" lon="-0.3357">
        <ele>2424</ele>
        <time>2018-01-08T13:09:03Z</time>
      </trkpt>
      <trkpt lat="42.92896" lon="-0.3357">
        <ele>2424.53</ele>
        <time>2018-01-08T13:09:23Z</time>
      </trkpt>
      <trkpt lat="42.92895" lon="-0.33572">
        <ele>2425.31</ele>
        <time>2018-01-08T13:09:39Z</time>
      </trkpt>
      <trkpt lat="42.92892" lon="-0.33573">
        <ele>2426.98</ele>
        <time>2018-01-08T13:09:56Z</time>
      </trkpt>
      <trkpt lat="42.92892" lon="-0.33575">
        <ele>2427.96</ele>
        <time>2018-01-08T13:10:15Z</time>
      </trkpt>
      <trkpt lat="42.92893" lon="-0.3358">
        <ele>2428.7</ele>
        <time>2018-01-08T13:10:31Z</time>
      </trkpt>
      <trkpt lat="42.92893" lon="-0.33583">
        <ele>2430.18</ele>
        <time>2018-01-08T13:10:48Z</time>
      </trkpt>
      <trkpt lat="42.92892" lon="-0.33587">
        <ele>2432.41</ele>
        <time>2018-01-08T13:11:02Z</time>
      </trkpt>
      <trkpt lat="42.92891" lon="-0.3359">
        <ele>2435.03</ele>
        <time>2018-01-08T13:11:15Z</time>
      </trkpt>
      <trkpt lat="42.92892" lon="-0.33595">
        <ele>2436.27</ele>
        <time>2018-01-08T13:11:30Z</time>
      </trkpt>
      <trkpt lat="42.9289" lon="-0.33598">
        <ele>2438.93</ele>
        <time>2018-01-08T13:11:48Z</time>
      </trkpt>
      <trkpt lat="42.92889" lon="-0.33599">
        <ele>2440.01</ele>
        <time>2018-01-08T13:12:08Z</time>
      </trkpt>
      <trkpt lat="42.92889" lon="-0.33604">
        <ele>2441.7</ele>
        <time>2018-01-08T13:12:24Z</time>
      </trkpt>
      <trkpt lat="42.92885" lon="-0.33607">
        <ele>2444.24</ele>
        <time>2018-01-08T13:12:46Z</time>
      </trkpt>
      <trkpt lat="42.92884" lon="-0.3361">
        <ele>2445.38</ele>
        <time>2018-01-08T13:13:07Z</time>
      </trkpt>
      <trkpt lat="42.92883" lon="-0.33609">
        <ele>2446.67</ele>
        <time>2018-01-08T13:13:26Z</time>
      </trkpt>
      <trkpt lat="42.9288" lon="-0.33607">
        <ele>2446.26</ele>
        <time>2018-01-08T13:13:46Z</time>
      </trkpt>
      <trkpt lat="42.9288" lon="-0.33606">
        <ele>2445.65</ele>
        <time>2018-01-08T13:14:08Z</time>
      </trkpt>
      <trkpt lat="42.9288" lon="-0.33606">
        <ele>2445.85</ele>
        <time>2018-01-08T13:14:30Z</time>
      </trkpt>
      <trkpt lat="42.92878" lon="-0.33607">
        <ele>2444.6</ele>
        <time>2018-01-08T13:14:46Z</time>
      </trkpt>
      <trkpt lat="42.92879" lon="-0.33608">
        <ele>2444.97</ele>
        <time>2018-01-08T13:15:56Z</time>
      </trkpt>
      <trkpt lat="42.92879" lon="-0.33608">
        <ele>2445.48</ele>
        <time>2018-01-08T13:16:31Z</time>
      </trkpt>
      <trkpt lat="42.92878" lon="-0.33608">
        <ele>2445.63</ele>
        <time>2018-01-08T13:17:11Z</time>
      </trkpt>
      <trkpt lat="42.92878" lon="-0.33607">
        <ele>2446.3</ele>
        <time>2018-01-08T13:17:53Z</time>
      </trkpt>
      <trkpt lat="42.92879" lon="-0.33607">
        <ele>2445.77</ele>
        <time>2018-01-08T13:18:47Z</time>
      </trkpt>
      <trkpt lat="42.92879" lon="-0.33607">
        <ele>2445.88</ele>
        <time>2018-01-08T13:19:33Z</time>
      </trkpt>
      <trkpt lat="42.92879" lon="-0.33608">
        <ele>2446.05</ele>
        <time>2018-01-08T13:20:27Z</time>
      </trkpt>
      <trkpt lat="42.9288" lon="-0.33608">
        <ele>2446.39</ele>
        <time>2018-01-08T13:20:50Z</time>
      </trkpt>
      <trkpt lat="42.92879" lon="-0.33609">
        <ele>2446.36</ele>
        <time>2018-01-08T13:21:13Z</time>
      </trkpt>
      <trkpt lat="42.92877" lon="-0.33609">
        <ele>2445.96</ele>
        <time>2018-01-08T13:21:31Z</time>
      </trkpt>
      <trkpt lat="42.92877" lon="-0.3361">
        <ele>2446.15</ele>
        <time>2018-01-08T13:21:48Z</time>
      </trkpt>
      <trkpt lat="42.92879" lon="-0.33608">
        <ele>2445.26</ele>
        <time>2018-01-08T13:22:12Z</time>
      </trkpt>
      <trkpt lat="42.92879" lon="-0.33608">
        <ele>2445.91</ele>
        <time>2018-01-08T13:22:39Z</time>
      </trkpt>
      <trkpt lat="42.92879" lon="-0.33608">
        <ele>2445.89</ele>
        <time>2018-01-08T13:23:08Z</time>
      </trkpt>
      <trkpt lat="42.92878" lon="-0.33608">
        <ele>2445.39</ele>
        <time>2018-01-08T13:23:36Z</time>
      </trkpt>
      <trkpt lat="42.92878" lon="-0.33607">
        <ele>2445.1</ele>
        <time>2018-01-08T13:24:05Z</time>
      </trkpt>
      <trkpt lat="42.92879" lon="-0.33607">
        <ele>2445.55</ele>
        <time>2018-01-08T13:24:34Z</time>
      </trkpt>
      <trkpt lat="42.92878" lon="-0.33607">
        <ele>2445.02</ele>
        <time>2018-01-08T13:25:06Z</time>
      </trkpt>
      <trkpt lat="42.92879" lon="-0.33607">
        <ele>2445.7</ele>
        <time>2018-01-08T13:25:37Z</time>
      </trkpt>
      <trkpt lat="42.92879" lon="-0.33608">
        <ele>2445.77</ele>
        <time>2018-01-08T13:26:07Z</time>
      </trkpt>
      <trkpt lat="42.92879" lon="-0.33608">
        <ele>2446.06</ele>
        <time>2018-01-08T13:26:35Z</time>
      </trkpt>
      <trkpt lat="42.92878" lon="-0.33608">
        <ele>2445.8</ele>
        <time>2018-01-08T13:26:53Z</time>
      </trkpt>
      <trkpt lat="42.92881" lon="-0.33607">
        <ele>2445.98</ele>
        <time>2018-01-08T13:27:26Z</time>
      </trkpt>
      <trkpt lat="42.9288" lon="-0.33607">
        <ele>2445.08</ele>
        <time>2018-01-08T13:27:50Z</time>
      </trkpt>
      <trkpt lat="42.92881" lon="-0.33608">
        <ele>2446.05</ele>
        <time>2018-01-08T13:28:12Z</time>
      </trkpt>
      <trkpt lat="42.92879" lon="-0.33608">
        <ele>2446.33</ele>
        <time>2018-01-08T13:28:33Z</time>
      </trkpt>
      <trkpt lat="42.92877" lon="-0.33607">
        <ele>2446.05</ele>
        <time>2018-01-08T13:28:54Z</time>
      </trkpt>
      <trkpt lat="42.92877" lon="-0.33607">
        <ele>2445.95</ele>
        <time>2018-01-08T13:29:12Z</time>
      </trkpt>
      <trkpt lat="42.92877" lon="-0.33607">
        <ele>2445.84</ele>
        <time>2018-01-08T13:29:32Z</time>
      </trkpt>
      <trkpt lat="42.92878" lon="-0.33607">
        <ele>2446.53</ele>
        <time>2018-01-08T13:29:58Z</time>
      </trkpt>
      <trkpt lat="42.92877" lon="-0.33607">
        <ele>2447.55</ele>
        <time>2018-01-08T13:30:16Z</time>
      </trkpt>
      <trkpt lat="42.92877" lon="-0.33607">
        <ele>2446.97</ele>
        <time>2018-01-08T13:30:36Z</time>
      </trkpt>
      <trkpt lat="42.92877" lon="-0.33608">
        <ele>2446.82</ele>
        <time>2018-01-08T13:30:49Z</time>
      </trkpt>
      <trkpt lat="42.92877" lon="-0.33608">
        <ele>2447.5</ele>
        <time>2018-01-08T13:31:09Z</time>
      </trkpt>
      <trkpt lat="42.92879" lon="-0.33607">
        <ele>2447.79</ele>
        <time>2018-01-08T13:31:21Z</time>
      </trkpt>
      <trkpt lat="42.92879" lon="-0.33607">
        <ele>2447.84</ele>
        <time>2018-01-08T13:31:23Z</time>
      </trkpt>
      <trkpt lat="42.92883" lon="-0.33612">
        <ele>2447.76</ele>
        <time>2018-01-08T13:31:26Z</time>
      </trkpt>
      <trkpt lat="42.92892" lon="-0.33634">
        <ele>2444.3</ele>
        <time>2018-01-08T13:31:34Z</time>
      </trkpt>
      <trkpt lat="42.92898" lon="-0.33652">
        <ele>2440.63</ele>
        <time>2018-01-08T13:31:38Z</time>
      </trkpt>
      <trkpt lat="42.92903" lon="-0.33662">
        <ele>2436.99</ele>
        <time>2018-01-08T13:31:41Z</time>
      </trkpt>
      <trkpt lat="42.92907" lon="-0.33673">
        <ele>2432.76</ele>
        <time>2018-01-08T13:31:44Z</time>
      </trkpt>
      <trkpt lat="42.92915" lon="-0.33683">
        <ele>2428.88</ele>
        <time>2018-01-08T13:31:47Z</time>
      </trkpt>
      <trkpt lat="42.92924" lon="-0.3369">
        <ele>2425.34</ele>
        <time>2018-01-08T13:31:50Z</time>
      </trkpt>
      <trkpt lat="42.92934" lon="-0.33694">
        <ele>2421.43</ele>
        <time>2018-01-08T13:31:54Z</time>
      </trkpt>
      <trkpt lat="42.92935" lon="-0.33694">
        <ele>2418.3</ele>
        <time>2018-01-08T13:32:01Z</time>
      </trkpt>
      <trkpt lat="42.92935" lon="-0.33694">
        <ele>2417.9</ele>
        <time>2018-01-08T13:32:03Z</time>
      </trkpt>
      <trkpt lat="42.92947" lon="-0.33699">
        <ele>2417.03</ele>
        <time>2018-01-08T13:32:08Z</time>
      </trkpt>
      <trkpt lat="42.92968" lon="-0.33707">
        <ele>2413.34</ele>
        <time>2018-01-08T13:32:16Z</time>
      </trkpt>
      <trkpt lat="42.92971" lon="-0.33707">
        <ele>2410.3</ele>
        <time>2018-01-08T13:32:21Z</time>
      </trkpt>
      <trkpt lat="42.92973" lon="-0.33706">
        <ele>2409.34</ele>
        <time>2018-01-08T13:32:24Z</time>
      </trkpt>
      <trkpt lat="42.92979" lon="-0.337">
        <ele>2407</ele>
        <time>2018-01-08T13:32:40Z</time>
      </trkpt>
      <trkpt lat="42.9298" lon="-0.33698">
        <ele>2407.21</ele>
        <time>2018-01-08T13:32:46Z</time>
      </trkpt>
      <trkpt lat="42.92994" lon="-0.33696">
        <ele>2406.18</ele>
        <time>2018-01-08T13:32:53Z</time>
      </trkpt>
      <trkpt lat="42.9301" lon="-0.33694">
        <ele>2402.34</ele>
        <time>2018-01-08T13:32:59Z</time>
      </trkpt>
      <trkpt lat="42.93013" lon="-0.33693">
        <ele>2401.58</ele>
        <time>2018-01-08T13:33:00Z</time>
      </trkpt>
      <trkpt lat="42.93031" lon="-0.33697">
        <ele>2397.06</ele>
        <time>2018-01-08T13:33:06Z</time>
      </trkpt>
      <trkpt lat="42.93036" lon="-0.33696">
        <ele>2396.26</ele>
        <time>2018-01-08T13:33:07Z</time>
      </trkpt>
      <trkpt lat="42.93057" lon="-0.33699">
        <ele>2391.96</ele>
        <time>2018-01-08T13:33:12Z</time>
      </trkpt>
      <trkpt lat="42.93069" lon="-0.33705">
        <ele>2387.75</ele>
        <time>2018-01-08T13:33:17Z</time>
      </trkpt>
      <trkpt lat="42.93082" lon="-0.33709">
        <ele>2384.72</ele>
        <time>2018-01-08T13:33:21Z</time>
      </trkpt>
      <trkpt lat="42.93085" lon="-0.33709">
        <ele>2384.04</ele>
        <time>2018-01-08T13:33:22Z</time>
      </trkpt>
      <trkpt lat="42.93123" lon="-0.33722">
        <ele>2379.25</ele>
        <time>2018-01-08T13:33:27Z</time>
      </trkpt>
      <trkpt lat="42.93138" lon="-0.33731">
        <ele>2376.85</ele>
        <time>2018-01-08T13:33:29Z</time>
      </trkpt>
      <trkpt lat="42.93162" lon="-0.33737">
        <ele>2372.07</ele>
        <time>2018-01-08T13:33:33Z</time>
      </trkpt>
      <trkpt lat="42.93164" lon="-0.33738">
        <ele>2368.9</ele>
        <time>2018-01-08T13:33:37Z</time>
      </trkpt>
      <trkpt lat="42.93162" lon="-0.33739">
        <ele>2365.85</ele>
        <time>2018-01-08T13:33:44Z</time>
      </trkpt>
      <trkpt lat="42.93163" lon="-0.33738">
        <ele>2365.68</ele>
        <time>2018-01-08T13:33:56Z</time>
      </trkpt>
      <trkpt lat="42.9317" lon="-0.33737">
        <ele>2365.68</ele>
        <time>2018-01-08T13:33:59Z</time>
      </trkpt>
      <trkpt lat="42.93181" lon="-0.33735">
        <ele>2365.52</ele>
        <time>2018-01-08T13:34:01Z</time>
      </trkpt>
      <trkpt lat="42.93199" lon="-0.33738">
        <ele>2364.53</ele>
        <time>2018-01-08T13:34:04Z</time>
      </trkpt>
      <trkpt lat="42.93207" lon="-0.3374">
        <ele>2361.44</ele>
        <time>2018-01-08T13:34:11Z</time>
      </trkpt>
      <trkpt lat="42.93206" lon="-0.3374">
        <ele>2359.41</ele>
        <time>2018-01-08T13:34:16Z</time>
      </trkpt>
      <trkpt lat="42.93205" lon="-0.33741">
        <ele>2359.15</ele>
        <time>2018-01-08T13:34:31Z</time>
      </trkpt>
      <trkpt lat="42.93202" lon="-0.33746">
        <ele>2359.31</ele>
        <time>2018-01-08T13:34:42Z</time>
      </trkpt>
      <trkpt lat="42.93195" lon="-0.33755">
        <ele>2359.03</ele>
        <time>2018-01-08T13:34:45Z</time>
      </trkpt>
      <trkpt lat="42.93196" lon="-0.33787">
        <ele>2354.92</ele>
        <time>2018-01-08T13:34:51Z</time>
      </trkpt>
      <trkpt lat="42.93198" lon="-0.33791">
        <ele>2354.92</ele>
        <time>2018-01-08T13:34:52Z</time>
      </trkpt>
      <trkpt lat="42.93202" lon="-0.33798">
        <ele>2352.35</ele>
        <time>2018-01-08T13:34:54Z</time>
      </trkpt>
      <trkpt lat="42.93211" lon="-0.338">
        <ele>2348.27</ele>
        <time>2018-01-08T13:34:57Z</time>
      </trkpt>
      <trkpt lat="42.93219" lon="-0.33803">
        <ele>2345.67</ele>
        <time>2018-01-08T13:34:59Z</time>
      </trkpt>
      <trkpt lat="42.93235" lon="-0.33802">
        <ele>2340.07</ele>
        <time>2018-01-08T13:35:03Z</time>
      </trkpt>
      <trkpt lat="42.93249" lon="-0.33803">
        <ele>2336.41</ele>
        <time>2018-01-08T13:35:06Z</time>
      </trkpt>
      <trkpt lat="42.93265" lon="-0.33805">
        <ele>2331.3</ele>
        <time>2018-01-08T13:35:10Z</time>
      </trkpt>
      <trkpt lat="42.93272" lon="-0.33805">
        <ele>2327.4</ele>
        <time>2018-01-08T13:35:13Z</time>
      </trkpt>
      <trkpt lat="42.9328" lon="-0.33803">
        <ele>2324.13</ele>
        <time>2018-01-08T13:35:16Z</time>
      </trkpt>
      <trkpt lat="42.93284" lon="-0.33803">
        <ele>2323.31</ele>
        <time>2018-01-08T13:35:17Z</time>
      </trkpt>
      <trkpt lat="42.93299" lon="-0.33806">
        <ele>2319.35</ele>
        <time>2018-01-08T13:35:21Z</time>
      </trkpt>
      <trkpt lat="42.9331" lon="-0.3381">
        <ele>2315.62</ele>
        <time>2018-01-08T13:35:25Z</time>
      </trkpt>
      <trkpt lat="42.93311" lon="-0.3381">
        <ele>2311.95</ele>
        <time>2018-01-08T13:35:29Z</time>
      </trkpt>
      <trkpt lat="42.93311" lon="-0.3381">
        <ele>2309.91</ele>
        <time>2018-01-08T13:35:34Z</time>
      </trkpt>
      <trkpt lat="42.93307" lon="-0.33825">
        <ele>2307.81</ele>
        <time>2018-01-08T13:35:40Z</time>
      </trkpt>
      <trkpt lat="42.93305" lon="-0.33834">
        <ele>2305.15</ele>
        <time>2018-01-08T13:35:44Z</time>
      </trkpt>
      <trkpt lat="42.93297" lon="-0.3384">
        <ele>2301.42</ele>
        <time>2018-01-08T13:35:48Z</time>
      </trkpt>
      <trkpt lat="42.93303" lon="-0.33848">
        <ele>2297.16</ele>
        <time>2018-01-08T13:35:54Z</time>
      </trkpt>
      <trkpt lat="42.93294" lon="-0.33863">
        <ele>2292.92</ele>
        <time>2018-01-08T13:36:00Z</time>
      </trkpt>
      <trkpt lat="42.93288" lon="-0.33871">
        <ele>2291.24</ele>
        <time>2018-01-08T13:36:02Z</time>
      </trkpt>
      <trkpt lat="42.93282" lon="-0.33885">
        <ele>2287.44</ele>
        <time>2018-01-08T13:36:06Z</time>
      </trkpt>
      <trkpt lat="42.9328" lon="-0.33895">
        <ele>2285.42</ele>
        <time>2018-01-08T13:36:08Z</time>
      </trkpt>
      <trkpt lat="42.93274" lon="-0.33916">
        <ele>2280.62</ele>
        <time>2018-01-08T13:36:13Z</time>
      </trkpt>
      <trkpt lat="42.93271" lon="-0.3393">
        <ele>2277.37</ele>
        <time>2018-01-08T13:36:16Z</time>
      </trkpt>
      <trkpt lat="42.93268" lon="-0.33944">
        <ele>2273.78</ele>
        <time>2018-01-08T13:36:20Z</time>
      </trkpt>
      <trkpt lat="42.93266" lon="-0.33961">
        <ele>2269.99</ele>
        <time>2018-01-08T13:36:24Z</time>
      </trkpt>
      <trkpt lat="42.93265" lon="-0.33972">
        <ele>2266.39</ele>
        <time>2018-01-08T13:36:27Z</time>
      </trkpt>
      <trkpt lat="42.93264" lon="-0.33975">
        <ele>2266.39</ele>
        <time>2018-01-08T13:36:28Z</time>
      </trkpt>
      <trkpt lat="42.93264" lon="-0.33981">
        <ele>2263.23</ele>
        <time>2018-01-08T13:36:31Z</time>
      </trkpt>
      <trkpt lat="42.93263" lon="-0.33984">
        <ele>2259.92</ele>
        <time>2018-01-08T13:36:37Z</time>
      </trkpt>
      <trkpt lat="42.93263" lon="-0.33985">
        <ele>2258.66</ele>
        <time>2018-01-08T13:36:44Z</time>
      </trkpt>
      <trkpt lat="42.93262" lon="-0.3399">
        <ele>2258.59</ele>
        <time>2018-01-08T13:36:47Z</time>
      </trkpt>
      <trkpt lat="42.93261" lon="-0.3401">
        <ele>2257.84</ele>
        <time>2018-01-08T13:36:51Z</time>
      </trkpt>
      <trkpt lat="42.93262" lon="-0.34042">
        <ele>2254</ele>
        <time>2018-01-08T13:36:56Z</time>
      </trkpt>
      <trkpt lat="42.93263" lon="-0.34061">
        <ele>2250.9</ele>
        <time>2018-01-08T13:36:59Z</time>
      </trkpt>
      <trkpt lat="42.93263" lon="-0.34078">
        <ele>2246.37</ele>
        <time>2018-01-08T13:37:02Z</time>
      </trkpt>
      <trkpt lat="42.93262" lon="-0.34098">
        <ele>2242.4</ele>
        <time>2018-01-08T13:37:06Z</time>
      </trkpt>
      <trkpt lat="42.9326" lon="-0.34115">
        <ele>2238.72</ele>
        <time>2018-01-08T13:37:10Z</time>
      </trkpt>
      <trkpt lat="42.93259" lon="-0.34125">
        <ele>2235.07</ele>
        <time>2018-01-08T13:37:14Z</time>
      </trkpt>
      <trkpt lat="42.93259" lon="-0.34138">
        <ele>2232.49</ele>
        <time>2018-01-08T13:37:17Z</time>
      </trkpt>
      <trkpt lat="42.93267" lon="-0.3414">
        <ele>2229.84</ele>
        <time>2018-01-08T13:37:21Z</time>
      </trkpt>
      <trkpt lat="42.93272" lon="-0.34134">
        <ele>2228.73</ele>
        <time>2018-01-08T13:37:23Z</time>
      </trkpt>
      <trkpt lat="42.933" lon="-0.34135">
        <ele>2225.64</ele>
        <time>2018-01-08T13:37:29Z</time>
      </trkpt>
      <trkpt lat="42.93303" lon="-0.34137">
        <ele>2222.03</ele>
        <time>2018-01-08T13:37:33Z</time>
      </trkpt>
      <trkpt lat="42.93303" lon="-0.34137">
        <ele>2218.87</ele>
        <time>2018-01-08T13:37:43Z</time>
      </trkpt>
      <trkpt lat="42.93303" lon="-0.34136">
        <ele>2219.09</ele>
        <time>2018-01-08T13:38:05Z</time>
      </trkpt>
      <trkpt lat="42.93303" lon="-0.34136">
        <ele>2218.87</ele>
        <time>2018-01-08T13:38:38Z</time>
      </trkpt>
      <trkpt lat="42.93302" lon="-0.34137">
        <ele>2218.12</ele>
        <time>2018-01-08T13:38:59Z</time>
      </trkpt>
      <trkpt lat="42.93303" lon="-0.34144">
        <ele>2218.12</ele>
        <time>2018-01-08T13:39:06Z</time>
      </trkpt>
      <trkpt lat="42.93304" lon="-0.34181">
        <ele>2217.9</ele>
        <time>2018-01-08T13:39:14Z</time>
      </trkpt>
      <trkpt lat="42.93306" lon="-0.34209">
        <ele>2215.36</ele>
        <time>2018-01-08T13:39:18Z</time>
      </trkpt>
      <trkpt lat="42.93305" lon="-0.34251">
        <ele>2208.67</ele>
        <time>2018-01-08T13:39:23Z</time>
      </trkpt>
      <trkpt lat="42.9331" lon="-0.34264">
        <ele>2205.41</ele>
        <time>2018-01-08T13:39:25Z</time>
      </trkpt>
      <trkpt lat="42.93324" lon="-0.34276">
        <ele>2200.85</ele>
        <time>2018-01-08T13:39:28Z</time>
      </trkpt>
      <trkpt lat="42.93335" lon="-0.34285">
        <ele>2197.79</ele>
        <time>2018-01-08T13:39:30Z</time>
      </trkpt>
      <trkpt lat="42.93343" lon="-0.34282">
        <ele>2196.11</ele>
        <time>2018-01-08T13:39:31Z</time>
      </trkpt>
      <trkpt lat="42.9335" lon="-0.34276">
        <ele>2194.36</ele>
        <time>2018-01-08T13:39:32Z</time>
      </trkpt>
      <trkpt lat="42.93356" lon="-0.34268">
        <ele>2192.58</ele>
        <time>2018-01-08T13:39:33Z</time>
      </trkpt>
      <trkpt lat="42.93372" lon="-0.34245">
        <ele>2187.05</ele>
        <time>2018-01-08T13:39:36Z</time>
      </trkpt>
      <trkpt lat="42.93378" lon="-0.34242">
        <ele>2185.25</ele>
        <time>2018-01-08T13:39:37Z</time>
      </trkpt>
      <trkpt lat="42.93393" lon="-0.3424">
        <ele>2182.12</ele>
        <time>2018-01-08T13:39:39Z</time>
      </trkpt>
      <trkpt lat="42.93399" lon="-0.34236">
        <ele>2180.76</ele>
        <time>2018-01-08T13:39:40Z</time>
      </trkpt>
      <trkpt lat="42.93404" lon="-0.34233">
        <ele>2179.37</ele>
        <time>2018-01-08T13:39:41Z</time>
      </trkpt>
      <trkpt lat="42.9341" lon="-0.34235">
        <ele>2177.94</ele>
        <time>2018-01-08T13:39:42Z</time>
      </trkpt>
      <trkpt lat="42.93416" lon="-0.34236">
        <ele>2176.57</ele>
        <time>2018-01-08T13:39:43Z</time>
      </trkpt>
      <trkpt lat="42.93423" lon="-0.34236">
        <ele>2175.3</ele>
        <time>2018-01-08T13:39:44Z</time>
      </trkpt>
      <trkpt lat="42.9343" lon="-0.34236">
        <ele>2174.04</ele>
        <time>2018-01-08T13:39:45Z</time>
      </trkpt>
      <trkpt lat="42.93437" lon="-0.34237">
        <ele>2172.77</ele>
        <time>2018-01-08T13:39:46Z</time>
      </trkpt>
      <trkpt lat="42.93443" lon="-0.34234">
        <ele>2171.43</ele>
        <time>2018-01-08T13:39:47Z</time>
      </trkpt>
      <trkpt lat="42.93448" lon="-0.34233">
        <ele>2169.99</ele>
        <time>2018-01-08T13:39:48Z</time>
      </trkpt>
      <trkpt lat="42.93454" lon="-0.34235">
        <ele>2168.47</ele>
        <time>2018-01-08T13:39:49Z</time>
      </trkpt>
      <trkpt lat="42.93459" lon="-0.34237">
        <ele>2166.97</ele>
        <time>2018-01-08T13:39:50Z</time>
      </trkpt>
      <trkpt lat="42.93464" lon="-0.34237">
        <ele>2164.16</ele>
        <time>2018-01-08T13:39:51Z</time>
      </trkpt>
      <trkpt lat="42.9347" lon="-0.34239">
        <ele>2162.77</ele>
        <time>2018-01-08T13:39:52Z</time>
      </trkpt>
      <trkpt lat="42.93482" lon="-0.3424">
        <ele>2159.95</ele>
        <time>2018-01-08T13:39:54Z</time>
      </trkpt>
      <trkpt lat="42.935" lon="-0.34255">
        <ele>2152.51</ele>
        <time>2018-01-08T13:39:59Z</time>
      </trkpt>
      <trkpt lat="42.93505" lon="-0.34267">
        <ele>2148.79</ele>
        <time>2018-01-08T13:40:01Z</time>
      </trkpt>
      <trkpt lat="42.93516" lon="-0.34277">
        <ele>2145.04</ele>
        <time>2018-01-08T13:40:03Z</time>
      </trkpt>
      <trkpt lat="42.93517" lon="-0.34285">
        <ele>2143.02</ele>
        <time>2018-01-08T13:40:04Z</time>
      </trkpt>
      <trkpt lat="42.9353" lon="-0.34311">
        <ele>2134.53</ele>
        <time>2018-01-08T13:40:08Z</time>
      </trkpt>
      <trkpt lat="42.93539" lon="-0.34323">
        <ele>2130.1</ele>
        <time>2018-01-08T13:40:10Z</time>
      </trkpt>
      <trkpt lat="42.93538" lon="-0.34345">
        <ele>2125.19</ele>
        <time>2018-01-08T13:40:12Z</time>
      </trkpt>
      <trkpt lat="42.93549" lon="-0.34363">
        <ele>2120.18</ele>
        <time>2018-01-08T13:40:14Z</time>
      </trkpt>
      <trkpt lat="42.93566" lon="-0.34364">
        <ele>2115.1</ele>
        <time>2018-01-08T13:40:16Z</time>
      </trkpt>
      <trkpt lat="42.93579" lon="-0.3437">
        <ele>2109.38</ele>
        <time>2018-01-08T13:40:18Z</time>
      </trkpt>
      <trkpt lat="42.93589" lon="-0.34383">
        <ele>2103.67</ele>
        <time>2018-01-08T13:40:20Z</time>
      </trkpt>
      <trkpt lat="42.93595" lon="-0.34386">
        <ele>2101</ele>
        <time>2018-01-08T13:40:21Z</time>
      </trkpt>
      <trkpt lat="42.93602" lon="-0.34386">
        <ele>2098.38</ele>
        <time>2018-01-08T13:40:22Z</time>
      </trkpt>
      <trkpt lat="42.93608" lon="-0.34388">
        <ele>2095.86</ele>
        <time>2018-01-08T13:40:23Z</time>
      </trkpt>
      <trkpt lat="42.93615" lon="-0.34389">
        <ele>2091.39</ele>
        <time>2018-01-08T13:40:24Z</time>
      </trkpt>
      <trkpt lat="42.93629" lon="-0.34394">
        <ele>2087.91</ele>
        <time>2018-01-08T13:40:26Z</time>
      </trkpt>
      <trkpt lat="42.93634" lon="-0.344">
        <ele>2086.42</ele>
        <time>2018-01-08T13:40:27Z</time>
      </trkpt>
      <trkpt lat="42.93637" lon="-0.34407">
        <ele>2085.07</ele>
        <time>2018-01-08T13:40:28Z</time>
      </trkpt>
      <trkpt lat="42.93642" lon="-0.34413">
        <ele>2083.79</ele>
        <time>2018-01-08T13:40:29Z</time>
      </trkpt>
      <trkpt lat="42.93647" lon="-0.34417">
        <ele>2082.61</ele>
        <time>2018-01-08T13:40:30Z</time>
      </trkpt>
      <trkpt lat="42.93652" lon="-0.3442">
        <ele>2081.52</ele>
        <time>2018-01-08T13:40:31Z</time>
      </trkpt>
      <trkpt lat="42.93657" lon="-0.34423">
        <ele>2080.49</ele>
        <time>2018-01-08T13:40:32Z</time>
      </trkpt>
      <trkpt lat="42.93662" lon="-0.34427">
        <ele>2079.54</ele>
        <time>2018-01-08T13:40:33Z</time>
      </trkpt>
      <trkpt lat="42.93666" lon="-0.34433">
        <ele>2078.68</ele>
        <time>2018-01-08T13:40:34Z</time>
      </trkpt>
      <trkpt lat="42.9367" lon="-0.34439">
        <ele>2077.87</ele>
        <time>2018-01-08T13:40:35Z</time>
      </trkpt>
      <trkpt lat="42.93673" lon="-0.34443">
        <ele>2077.08</ele>
        <time>2018-01-08T13:40:36Z</time>
      </trkpt>
      <trkpt lat="42.93676" lon="-0.34443">
        <ele>2074.64</ele>
        <time>2018-01-08T13:40:39Z</time>
      </trkpt>
      <trkpt lat="42.93683" lon="-0.3444">
        <ele>2072.74</ele>
        <time>2018-01-08T13:40:43Z</time>
      </trkpt>
      <trkpt lat="42.93685" lon="-0.34439">
        <ele>2072.45</ele>
        <time>2018-01-08T13:40:44Z</time>
      </trkpt>
      <trkpt lat="42.93688" lon="-0.34438">
        <ele>2072.22</ele>
        <time>2018-01-08T13:40:45Z</time>
      </trkpt>
      <trkpt lat="42.93692" lon="-0.34435">
        <ele>2072</ele>
        <time>2018-01-08T13:40:46Z</time>
      </trkpt>
      <trkpt lat="42.93697" lon="-0.34435">
        <ele>2071.78</ele>
        <time>2018-01-08T13:40:47Z</time>
      </trkpt>
      <trkpt lat="42.93701" lon="-0.34434">
        <ele>2071.45</ele>
        <time>2018-01-08T13:40:48Z</time>
      </trkpt>
      <trkpt lat="42.93705" lon="-0.34431">
        <ele>2070.89</ele>
        <time>2018-01-08T13:40:49Z</time>
      </trkpt>
      <trkpt lat="42.93707" lon="-0.34426">
        <ele>2070.21</ele>
        <time>2018-01-08T13:40:50Z</time>
      </trkpt>
      <trkpt lat="42.9371" lon="-0.3442">
        <ele>2069.57</ele>
        <time>2018-01-08T13:40:51Z</time>
      </trkpt>
      <trkpt lat="42.93713" lon="-0.34417">
        <ele>2068.94</ele>
        <time>2018-01-08T13:40:52Z</time>
      </trkpt>
      <trkpt lat="42.93716" lon="-0.34419">
        <ele>2068.27</ele>
        <time>2018-01-08T13:40:53Z</time>
      </trkpt>
      <trkpt lat="42.93718" lon="-0.34423">
        <ele>2067.56</ele>
        <time>2018-01-08T13:40:54Z</time>
      </trkpt>
      <trkpt lat="42.93721" lon="-0.34432">
        <ele>2065.62</ele>
        <time>2018-01-08T13:40:56Z</time>
      </trkpt>
      <trkpt lat="42.93733" lon="-0.3442">
        <ele>2060.86</ele>
        <time>2018-01-08T13:41:00Z</time>
      </trkpt>
      <trkpt lat="42.93742" lon="-0.34424">
        <ele>2057.09</ele>
        <time>2018-01-08T13:41:03Z</time>
      </trkpt>
      <trkpt lat="42.93753" lon="-0.34423">
        <ele>2052.86</ele>
        <time>2018-01-08T13:41:06Z</time>
      </trkpt>
      <trkpt lat="42.9376" lon="-0.34424">
        <ele>2047.76</ele>
        <time>2018-01-08T13:41:08Z</time>
      </trkpt>
      <trkpt lat="42.93766" lon="-0.34426">
        <ele>2044.28</ele>
        <time>2018-01-08T13:41:10Z</time>
      </trkpt>
      <trkpt lat="42.93772" lon="-0.34421">
        <ele>2040.87</ele>
        <time>2018-01-08T13:41:12Z</time>
      </trkpt>
      <trkpt lat="42.93779" lon="-0.34428">
        <ele>2037.57</ele>
        <time>2018-01-08T13:41:14Z</time>
      </trkpt>
      <trkpt lat="42.93785" lon="-0.34428">
        <ele>2034.36</ele>
        <time>2018-01-08T13:41:16Z</time>
      </trkpt>
      <trkpt lat="42.93789" lon="-0.3442">
        <ele>2031.16</ele>
        <time>2018-01-08T13:41:18Z</time>
      </trkpt>
      <trkpt lat="42.93796" lon="-0.34423">
        <ele>2027.78</ele>
        <time>2018-01-08T13:41:20Z</time>
      </trkpt>
      <trkpt lat="42.93803" lon="-0.34426">
        <ele>2024.07</ele>
        <time>2018-01-08T13:41:22Z</time>
      </trkpt>
      <trkpt lat="42.93806" lon="-0.34417">
        <ele>2020.35</ele>
        <time>2018-01-08T13:41:24Z</time>
      </trkpt>
      <trkpt lat="42.93811" lon="-0.34412">
        <ele>2016.85</ele>
        <time>2018-01-08T13:41:26Z</time>
      </trkpt>
      <trkpt lat="42.93818" lon="-0.34416">
        <ele>2013.8</ele>
        <time>2018-01-08T13:41:28Z</time>
      </trkpt>
      <trkpt lat="42.93822" lon="-0.34409">
        <ele>2010.52</ele>
        <time>2018-01-08T13:41:30Z</time>
      </trkpt>
      <trkpt lat="42.93826" lon="-0.34401">
        <ele>2006.98</ele>
        <time>2018-01-08T13:41:32Z</time>
      </trkpt>
      <trkpt lat="42.93834" lon="-0.34404">
        <ele>2003.72</ele>
        <time>2018-01-08T13:41:34Z</time>
      </trkpt>
      <trkpt lat="42.9384" lon="-0.34399">
        <ele>2000.46</ele>
        <time>2018-01-08T13:41:36Z</time>
      </trkpt>
      <trkpt lat="42.93843" lon="-0.3439">
        <ele>1997.02</ele>
        <time>2018-01-08T13:41:38Z</time>
      </trkpt>
      <trkpt lat="42.9385" lon="-0.34389">
        <ele>1993.59</ele>
        <time>2018-01-08T13:41:40Z</time>
      </trkpt>
      <trkpt lat="42.93855" lon="-0.34381">
        <ele>1990.12</ele>
        <time>2018-01-08T13:41:42Z</time>
      </trkpt>
      <trkpt lat="42.93863" lon="-0.34378">
        <ele>1986.44</ele>
        <time>2018-01-08T13:41:44Z</time>
      </trkpt>
      <trkpt lat="42.9387" lon="-0.3438">
        <ele>1982.75</ele>
        <time>2018-01-08T13:41:46Z</time>
      </trkpt>
      <trkpt lat="42.93874" lon="-0.34372">
        <ele>1979.23</ele>
        <time>2018-01-08T13:41:48Z</time>
      </trkpt>
      <trkpt lat="42.93875" lon="-0.34362">
        <ele>1975.97</ele>
        <time>2018-01-08T13:41:50Z</time>
      </trkpt>
      <trkpt lat="42.93878" lon="-0.3436">
        <ele>1972.76</ele>
        <time>2018-01-08T13:41:51Z</time>
      </trkpt>
      <trkpt lat="42.93891" lon="-0.34349">
        <ele>1966.16</ele>
        <time>2018-01-08T13:41:55Z</time>
      </trkpt>
      <trkpt lat="42.93895" lon="-0.34347">
        <ele>1964.61</ele>
        <time>2018-01-08T13:41:56Z</time>
      </trkpt>
      <trkpt lat="42.93899" lon="-0.34332">
        <ele>1959.93</ele>
        <time>2018-01-08T13:41:59Z</time>
      </trkpt>
      <trkpt lat="42.9391" lon="-0.34328">
        <ele>1955.72</ele>
        <time>2018-01-08T13:42:02Z</time>
      </trkpt>
      <trkpt lat="42.93917" lon="-0.34318">
        <ele>1951.67</ele>
        <time>2018-01-08T13:42:05Z</time>
      </trkpt>
      <trkpt lat="42.93926" lon="-0.34322">
        <ele>1948.13</ele>
        <time>2018-01-08T13:42:08Z</time>
      </trkpt>
      <trkpt lat="42.93935" lon="-0.34312">
        <ele>1944.69</ele>
        <time>2018-01-08T13:42:11Z</time>
      </trkpt>
      <trkpt lat="42.93945" lon="-0.34314">
        <ele>1940.91</ele>
        <time>2018-01-08T13:42:14Z</time>
      </trkpt>
      <trkpt lat="42.93948" lon="-0.34309">
        <ele>1939.66</ele>
        <time>2018-01-08T13:42:15Z</time>
      </trkpt>
      <trkpt lat="42.93967" lon="-0.34297">
        <ele>1932.75</ele>
        <time>2018-01-08T13:42:20Z</time>
      </trkpt>
      <trkpt lat="42.93969" lon="-0.34286">
        <ele>1929.53</ele>
        <time>2018-01-08T13:42:22Z</time>
      </trkpt>
      <trkpt lat="42.93975" lon="-0.34283">
        <ele>1926.64</ele>
        <time>2018-01-08T13:42:24Z</time>
      </trkpt>
      <trkpt lat="42.9399" lon="-0.34273">
        <ele>1920.35</ele>
        <time>2018-01-08T13:42:29Z</time>
      </trkpt>
      <trkpt lat="42.93998" lon="-0.34276">
        <ele>1916.33</ele>
        <time>2018-01-08T13:42:31Z</time>
      </trkpt>
      <trkpt lat="42.94008" lon="-0.34265">
        <ele>1912</ele>
        <time>2018-01-08T13:42:34Z</time>
      </trkpt>
      <trkpt lat="42.94017" lon="-0.34269">
        <ele>1910.59</ele>
        <time>2018-01-08T13:42:36Z</time>
      </trkpt>
      <trkpt lat="42.94025" lon="-0.34261">
        <ele>1906.64</ele>
        <time>2018-01-08T13:42:39Z</time>
      </trkpt>
      <trkpt lat="42.94037" lon="-0.34256">
        <ele>1902.78</ele>
        <time>2018-01-08T13:42:42Z</time>
      </trkpt>
      <trkpt lat="42.94043" lon="-0.34251">
        <ele>1898.57</ele>
        <time>2018-01-08T13:42:44Z</time>
      </trkpt>
      <trkpt lat="42.94048" lon="-0.34236">
        <ele>1894.45</ele>
        <time>2018-01-08T13:42:47Z</time>
      </trkpt>
      <trkpt lat="42.94059" lon="-0.34233">
        <ele>1890.32</ele>
        <time>2018-01-08T13:42:50Z</time>
      </trkpt>
      <trkpt lat="42.94066" lon="-0.34225">
        <ele>1887.5</ele>
        <time>2018-01-08T13:42:52Z</time>
      </trkpt>
      <trkpt lat="42.94075" lon="-0.3421">
        <ele>1881.46</ele>
        <time>2018-01-08T13:42:56Z</time>
      </trkpt>
      <trkpt lat="42.94087" lon="-0.34208">
        <ele>1876.85</ele>
        <time>2018-01-08T13:42:59Z</time>
      </trkpt>
      <trkpt lat="42.9409" lon="-0.34198">
        <ele>1873.37</ele>
        <time>2018-01-08T13:43:01Z</time>
      </trkpt>
      <trkpt lat="42.94096" lon="-0.34191">
        <ele>1869.91</ele>
        <time>2018-01-08T13:43:03Z</time>
      </trkpt>
      <trkpt lat="42.94104" lon="-0.34189">
        <ele>1866.64</ele>
        <time>2018-01-08T13:43:05Z</time>
      </trkpt>
      <trkpt lat="42.94106" lon="-0.34178">
        <ele>1863.61</ele>
        <time>2018-01-08T13:43:07Z</time>
      </trkpt>
      <trkpt lat="42.94116" lon="-0.34171">
        <ele>1859.53</ele>
        <time>2018-01-08T13:43:10Z</time>
      </trkpt>
      <trkpt lat="42.94119" lon="-0.34166">
        <ele>1858.22</ele>
        <time>2018-01-08T13:43:11Z</time>
      </trkpt>
      <trkpt lat="42.94136" lon="-0.34139">
        <ele>1851.64</ele>
        <time>2018-01-08T13:43:16Z</time>
      </trkpt>
      <trkpt lat="42.94141" lon="-0.34136">
        <ele>1848.74</ele>
        <time>2018-01-08T13:43:17Z</time>
      </trkpt>
      <trkpt lat="42.94158" lon="-0.34121">
        <ele>1842.47</ele>
        <time>2018-01-08T13:43:21Z</time>
      </trkpt>
      <trkpt lat="42.94168" lon="-0.34114">
        <ele>1839.37</ele>
        <time>2018-01-08T13:43:23Z</time>
      </trkpt>
      <trkpt lat="42.94172" lon="-0.34108">
        <ele>1837.93</ele>
        <time>2018-01-08T13:43:24Z</time>
      </trkpt>
      <trkpt lat="42.94183" lon="-0.34094">
        <ele>1834.04</ele>
        <time>2018-01-08T13:43:27Z</time>
      </trkpt>
      <trkpt lat="42.94194" lon="-0.34072">
        <ele>1829.73</ele>
        <time>2018-01-08T13:43:31Z</time>
      </trkpt>
      <trkpt lat="42.94196" lon="-0.34066">
        <ele>1828.89</ele>
        <time>2018-01-08T13:43:32Z</time>
      </trkpt>
      <trkpt lat="42.94201" lon="-0.34039">
        <ele>1826.66</ele>
        <time>2018-01-08T13:43:36Z</time>
      </trkpt>
      <trkpt lat="42.94213" lon="-0.34002">
        <ele>1823.86</ele>
        <time>2018-01-08T13:43:41Z</time>
      </trkpt>
      <trkpt lat="42.9423" lon="-0.33969">
        <ele>1819.83</ele>
        <time>2018-01-08T13:43:46Z</time>
      </trkpt>
      <trkpt lat="42.94251" lon="-0.33936">
        <ele>1815.95</ele>
        <time>2018-01-08T13:43:51Z</time>
      </trkpt>
      <trkpt lat="42.94256" lon="-0.33928">
        <ele>1815.26</ele>
        <time>2018-01-08T13:43:52Z</time>
      </trkpt>
      <trkpt lat="42.94271" lon="-0.33898">
        <ele>1811.91</ele>
        <time>2018-01-08T13:43:57Z</time>
      </trkpt>
      <trkpt lat="42.94277" lon="-0.33885">
        <ele>1809.02</ele>
        <time>2018-01-08T13:44:00Z</time>
      </trkpt>
      <trkpt lat="42.94284" lon="-0.33877">
        <ele>1805.87</ele>
        <time>2018-01-08T13:44:04Z</time>
      </trkpt>
      <trkpt lat="42.94283" lon="-0.33878">
        <ele>1802.85</ele>
        <time>2018-01-08T13:44:09Z</time>
      </trkpt>
      <trkpt lat="42.94283" lon="-0.33878">
        <ele>1801.95</ele>
        <time>2018-01-08T13:44:38Z</time>
      </trkpt>
      <trkpt lat="42.94282" lon="-0.33879">
        <ele>1801.88</ele>
        <time>2018-01-08T13:45:02Z</time>
      </trkpt>
      <trkpt lat="42.94282" lon="-0.33879">
        <ele>1801.01</ele>
        <time>2018-01-08T13:45:27Z</time>
      </trkpt>
      <trkpt lat="42.94303" lon="-0.33852">
        <ele>1800.43</ele>
        <time>2018-01-08T13:45:34Z</time>
      </trkpt>
      <trkpt lat="42.94309" lon="-0.33848">
        <ele>1800.06</ele>
        <time>2018-01-08T13:45:35Z</time>
      </trkpt>
      <trkpt lat="42.94334" lon="-0.33822">
        <ele>1796.51</ele>
        <time>2018-01-08T13:45:39Z</time>
      </trkpt>
      <trkpt lat="42.94341" lon="-0.33818">
        <ele>1795.15</ele>
        <time>2018-01-08T13:45:40Z</time>
      </trkpt>
      <trkpt lat="42.94348" lon="-0.33815">
        <ele>1793.73</ele>
        <time>2018-01-08T13:45:41Z</time>
      </trkpt>
      <trkpt lat="42.94354" lon="-0.3381">
        <ele>1792.23</ele>
        <time>2018-01-08T13:45:42Z</time>
      </trkpt>
      <trkpt lat="42.94362" lon="-0.33808">
        <ele>1790.6</ele>
        <time>2018-01-08T13:45:43Z</time>
      </trkpt>
      <trkpt lat="42.94369" lon="-0.33805">
        <ele>1788.85</ele>
        <time>2018-01-08T13:45:44Z</time>
      </trkpt>
      <trkpt lat="42.94375" lon="-0.33799">
        <ele>1787</ele>
        <time>2018-01-08T13:45:45Z</time>
      </trkpt>
      <trkpt lat="42.94382" lon="-0.33795">
        <ele>1785.15</ele>
        <time>2018-01-08T13:45:46Z</time>
      </trkpt>
      <trkpt lat="42.94389" lon="-0.33792">
        <ele>1783.42</ele>
        <time>2018-01-08T13:45:47Z</time>
      </trkpt>
      <trkpt lat="42.94396" lon="-0.33787">
        <ele>1781.79</ele>
        <time>2018-01-08T13:45:48Z</time>
      </trkpt>
      <trkpt lat="42.94402" lon="-0.33781">
        <ele>1780.14</ele>
        <time>2018-01-08T13:45:49Z</time>
      </trkpt>
      <trkpt lat="42.94409" lon="-0.33777">
        <ele>1778.4</ele>
        <time>2018-01-08T13:45:50Z</time>
      </trkpt>
      <trkpt lat="42.94416" lon="-0.33774">
        <ele>1776.7</ele>
        <time>2018-01-08T13:45:51Z</time>
      </trkpt>
      <trkpt lat="42.94423" lon="-0.3377">
        <ele>1775.07</ele>
        <time>2018-01-08T13:45:52Z</time>
      </trkpt>
      <trkpt lat="42.9443" lon="-0.33768">
        <ele>1773.34</ele>
        <time>2018-01-08T13:45:53Z</time>
      </trkpt>
      <trkpt lat="42.94437" lon="-0.3377">
        <ele>1771.55</ele>
        <time>2018-01-08T13:45:54Z</time>
      </trkpt>
      <trkpt lat="42.9444" lon="-0.33775">
        <ele>1769.87</ele>
        <time>2018-01-08T13:45:55Z</time>
      </trkpt>
      <trkpt lat="42.94442" lon="-0.3378">
        <ele>1768.3</ele>
        <time>2018-01-08T13:45:56Z</time>
      </trkpt>
      <trkpt lat="42.94443" lon="-0.33785">
        <ele>1766.73</ele>
        <time>2018-01-08T13:45:57Z</time>
      </trkpt>
      <trkpt lat="42.94444" lon="-0.3379">
        <ele>1765.21</ele>
        <time>2018-01-08T13:45:58Z</time>
      </trkpt>
      <trkpt lat="42.94445" lon="-0.33794">
        <ele>1763.84</ele>
        <time>2018-01-08T13:45:59Z</time>
      </trkpt>
      <trkpt lat="42.94446" lon="-0.33797">
        <ele>1762.62</ele>
        <time>2018-01-08T13:46:00Z</time>
      </trkpt>
      <trkpt lat="42.94451" lon="-0.33805">
        <ele>1758.93</ele>
        <time>2018-01-08T13:46:03Z</time>
      </trkpt>
      <trkpt lat="42.94456" lon="-0.33808">
        <ele>1756.08</ele>
        <time>2018-01-08T13:46:14Z</time>
      </trkpt>
      <trkpt lat="42.94461" lon="-0.33807">
        <ele>1756.37</ele>
        <time>2018-01-08T13:46:29Z</time>
      </trkpt>
      <trkpt lat="42.94469" lon="-0.33804">
        <ele>1757.99</ele>
        <time>2018-01-08T13:46:44Z</time>
      </trkpt>
      <trkpt lat="42.94477" lon="-0.33802">
        <ele>1759.66</ele>
        <time>2018-01-08T13:46:59Z</time>
      </trkpt>
      <trkpt lat="42.94473" lon="-0.33801">
        <ele>1760.62</ele>
        <time>2018-01-08T13:47:07Z</time>
      </trkpt>
      <trkpt lat="42.94466" lon="-0.33806">
        <ele>1760.74</ele>
        <time>2018-01-08T13:47:10Z</time>
      </trkpt>
      <trkpt lat="42.94464" lon="-0.3381">
        <ele>1760.74</ele>
        <time>2018-01-08T13:47:11Z</time>
      </trkpt>
      <trkpt lat="42.94461" lon="-0.33812">
        <ele>1760.7</ele>
        <time>2018-01-08T13:47:12Z</time>
      </trkpt>
      <trkpt lat="42.94456" lon="-0.33811">
        <ele>1760.48</ele>
        <time>2018-01-08T13:47:14Z</time>
      </trkpt>
      <trkpt lat="42.94455" lon="-0.3381">
        <ele>1760.15</ele>
        <time>2018-01-08T13:47:15Z</time>
      </trkpt>
      <trkpt lat="42.94453" lon="-0.33807">
        <ele>1757.05</ele>
        <time>2018-01-08T13:47:24Z</time>
      </trkpt>
      <trkpt lat="42.94454" lon="-0.33805">
        <ele>1756.64</ele>
        <time>2018-01-08T13:47:46Z</time>
      </trkpt>
      <trkpt lat="42.94455" lon="-0.33803">
        <ele>1756.64</ele>
        <time>2018-01-08T13:48:10Z</time>
      </trkpt>
      <trkpt lat="42.94458" lon="-0.33802">
        <ele>1756.64</ele>
        <time>2018-01-08T13:48:26Z</time>
      </trkpt>
      <trkpt lat="42.94459" lon="-0.338">
        <ele>1755.96</ele>
        <time>2018-01-08T13:48:39Z</time>
      </trkpt>
      <trkpt lat="42.94459" lon="-0.3379">
        <ele>1756.55</ele>
        <time>2018-01-08T13:49:02Z</time>
      </trkpt>
      <trkpt lat="42.94456" lon="-0.33803">
        <ele>1756.31</ele>
        <time>2018-01-08T13:49:32Z</time>
      </trkpt>
      <trkpt lat="42.94464" lon="-0.33811">
        <ele>1755.97</ele>
        <time>2018-01-08T13:50:00Z</time>
      </trkpt>
      <trkpt lat="42.94465" lon="-0.33807">
        <ele>1756.14</ele>
        <time>2018-01-08T13:50:32Z</time>
      </trkpt>
      <trkpt lat="42.94466" lon="-0.33807">
        <ele>1756.54</ele>
        <time>2018-01-08T13:50:58Z</time>
      </trkpt>
      <trkpt lat="42.94461" lon="-0.33808">
        <ele>1756.75</ele>
        <time>2018-01-08T13:51:31Z</time>
      </trkpt>
      <trkpt lat="42.94459" lon="-0.33803">
        <ele>1756.85</ele>
        <time>2018-01-08T13:51:58Z</time>
      </trkpt>
      <trkpt lat="42.94456" lon="-0.33802">
        <ele>1757.15</ele>
        <time>2018-01-08T13:52:35Z</time>
      </trkpt>
      <trkpt lat="42.94459" lon="-0.33808">
        <ele>1757.49</ele>
        <time>2018-01-08T13:53:09Z</time>
      </trkpt>
      <trkpt lat="42.94463" lon="-0.33808">
        <ele>1757.72</ele>
        <time>2018-01-08T13:53:44Z</time>
      </trkpt>
      <trkpt lat="42.94469" lon="-0.33808">
        <ele>1757.17</ele>
        <time>2018-01-08T13:54:13Z</time>
      </trkpt>
      <trkpt lat="42.9447" lon="-0.33811">
        <ele>1756.96</ele>
        <time>2018-01-08T13:54:49Z</time>
      </trkpt>
      <trkpt lat="42.94473" lon="-0.33812">
        <ele>1756.84</ele>
        <time>2018-01-08T13:55:20Z</time>
      </trkpt>
      <trkpt lat="42.94466" lon="-0.33811">
        <ele>1756.58</ele>
        <time>2018-01-08T13:55:53Z</time>
      </trkpt>
      <trkpt lat="42.94464" lon="-0.33817">
        <ele>1757.4</ele>
        <time>2018-01-08T13:56:27Z</time>
      </trkpt>
      <trkpt lat="42.94461" lon="-0.33816">
        <ele>1757.16</ele>
        <time>2018-01-08T13:56:56Z</time>
      </trkpt>
      <trkpt lat="42.94464" lon="-0.33813">
        <ele>1757.65</ele>
        <time>2018-01-08T13:57:30Z</time>
      </trkpt>
      <trkpt lat="42.94467" lon="-0.33807">
        <ele>1757.06</ele>
        <time>2018-01-08T13:58:16Z</time>
      </trkpt>
      <trkpt lat="42.94465" lon="-0.33802">
        <ele>1757.67</ele>
        <time>2018-01-08T13:58:59Z</time>
      </trkpt>
      <trkpt lat="42.94468" lon="-0.3381">
        <ele>1758.3</ele>
        <time>2018-01-08T13:59:36Z</time>
      </trkpt>
      <trkpt lat="42.94467" lon="-0.33814">
        <ele>1758.16</ele>
        <time>2018-01-08T14:00:13Z</time>
      </trkpt>
      <trkpt lat="42.94458" lon="-0.33808">
        <ele>1758.03</ele>
        <time>2018-01-08T14:00:46Z</time>
      </trkpt>
      <trkpt lat="42.94458" lon="-0.33813">
        <ele>1757.02</ele>
        <time>2018-01-08T14:01:16Z</time>
      </trkpt>
      <trkpt lat="42.94461" lon="-0.33813">
        <ele>1757.86</ele>
        <time>2018-01-08T14:01:49Z</time>
      </trkpt>
      <trkpt lat="42.94462" lon="-0.33808">
        <ele>1757.28</ele>
        <time>2018-01-08T14:02:21Z</time>
      </trkpt>
      <trkpt lat="42.94466" lon="-0.33801">
        <ele>1757.93</ele>
        <time>2018-01-08T14:02:52Z</time>
      </trkpt>
      <trkpt lat="42.94476" lon="-0.33804">
        <ele>1758.12</ele>
        <time>2018-01-08T14:03:46Z</time>
      </trkpt>
      <trkpt lat="42.94484" lon="-0.33799">
        <ele>1758.21</ele>
        <time>2018-01-08T14:04:09Z</time>
      </trkpt>
      <trkpt lat="42.94482" lon="-0.33795">
        <ele>1757.85</ele>
        <time>2018-01-08T14:04:31Z</time>
      </trkpt>
      <trkpt lat="42.94484" lon="-0.33795">
        <ele>1758.18</ele>
        <time>2018-01-08T14:04:40Z</time>
      </trkpt>
      <trkpt lat="42.94469" lon="-0.33803">
        <ele>1759.04</ele>
        <time>2018-01-08T14:05:10Z</time>
      </trkpt>
      <trkpt lat="42.9447" lon="-0.33806">
        <ele>1758.32</ele>
        <time>2018-01-08T14:05:35Z</time>
      </trkpt>
      <trkpt lat="42.94465" lon="-0.33799">
        <ele>1759.49</ele>
        <time>2018-01-08T14:05:44Z</time>
      </trkpt>
      <trkpt lat="42.94466" lon="-0.33799">
        <ele>1760</ele>
        <time>2018-01-08T14:06:01Z</time>
      </trkpt>
      <trkpt lat="42.9446" lon="-0.33799">
        <ele>1758.81</ele>
        <time>2018-01-08T14:06:19Z</time>
      </trkpt>
      <trkpt lat="42.94456" lon="-0.33807">
        <ele>1758.94</ele>
        <time>2018-01-08T14:06:25Z</time>
      </trkpt>
      <trkpt lat="42.94453" lon="-0.33808">
        <ele>1759.01</ele>
        <time>2018-01-08T14:06:50Z</time>
      </trkpt>
      <trkpt lat="42.94453" lon="-0.33808">
        <ele>1759.14</ele>
        <time>2018-01-08T14:07:12Z</time>
      </trkpt>
      <trkpt lat="42.94452" lon="-0.33807">
        <ele>1759.33</ele>
        <time>2018-01-08T14:07:35Z</time>
      </trkpt>
      <trkpt lat="42.94453" lon="-0.3381">
        <ele>1759.33</ele>
        <time>2018-01-08T14:07:53Z</time>
      </trkpt>
      <trkpt lat="42.94453" lon="-0.33811">
        <ele>1760.02</ele>
        <time>2018-01-08T14:08:20Z</time>
      </trkpt>
      <trkpt lat="42.94453" lon="-0.33811">
        <ele>1760.11</ele>
        <time>2018-01-08T14:08:56Z</time>
      </trkpt>
      <trkpt lat="42.94453" lon="-0.3381">
        <ele>1760.43</ele>
        <time>2018-01-08T14:09:16Z</time>
      </trkpt>
      <trkpt lat="42.94453" lon="-0.33814">
        <ele>1761</ele>
        <time>2018-01-08T14:09:49Z</time>
      </trkpt>
      <trkpt lat="42.94454" lon="-0.33811">
        <ele>1761.39</ele>
        <time>2018-01-08T14:10:27Z</time>
      </trkpt>
      <trkpt lat="42.94453" lon="-0.33812">
        <ele>1761.25</ele>
        <time>2018-01-08T14:10:53Z</time>
      </trkpt>
      <trkpt lat="42.94452" lon="-0.33818">
        <ele>1761.16</ele>
        <time>2018-01-08T14:10:56Z</time>
      </trkpt>
      <trkpt lat="42.94453" lon="-0.33824">
        <ele>1761.19</ele>
        <time>2018-01-08T14:10:58Z</time>
      </trkpt>
      <trkpt lat="42.94457" lon="-0.3384">
        <ele>1761.16</ele>
        <time>2018-01-08T14:11:02Z</time>
      </trkpt>
      <trkpt lat="42.94461" lon="-0.33843">
        <ele>1761.07</ele>
        <time>2018-01-08T14:11:03Z</time>
      </trkpt>
      <trkpt lat="42.94466" lon="-0.33845">
        <ele>1760.89</ele>
        <time>2018-01-08T14:11:04Z</time>
      </trkpt>
      <trkpt lat="42.94472" lon="-0.33847">
        <ele>1760.62</ele>
        <time>2018-01-08T14:11:05Z</time>
      </trkpt>
      <trkpt lat="42.9448" lon="-0.33847">
        <ele>1760.24</ele>
        <time>2018-01-08T14:11:06Z</time>
      </trkpt>
      <trkpt lat="42.94487" lon="-0.33845">
        <ele>1759.74</ele>
        <time>2018-01-08T14:11:07Z</time>
      </trkpt>
      <trkpt lat="42.94494" lon="-0.33845">
        <ele>1759.14</ele>
        <time>2018-01-08T14:11:08Z</time>
      </trkpt>
      <trkpt lat="42.94501" lon="-0.33846">
        <ele>1758.42</ele>
        <time>2018-01-08T14:11:09Z</time>
      </trkpt>
      <trkpt lat="42.94509" lon="-0.33847">
        <ele>1757.67</ele>
        <time>2018-01-08T14:11:10Z</time>
      </trkpt>
      <trkpt lat="42.94516" lon="-0.33845">
        <ele>1757</ele>
        <time>2018-01-08T14:11:11Z</time>
      </trkpt>
      <trkpt lat="42.94522" lon="-0.33841">
        <ele>1756.4</ele>
        <time>2018-01-08T14:11:12Z</time>
      </trkpt>
      <trkpt lat="42.94528" lon="-0.33834">
        <ele>1755.76</ele>
        <time>2018-01-08T14:11:13Z</time>
      </trkpt>
      <trkpt lat="42.94533" lon="-0.33826">
        <ele>1755.07</ele>
        <time>2018-01-08T14:11:14Z</time>
      </trkpt>
      <trkpt lat="42.94537" lon="-0.33817">
        <ele>1754.31</ele>
        <time>2018-01-08T14:11:15Z</time>
      </trkpt>
      <trkpt lat="42.9454" lon="-0.33807">
        <ele>1753.51</ele>
        <time>2018-01-08T14:11:16Z</time>
      </trkpt>
      <trkpt lat="42.94543" lon="-0.33795">
        <ele>1752.7</ele>
        <time>2018-01-08T14:11:17Z</time>
      </trkpt>
      <trkpt lat="42.94545" lon="-0.33784">
        <ele>1751.95</ele>
        <time>2018-01-08T14:11:18Z</time>
      </trkpt>
      <trkpt lat="42.94547" lon="-0.33772">
        <ele>1751.28</ele>
        <time>2018-01-08T14:11:19Z</time>
      </trkpt>
      <trkpt lat="42.94551" lon="-0.33761">
        <ele>1750.59</ele>
        <time>2018-01-08T14:11:20Z</time>
      </trkpt>
      <trkpt lat="42.94555" lon="-0.3375">
        <ele>1749.74</ele>
        <time>2018-01-08T14:11:21Z</time>
      </trkpt>
      <trkpt lat="42.9456" lon="-0.33739">
        <ele>1748.69</ele>
        <time>2018-01-08T14:11:22Z</time>
      </trkpt>
      <trkpt lat="42.94569" lon="-0.33732">
        <ele>1747.48</ele>
        <time>2018-01-08T14:11:23Z</time>
      </trkpt>
      <trkpt lat="42.94578" lon="-0.33731">
        <ele>1746.18</ele>
        <time>2018-01-08T14:11:24Z</time>
      </trkpt>
      <trkpt lat="42.94584" lon="-0.33738">
        <ele>1743.47</ele>
        <time>2018-01-08T14:11:25Z</time>
      </trkpt>
      <trkpt lat="42.94588" lon="-0.33749">
        <ele>1741.97</ele>
        <time>2018-01-08T14:11:26Z</time>
      </trkpt>
      <trkpt lat="42.94592" lon="-0.33761">
        <ele>1740.4</ele>
        <time>2018-01-08T14:11:27Z</time>
      </trkpt>
      <trkpt lat="42.94597" lon="-0.33784">
        <ele>1737.63</ele>
        <time>2018-01-08T14:11:29Z</time>
      </trkpt>
      <trkpt lat="42.94598" lon="-0.33795">
        <ele>1736.41</ele>
        <time>2018-01-08T14:11:30Z</time>
      </trkpt>
      <trkpt lat="42.94599" lon="-0.33807">
        <ele>1735.31</ele>
        <time>2018-01-08T14:11:31Z</time>
      </trkpt>
      <trkpt lat="42.946" lon="-0.33819">
        <ele>1734.29</ele>
        <time>2018-01-08T14:11:32Z</time>
      </trkpt>
      <trkpt lat="42.94605" lon="-0.33828">
        <ele>1733.24</ele>
        <time>2018-01-08T14:11:33Z</time>
      </trkpt>
      <trkpt lat="42.94611" lon="-0.33832">
        <ele>1732.07</ele>
        <time>2018-01-08T14:11:34Z</time>
      </trkpt>
      <trkpt lat="42.94618" lon="-0.33829">
        <ele>1730.74</ele>
        <time>2018-01-08T14:11:35Z</time>
      </trkpt>
      <trkpt lat="42.94624" lon="-0.33822">
        <ele>1729.19</ele>
        <time>2018-01-08T14:11:36Z</time>
      </trkpt>
      <trkpt lat="42.9463" lon="-0.33813">
        <ele>1727.58</ele>
        <time>2018-01-08T14:11:37Z</time>
      </trkpt>
      <trkpt lat="42.94636" lon="-0.33802">
        <ele>1726.01</ele>
        <time>2018-01-08T14:11:38Z</time>
      </trkpt>
      <trkpt lat="42.94642" lon="-0.33791">
        <ele>1724.47</ele>
        <time>2018-01-08T14:11:39Z</time>
      </trkpt>
      <trkpt lat="42.94647" lon="-0.33779">
        <ele>1723.04</ele>
        <time>2018-01-08T14:11:40Z</time>
      </trkpt>
      <trkpt lat="42.94652" lon="-0.33767">
        <ele>1721.68</ele>
        <time>2018-01-08T14:11:41Z</time>
      </trkpt>
      <trkpt lat="42.94658" lon="-0.33756">
        <ele>1720.29</ele>
        <time>2018-01-08T14:11:42Z</time>
      </trkpt>
      <trkpt lat="42.94664" lon="-0.33746">
        <ele>1718.9</ele>
        <time>2018-01-08T14:11:43Z</time>
      </trkpt>
      <trkpt lat="42.9467" lon="-0.33736">
        <ele>1717.48</ele>
        <time>2018-01-08T14:11:44Z</time>
      </trkpt>
      <trkpt lat="42.94677" lon="-0.33729">
        <ele>1716.07</ele>
        <time>2018-01-08T14:11:45Z</time>
      </trkpt>
      <trkpt lat="42.94683" lon="-0.33722">
        <ele>1714.66</ele>
        <time>2018-01-08T14:11:46Z</time>
      </trkpt>
      <trkpt lat="42.9469" lon="-0.33716">
        <ele>1713.21</ele>
        <time>2018-01-08T14:11:47Z</time>
      </trkpt>
      <trkpt lat="42.94698" lon="-0.33714">
        <ele>1711.77</ele>
        <time>2018-01-08T14:11:48Z</time>
      </trkpt>
      <trkpt lat="42.94703" lon="-0.33719">
        <ele>1710.37</ele>
        <time>2018-01-08T14:11:49Z</time>
      </trkpt>
      <trkpt lat="42.94703" lon="-0.33727">
        <ele>1708.99</ele>
        <time>2018-01-08T14:11:50Z</time>
      </trkpt>
      <trkpt lat="42.94699" lon="-0.33735">
        <ele>1707.55</ele>
        <time>2018-01-08T14:11:51Z</time>
      </trkpt>
      <trkpt lat="42.94695" lon="-0.33742">
        <ele>1706.11</ele>
        <time>2018-01-08T14:11:52Z</time>
      </trkpt>
      <trkpt lat="42.9469" lon="-0.3375">
        <ele>1704.83</ele>
        <time>2018-01-08T14:11:53Z</time>
      </trkpt>
      <trkpt lat="42.94686" lon="-0.33758">
        <ele>1703.76</ele>
        <time>2018-01-08T14:11:54Z</time>
      </trkpt>
      <trkpt lat="42.94682" lon="-0.33767">
        <ele>1702.8</ele>
        <time>2018-01-08T14:11:55Z</time>
      </trkpt>
      <trkpt lat="42.94679" lon="-0.33776">
        <ele>1701.82</ele>
        <time>2018-01-08T14:11:56Z</time>
      </trkpt>
      <trkpt lat="42.94677" lon="-0.33786">
        <ele>1700.79</ele>
        <time>2018-01-08T14:11:57Z</time>
      </trkpt>
      <trkpt lat="42.94675" lon="-0.33797">
        <ele>1699.81</ele>
        <time>2018-01-08T14:11:58Z</time>
      </trkpt>
      <trkpt lat="42.9467" lon="-0.33832">
        <ele>1697.01</ele>
        <time>2018-01-08T14:12:01Z</time>
      </trkpt>
      <trkpt lat="42.94673" lon="-0.3384">
        <ele>1695.93</ele>
        <time>2018-01-08T14:12:02Z</time>
      </trkpt>
      <trkpt lat="42.94678" lon="-0.33842">
        <ele>1694.75</ele>
        <time>2018-01-08T14:12:03Z</time>
      </trkpt>
      <trkpt lat="42.94682" lon="-0.33838">
        <ele>1693.39</ele>
        <time>2018-01-08T14:12:04Z</time>
      </trkpt>
      <trkpt lat="42.94686" lon="-0.33831">
        <ele>1691.77</ele>
        <time>2018-01-08T14:12:05Z</time>
      </trkpt>
      <trkpt lat="42.9469" lon="-0.33822">
        <ele>1690.1</ele>
        <time>2018-01-08T14:12:06Z</time>
      </trkpt>
      <trkpt lat="42.94695" lon="-0.33812">
        <ele>1688.51</ele>
        <time>2018-01-08T14:12:07Z</time>
      </trkpt>
      <trkpt lat="42.94702" lon="-0.33803">
        <ele>1686.93</ele>
        <time>2018-01-08T14:12:08Z</time>
      </trkpt>
      <trkpt lat="42.9471" lon="-0.33797">
        <ele>1685.4</ele>
        <time>2018-01-08T14:12:09Z</time>
      </trkpt>
      <trkpt lat="42.94719" lon="-0.33791">
        <ele>1683.9</ele>
        <time>2018-01-08T14:12:10Z</time>
      </trkpt>
      <trkpt lat="42.94737" lon="-0.33779">
        <ele>1680.89</ele>
        <time>2018-01-08T14:12:12Z</time>
      </trkpt>
      <trkpt lat="42.94746" lon="-0.33774">
        <ele>1678.01</ele>
        <time>2018-01-08T14:12:13Z</time>
      </trkpt>
      <trkpt lat="42.94756" lon="-0.33768">
        <ele>1676.56</ele>
        <time>2018-01-08T14:12:14Z</time>
      </trkpt>
      <trkpt lat="42.94767" lon="-0.33765">
        <ele>1675.04</ele>
        <time>2018-01-08T14:12:15Z</time>
      </trkpt>
      <trkpt lat="42.94777" lon="-0.33761">
        <ele>1673.43</ele>
        <time>2018-01-08T14:12:16Z</time>
      </trkpt>
      <trkpt lat="42.94788" lon="-0.33757">
        <ele>1671.77</ele>
        <time>2018-01-08T14:12:17Z</time>
      </trkpt>
      <trkpt lat="42.94798" lon="-0.33755">
        <ele>1670.1</ele>
        <time>2018-01-08T14:12:18Z</time>
      </trkpt>
      <trkpt lat="42.94809" lon="-0.33752">
        <ele>1668.43</ele>
        <time>2018-01-08T14:12:19Z</time>
      </trkpt>
      <trkpt lat="42.94828" lon="-0.33741">
        <ele>1664.97</ele>
        <time>2018-01-08T14:12:21Z</time>
      </trkpt>
      <trkpt lat="42.94833" lon="-0.33731">
        <ele>1663.21</ele>
        <time>2018-01-08T14:12:22Z</time>
      </trkpt>
      <trkpt lat="42.94835" lon="-0.3372">
        <ele>1661.42</ele>
        <time>2018-01-08T14:12:23Z</time>
      </trkpt>
      <trkpt lat="42.94835" lon="-0.33708">
        <ele>1659.69</ele>
        <time>2018-01-08T14:12:24Z</time>
      </trkpt>
      <trkpt lat="42.94834" lon="-0.33696">
        <ele>1658.12</ele>
        <time>2018-01-08T14:12:25Z</time>
      </trkpt>
      <trkpt lat="42.94835" lon="-0.33684">
        <ele>1656.71</ele>
        <time>2018-01-08T14:12:26Z</time>
      </trkpt>
      <trkpt lat="42.94836" lon="-0.33671">
        <ele>1655.35</ele>
        <time>2018-01-08T14:12:27Z</time>
      </trkpt>
      <trkpt lat="42.94836" lon="-0.33658">
        <ele>1653.99</ele>
        <time>2018-01-08T14:12:28Z</time>
      </trkpt>
      <trkpt lat="42.94838" lon="-0.33646">
        <ele>1652.57</ele>
        <time>2018-01-08T14:12:29Z</time>
      </trkpt>
      <trkpt lat="42.94839" lon="-0.33634">
        <ele>1651.14</ele>
        <time>2018-01-08T14:12:30Z</time>
      </trkpt>
      <trkpt lat="42.94841" lon="-0.33623">
        <ele>1649.77</ele>
        <time>2018-01-08T14:12:31Z</time>
      </trkpt>
      <trkpt lat="42.94843" lon="-0.33611">
        <ele>1648.5</ele>
        <time>2018-01-08T14:12:32Z</time>
      </trkpt>
      <trkpt lat="42.94844" lon="-0.33599">
        <ele>1647.29</ele>
        <time>2018-01-08T14:12:33Z</time>
      </trkpt>
      <trkpt lat="42.94847" lon="-0.33587">
        <ele>1646.1</ele>
        <time>2018-01-08T14:12:34Z</time>
      </trkpt>
      <trkpt lat="42.94852" lon="-0.33577">
        <ele>1644.85</ele>
        <time>2018-01-08T14:12:35Z</time>
      </trkpt>
      <trkpt lat="42.9486" lon="-0.33572">
        <ele>1643.51</ele>
        <time>2018-01-08T14:12:36Z</time>
      </trkpt>
      <trkpt lat="42.94869" lon="-0.33571">
        <ele>1642.06</ele>
        <time>2018-01-08T14:12:37Z</time>
      </trkpt>
      <trkpt lat="42.94877" lon="-0.33575">
        <ele>1640.45</ele>
        <time>2018-01-08T14:12:38Z</time>
      </trkpt>
      <trkpt lat="42.94885" lon="-0.33581">
        <ele>1638.78</ele>
        <time>2018-01-08T14:12:39Z</time>
      </trkpt>
      <trkpt lat="42.94892" lon="-0.33589">
        <ele>1637.14</ele>
        <time>2018-01-08T14:12:40Z</time>
      </trkpt>
      <trkpt lat="42.94899" lon="-0.33599">
        <ele>1635.54</ele>
        <time>2018-01-08T14:12:41Z</time>
      </trkpt>
      <trkpt lat="42.94906" lon="-0.33608">
        <ele>1633.95</ele>
        <time>2018-01-08T14:12:42Z</time>
      </trkpt>
      <trkpt lat="42.94914" lon="-0.33617">
        <ele>1632.34</ele>
        <time>2018-01-08T14:12:43Z</time>
      </trkpt>
      <trkpt lat="42.94922" lon="-0.33626">
        <ele>1630.8</ele>
        <time>2018-01-08T14:12:44Z</time>
      </trkpt>
      <trkpt lat="42.94929" lon="-0.33638">
        <ele>1629.33</ele>
        <time>2018-01-08T14:12:45Z</time>
      </trkpt>
      <trkpt lat="42.94934" lon="-0.33651">
        <ele>1627.82</ele>
        <time>2018-01-08T14:12:46Z</time>
      </trkpt>
      <trkpt lat="42.94937" lon="-0.33665">
        <ele>1626.21</ele>
        <time>2018-01-08T14:12:47Z</time>
      </trkpt>
      <trkpt lat="42.94942" lon="-0.33677">
        <ele>1624.52</ele>
        <time>2018-01-08T14:12:48Z</time>
      </trkpt>
      <trkpt lat="42.94949" lon="-0.33686">
        <ele>1621.15</ele>
        <time>2018-01-08T14:12:49Z</time>
      </trkpt>
      <trkpt lat="42.94958" lon="-0.33692">
        <ele>1619.46</ele>
        <time>2018-01-08T14:12:50Z</time>
      </trkpt>
      <trkpt lat="42.94966" lon="-0.33697">
        <ele>1617.64</ele>
        <time>2018-01-08T14:12:51Z</time>
      </trkpt>
      <trkpt lat="42.94974" lon="-0.33705">
        <ele>1615.74</ele>
        <time>2018-01-08T14:12:52Z</time>
      </trkpt>
      <trkpt lat="42.94982" lon="-0.33712">
        <ele>1613.94</ele>
        <time>2018-01-08T14:12:53Z</time>
      </trkpt>
      <trkpt lat="42.94999" lon="-0.33714">
        <ele>1610.77</ele>
        <time>2018-01-08T14:12:55Z</time>
      </trkpt>
      <trkpt lat="42.95006" lon="-0.33708">
        <ele>1609.32</ele>
        <time>2018-01-08T14:12:56Z</time>
      </trkpt>
      <trkpt lat="42.9501" lon="-0.33698">
        <ele>1607.87</ele>
        <time>2018-01-08T14:12:57Z</time>
      </trkpt>
      <trkpt lat="42.95012" lon="-0.33686">
        <ele>1606.28</ele>
        <time>2018-01-08T14:12:58Z</time>
      </trkpt>
      <trkpt lat="42.9501" lon="-0.33675">
        <ele>1604.58</ele>
        <time>2018-01-08T14:12:59Z</time>
      </trkpt>
      <trkpt lat="42.95007" lon="-0.33663">
        <ele>1602.88</ele>
        <time>2018-01-08T14:13:00Z</time>
      </trkpt>
      <trkpt lat="42.95003" lon="-0.33653">
        <ele>1601.29</ele>
        <time>2018-01-08T14:13:01Z</time>
      </trkpt>
      <trkpt lat="42.94998" lon="-0.33643">
        <ele>1599.83</ele>
        <time>2018-01-08T14:13:02Z</time>
      </trkpt>
      <trkpt lat="42.94994" lon="-0.33633">
        <ele>1598.41</ele>
        <time>2018-01-08T14:13:03Z</time>
      </trkpt>
      <trkpt lat="42.94993" lon="-0.33621">
        <ele>1596.94</ele>
        <time>2018-01-08T14:13:04Z</time>
      </trkpt>
      <trkpt lat="42.9501" lon="-0.33603">
        <ele>1592.24</ele>
        <time>2018-01-08T14:13:07Z</time>
      </trkpt>
      <trkpt lat="42.95022" lon="-0.33604">
        <ele>1588.21</ele>
        <time>2018-01-08T14:13:09Z</time>
      </trkpt>
      <trkpt lat="42.95033" lon="-0.33596">
        <ele>1584.58</ele>
        <time>2018-01-08T14:13:11Z</time>
      </trkpt>
      <trkpt lat="42.95044" lon="-0.33592">
        <ele>1581.37</ele>
        <time>2018-01-08T14:13:13Z</time>
      </trkpt>
      <trkpt lat="42.95049" lon="-0.33596">
        <ele>1579.8</ele>
        <time>2018-01-08T14:13:14Z</time>
      </trkpt>
      <trkpt lat="42.95055" lon="-0.33598">
        <ele>1578.25</ele>
        <time>2018-01-08T14:13:15Z</time>
      </trkpt>
      <trkpt lat="42.95061" lon="-0.33595">
        <ele>1576.7</ele>
        <time>2018-01-08T14:13:16Z</time>
      </trkpt>
      <trkpt lat="42.95072" lon="-0.33584">
        <ele>1573.42</ele>
        <time>2018-01-08T14:13:18Z</time>
      </trkpt>
      <trkpt lat="42.95084" lon="-0.33591">
        <ele>1569.53</ele>
        <time>2018-01-08T14:13:20Z</time>
      </trkpt>
      <trkpt lat="42.95098" lon="-0.33603">
        <ele>1565.49</ele>
        <time>2018-01-08T14:13:22Z</time>
      </trkpt>
      <trkpt lat="42.95113" lon="-0.33594">
        <ele>1561.64</ele>
        <time>2018-01-08T14:13:24Z</time>
      </trkpt>
      <trkpt lat="42.9513" lon="-0.33587">
        <ele>1557.45</ele>
        <time>2018-01-08T14:13:26Z</time>
      </trkpt>
      <trkpt lat="42.95144" lon="-0.33576">
        <ele>1552.89</ele>
        <time>2018-01-08T14:13:28Z</time>
      </trkpt>
      <trkpt lat="42.95153" lon="-0.33558">
        <ele>1548.69</ele>
        <time>2018-01-08T14:13:30Z</time>
      </trkpt>
      <trkpt lat="42.95166" lon="-0.33549">
        <ele>1544.91</ele>
        <time>2018-01-08T14:13:32Z</time>
      </trkpt>
      <trkpt lat="42.95176" lon="-0.33535">
        <ele>1541.52</ele>
        <time>2018-01-08T14:13:34Z</time>
      </trkpt>
      <trkpt lat="42.95188" lon="-0.33532">
        <ele>1537.4</ele>
        <time>2018-01-08T14:13:36Z</time>
      </trkpt>
      <trkpt lat="42.95204" lon="-0.33521">
        <ele>1533.49</ele>
        <time>2018-01-08T14:13:39Z</time>
      </trkpt>
      <trkpt lat="42.95225" lon="-0.33514">
        <ele>1530.42</ele>
        <time>2018-01-08T14:13:42Z</time>
      </trkpt>
      <trkpt lat="42.95243" lon="-0.33509">
        <ele>1526.25</ele>
        <time>2018-01-08T14:13:45Z</time>
      </trkpt>
      <trkpt lat="42.95255" lon="-0.33506">
        <ele>1523.17</ele>
        <time>2018-01-08T14:13:47Z</time>
      </trkpt>
      <trkpt lat="42.95268" lon="-0.33503">
        <ele>1519.78</ele>
        <time>2018-01-08T14:13:49Z</time>
      </trkpt>
      <trkpt lat="42.95281" lon="-0.33507">
        <ele>1516.21</ele>
        <time>2018-01-08T14:13:51Z</time>
      </trkpt>
      <trkpt lat="42.95293" lon="-0.33504">
        <ele>1512.48</ele>
        <time>2018-01-08T14:13:53Z</time>
      </trkpt>
      <trkpt lat="42.95305" lon="-0.33506">
        <ele>1508.66</ele>
        <time>2018-01-08T14:13:55Z</time>
      </trkpt>
      <trkpt lat="42.95312" lon="-0.33507">
        <ele>1506.66</ele>
        <time>2018-01-08T14:13:56Z</time>
      </trkpt>
      <trkpt lat="42.95318" lon="-0.33508">
        <ele>1504.63</ele>
        <time>2018-01-08T14:13:57Z</time>
      </trkpt>
      <trkpt lat="42.95323" lon="-0.33511">
        <ele>1502.65</ele>
        <time>2018-01-08T14:13:58Z</time>
      </trkpt>
      <trkpt lat="42.9533" lon="-0.33513">
        <ele>1500.73</ele>
        <time>2018-01-08T14:13:59Z</time>
      </trkpt>
      <trkpt lat="42.95337" lon="-0.33515">
        <ele>1498.83</ele>
        <time>2018-01-08T14:14:00Z</time>
      </trkpt>
      <trkpt lat="42.95344" lon="-0.33519">
        <ele>1496.93</ele>
        <time>2018-01-08T14:14:01Z</time>
      </trkpt>
      <trkpt lat="42.95358" lon="-0.33528">
        <ele>1493.12</ele>
        <time>2018-01-08T14:14:03Z</time>
      </trkpt>
      <trkpt lat="42.95373" lon="-0.33541">
        <ele>1489.36</ele>
        <time>2018-01-08T14:14:05Z</time>
      </trkpt>
      <trkpt lat="42.95379" lon="-0.33549">
        <ele>1487.61</ele>
        <time>2018-01-08T14:14:06Z</time>
      </trkpt>
      <trkpt lat="42.95386" lon="-0.33558">
        <ele>1484.04</ele>
        <time>2018-01-08T14:14:07Z</time>
      </trkpt>
      <trkpt lat="42.95391" lon="-0.33568">
        <ele>1482.16</ele>
        <time>2018-01-08T14:14:08Z</time>
      </trkpt>
      <trkpt lat="42.95393" lon="-0.3358">
        <ele>1480.34</ele>
        <time>2018-01-08T14:14:09Z</time>
      </trkpt>
      <trkpt lat="42.95394" lon="-0.33593">
        <ele>1478.6</ele>
        <time>2018-01-08T14:14:10Z</time>
      </trkpt>
      <trkpt lat="42.95395" lon="-0.33605">
        <ele>1476.96</ele>
        <time>2018-01-08T14:14:11Z</time>
      </trkpt>
      <trkpt lat="42.95399" lon="-0.33615">
        <ele>1475.41</ele>
        <time>2018-01-08T14:14:12Z</time>
      </trkpt>
      <trkpt lat="42.95405" lon="-0.3362">
        <ele>1473.91</ele>
        <time>2018-01-08T14:14:13Z</time>
      </trkpt>
      <trkpt lat="42.9541" lon="-0.33625">
        <ele>1472.38</ele>
        <time>2018-01-08T14:14:14Z</time>
      </trkpt>
      <trkpt lat="42.95415" lon="-0.33632">
        <ele>1470.77</ele>
        <time>2018-01-08T14:14:15Z</time>
      </trkpt>
      <trkpt lat="42.95419" lon="-0.33639">
        <ele>1469.16</ele>
        <time>2018-01-08T14:14:16Z</time>
      </trkpt>
      <trkpt lat="42.95424" lon="-0.33644">
        <ele>1467.65</ele>
        <time>2018-01-08T14:14:17Z</time>
      </trkpt>
      <trkpt lat="42.95431" lon="-0.33643">
        <ele>1466.29</ele>
        <time>2018-01-08T14:14:18Z</time>
      </trkpt>
      <trkpt lat="42.95438" lon="-0.33642">
        <ele>1464.94</ele>
        <time>2018-01-08T14:14:19Z</time>
      </trkpt>
      <trkpt lat="42.95444" lon="-0.33644">
        <ele>1463.5</ele>
        <time>2018-01-08T14:14:20Z</time>
      </trkpt>
      <trkpt lat="42.95448" lon="-0.33648">
        <ele>1462.04</ele>
        <time>2018-01-08T14:14:21Z</time>
      </trkpt>
      <trkpt lat="42.95453" lon="-0.33653">
        <ele>1460.59</ele>
        <time>2018-01-08T14:14:22Z</time>
      </trkpt>
      <trkpt lat="42.95458" lon="-0.33655">
        <ele>1459.16</ele>
        <time>2018-01-08T14:14:23Z</time>
      </trkpt>
      <trkpt lat="42.95463" lon="-0.33653">
        <ele>1457.76</ele>
        <time>2018-01-08T14:14:24Z</time>
      </trkpt>
      <trkpt lat="42.9547" lon="-0.33637">
        <ele>1453.69</ele>
        <time>2018-01-08T14:14:27Z</time>
      </trkpt>
      <trkpt lat="42.9547" lon="-0.3362">
        <ele>1449.62</ele>
        <time>2018-01-08T14:14:30Z</time>
      </trkpt>
      <trkpt lat="42.95481" lon="-0.33605">
        <ele>1446.16</ele>
        <time>2018-01-08T14:14:33Z</time>
      </trkpt>
      <trkpt lat="42.95493" lon="-0.33587">
        <ele>1441.94</ele>
        <time>2018-01-08T14:14:36Z</time>
      </trkpt>
      <trkpt lat="42.95496" lon="-0.3357">
        <ele>1438.83</ele>
        <time>2018-01-08T14:14:38Z</time>
      </trkpt>
      <trkpt lat="42.95494" lon="-0.33553">
        <ele>1435.25</ele>
        <time>2018-01-08T14:14:40Z</time>
      </trkpt>
      <trkpt lat="42.95492" lon="-0.33539">
        <ele>1431.7</ele>
        <time>2018-01-08T14:14:42Z</time>
      </trkpt>
      <trkpt lat="42.95497" lon="-0.33528">
        <ele>1427.01</ele>
        <time>2018-01-08T14:14:44Z</time>
      </trkpt>
      <trkpt lat="42.955" lon="-0.33521">
        <ele>1427.01</ele>
        <time>2018-01-08T14:14:45Z</time>
      </trkpt>
      <trkpt lat="42.95507" lon="-0.33508">
        <ele>1422.23</ele>
        <time>2018-01-08T14:14:47Z</time>
      </trkpt>
      <trkpt lat="42.95509" lon="-0.335">
        <ele>1422.23</ele>
        <time>2018-01-08T14:14:48Z</time>
      </trkpt>
      <trkpt lat="42.95512" lon="-0.33492">
        <ele>1418.75</ele>
        <time>2018-01-08T14:14:49Z</time>
      </trkpt>
      <trkpt lat="42.95522" lon="-0.33481">
        <ele>1415.15</ele>
        <time>2018-01-08T14:14:51Z</time>
      </trkpt>
      <trkpt lat="42.9553" lon="-0.33467">
        <ele>1411.51</ele>
        <time>2018-01-08T14:14:53Z</time>
      </trkpt>
      <trkpt lat="42.95542" lon="-0.3346">
        <ele>1407.8</ele>
        <time>2018-01-08T14:14:55Z</time>
      </trkpt>
      <trkpt lat="42.95555" lon="-0.33454">
        <ele>1404.04</ele>
        <time>2018-01-08T14:14:57Z</time>
      </trkpt>
      <trkpt lat="42.95568" lon="-0.33447">
        <ele>1400.71</ele>
        <time>2018-01-08T14:14:59Z</time>
      </trkpt>
      <trkpt lat="42.95572" lon="-0.3344">
        <ele>1399.25</ele>
        <time>2018-01-08T14:15:00Z</time>
      </trkpt>
      <trkpt lat="42.95574" lon="-0.33431">
        <ele>1397.84</ele>
        <time>2018-01-08T14:15:01Z</time>
      </trkpt>
      <trkpt lat="42.95576" lon="-0.33422">
        <ele>1396.45</ele>
        <time>2018-01-08T14:15:02Z</time>
      </trkpt>
      <trkpt lat="42.9558" lon="-0.33415">
        <ele>1395.12</ele>
        <time>2018-01-08T14:15:03Z</time>
      </trkpt>
      <trkpt lat="42.95583" lon="-0.33406">
        <ele>1393.85</ele>
        <time>2018-01-08T14:15:04Z</time>
      </trkpt>
      <trkpt lat="42.95584" lon="-0.33397">
        <ele>1392.52</ele>
        <time>2018-01-08T14:15:05Z</time>
      </trkpt>
      <trkpt lat="42.95585" lon="-0.33387">
        <ele>1391.11</ele>
        <time>2018-01-08T14:15:06Z</time>
      </trkpt>
      <trkpt lat="42.95589" lon="-0.3338">
        <ele>1389.75</ele>
        <time>2018-01-08T14:15:07Z</time>
      </trkpt>
      <trkpt lat="42.95593" lon="-0.33372">
        <ele>1388.5</ele>
        <time>2018-01-08T14:15:08Z</time>
      </trkpt>
      <trkpt lat="42.95595" lon="-0.33364">
        <ele>1387.27</ele>
        <time>2018-01-08T14:15:09Z</time>
      </trkpt>
      <trkpt lat="42.95596" lon="-0.33354">
        <ele>1386</ele>
        <time>2018-01-08T14:15:10Z</time>
      </trkpt>
      <trkpt lat="42.95598" lon="-0.33345">
        <ele>1384.73</ele>
        <time>2018-01-08T14:15:11Z</time>
      </trkpt>
      <trkpt lat="42.95602" lon="-0.33339">
        <ele>1383.48</ele>
        <time>2018-01-08T14:15:12Z</time>
      </trkpt>
      <trkpt lat="42.95607" lon="-0.33333">
        <ele>1382.26</ele>
        <time>2018-01-08T14:15:13Z</time>
      </trkpt>
      <trkpt lat="42.95609" lon="-0.33325">
        <ele>1381.02</ele>
        <time>2018-01-08T14:15:14Z</time>
      </trkpt>
      <trkpt lat="42.95611" lon="-0.33316">
        <ele>1379.79</ele>
        <time>2018-01-08T14:15:15Z</time>
      </trkpt>
      <trkpt lat="42.95615" lon="-0.3331">
        <ele>1378.59</ele>
        <time>2018-01-08T14:15:16Z</time>
      </trkpt>
      <trkpt lat="42.95619" lon="-0.33306">
        <ele>1377.39</ele>
        <time>2018-01-08T14:15:17Z</time>
      </trkpt>
      <trkpt lat="42.95623" lon="-0.33301">
        <ele>1376.15</ele>
        <time>2018-01-08T14:15:18Z</time>
      </trkpt>
      <trkpt lat="42.95627" lon="-0.33295">
        <ele>1374.84</ele>
        <time>2018-01-08T14:15:19Z</time>
      </trkpt>
      <trkpt lat="42.95632" lon="-0.33291">
        <ele>1373.56</ele>
        <time>2018-01-08T14:15:20Z</time>
      </trkpt>
      <trkpt lat="42.95639" lon="-0.33289">
        <ele>1372.37</ele>
        <time>2018-01-08T14:15:21Z</time>
      </trkpt>
      <trkpt lat="42.95646" lon="-0.3329">
        <ele>1371.24</ele>
        <time>2018-01-08T14:15:22Z</time>
      </trkpt>
      <trkpt lat="42.95652" lon="-0.3329">
        <ele>1368.89</ele>
        <time>2018-01-08T14:15:23Z</time>
      </trkpt>
      <trkpt lat="42.95659" lon="-0.33287">
        <ele>1367.77</ele>
        <time>2018-01-08T14:15:24Z</time>
      </trkpt>
      <trkpt lat="42.95665" lon="-0.33282">
        <ele>1366.66</ele>
        <time>2018-01-08T14:15:25Z</time>
      </trkpt>
      <trkpt lat="42.95672" lon="-0.33277">
        <ele>1365.51</ele>
        <time>2018-01-08T14:15:26Z</time>
      </trkpt>
      <trkpt lat="42.95679" lon="-0.33274">
        <ele>1364.38</ele>
        <time>2018-01-08T14:15:27Z</time>
      </trkpt>
      <trkpt lat="42.95685" lon="-0.33275">
        <ele>1363.32</ele>
        <time>2018-01-08T14:15:28Z</time>
      </trkpt>
      <trkpt lat="42.95689" lon="-0.3328">
        <ele>1362.28</ele>
        <time>2018-01-08T14:15:29Z</time>
      </trkpt>
      <trkpt lat="42.95692" lon="-0.33286">
        <ele>1361.21</ele>
        <time>2018-01-08T14:15:30Z</time>
      </trkpt>
      <trkpt lat="42.95695" lon="-0.33291">
        <ele>1360.18</ele>
        <time>2018-01-08T14:15:31Z</time>
      </trkpt>
      <trkpt lat="42.95699" lon="-0.33294">
        <ele>1359.21</ele>
        <time>2018-01-08T14:15:32Z</time>
      </trkpt>
      <trkpt lat="42.95704" lon="-0.33295">
        <ele>1358.29</ele>
        <time>2018-01-08T14:15:33Z</time>
      </trkpt>
      <trkpt lat="42.95708" lon="-0.33298">
        <ele>1357.39</ele>
        <time>2018-01-08T14:15:34Z</time>
      </trkpt>
      <trkpt lat="42.95711" lon="-0.33304">
        <ele>1356.47</ele>
        <time>2018-01-08T14:15:35Z</time>
      </trkpt>
      <trkpt lat="42.95714" lon="-0.3331">
        <ele>1355.56</ele>
        <time>2018-01-08T14:15:36Z</time>
      </trkpt>
      <trkpt lat="42.95718" lon="-0.33315">
        <ele>1354.68</ele>
        <time>2018-01-08T14:15:37Z</time>
      </trkpt>
      <trkpt lat="42.95723" lon="-0.33316">
        <ele>1353.86</ele>
        <time>2018-01-08T14:15:38Z</time>
      </trkpt>
      <trkpt lat="42.95733" lon="-0.33303">
        <ele>1350.38</ele>
        <time>2018-01-08T14:15:42Z</time>
      </trkpt>
      <trkpt lat="42.95734" lon="-0.333">
        <ele>1349.35</ele>
        <time>2018-01-08T14:15:43Z</time>
      </trkpt>
      <trkpt lat="42.95735" lon="-0.33299">
        <ele>1348.44</ele>
        <time>2018-01-08T14:15:44Z</time>
      </trkpt>
      <trkpt lat="42.95737" lon="-0.33298">
        <ele>1347.67</ele>
        <time>2018-01-08T14:15:45Z</time>
      </trkpt>
      <trkpt lat="42.95739" lon="-0.33298">
        <ele>1347.07</ele>
        <time>2018-01-08T14:15:46Z</time>
      </trkpt>
      <trkpt lat="42.95744" lon="-0.33299">
        <ele>1346.19</ele>
        <time>2018-01-08T14:15:48Z</time>
      </trkpt>
      <trkpt lat="42.95751" lon="-0.33304">
        <ele>1343.85</ele>
        <time>2018-01-08T14:15:59Z</time>
      </trkpt>
      <trkpt lat="42.9575" lon="-0.33306">
        <ele>1343.1</ele>
        <time>2018-01-08T14:16:18Z</time>
      </trkpt>
      <trkpt lat="42.9575" lon="-0.33305">
        <ele>1343.44</ele>
        <time>2018-01-08T14:16:35Z</time>
      </trkpt>
      <trkpt lat="42.9575" lon="-0.33306">
        <ele>1343.53</ele>
        <time>2018-01-08T14:16:52Z</time>
      </trkpt>
      <trkpt lat="42.95752" lon="-0.33309">
        <ele>1343.74</ele>
        <time>2018-01-08T14:17:24Z</time>
      </trkpt>
      <trkpt lat="42.95749" lon="-0.33306">
        <ele>1343.84</ele>
        <time>2018-01-08T14:17:51Z</time>
      </trkpt>
      <trkpt lat="42.95749" lon="-0.33305">
        <ele>1343.99</ele>
        <time>2018-01-08T14:18:12Z</time>
      </trkpt>
      <trkpt lat="42.95747" lon="-0.33305">
        <ele>1343.08</ele>
        <time>2018-01-08T14:18:33Z</time>
      </trkpt>
      <trkpt lat="42.95748" lon="-0.33304">
        <ele>1344.28</ele>
        <time>2018-01-08T14:19:21Z</time>
      </trkpt>
    </trkseg>
  </trk>
</gpx>